Provisional Data: West Branch Pine Creek near Galeton, PA


Please select a monitoring station.
Please select start date.
Please select start date.

<
Toggle Unit: C/F Toggle Unit: C/F
Sample Time Temperature (C) Temperature (F) Specific Conductivity (mS/cm) pH   Turbidity (NTU+) DO (mg/L)
10/22/2021 12:00:00 AM 12.43 54.374 0.047 7 16.87 9.91
10/22/2021 12:15:00 AM 12.39 54.302 0.047 6.98 15.82 9.89
10/22/2021 12:30:00 AM 12.33 54.194 0.045 6.94 18.5 9.91
10/22/2021 12:45:00 AM 12.27 54.086 0.046 6.97 21.94 9.91
10/22/2021 1:00:00 AM 12.23 54.014 0.047 6.96 17.69 9.92
10/22/2021 1:15:00 AM 12.18 53.924 0.047 6.96 14.35 9.93
10/22/2021 1:30:00 AM 12.15 53.87 0.047 6.97 11.97 9.95
10/22/2021 1:45:00 AM 12.13 53.834 0.047 6.94 10.97 9.95
10/22/2021 2:00:00 AM 12.11 53.798 0.047 6.94 10.3 9.96
10/22/2021 2:15:00 AM 12.09 53.762 0.045 6.85 10.7 9.97
10/22/2021 2:30:00 AM 12.05 53.69 0.047 6.93 10.05 9.98
10/22/2021 2:45:00 AM 12.02 53.636 0.047 6.95 9.94 9.98
10/22/2021 3:00:00 AM 11.99 53.582 0.048 6.9 10.46 10
10/22/2021 3:15:00 AM 11.96 53.528 0.048 6.95 10.32 10.01
10/22/2021 3:30:00 AM 11.93 53.474 0.048 6.94 10.27 10.02
10/22/2021 3:45:00 AM 11.91 53.438 0.048 6.89 8.77 10.03
10/22/2021 4:00:00 AM 11.88 53.384 0.048 6.89 8.34 10.05
10/22/2021 4:15:00 AM 11.85 53.33 0.048 6.95 11.08 10.06
10/22/2021 4:30:00 AM 11.83 53.294 0.048 6.93 7.87 10.06
10/22/2021 4:45:00 AM 11.81 53.258 0.048 6.97 9.06 10.08
10/22/2021 5:00:00 AM 11.78 53.204 0.048 6.98 8.58 10.08
10/22/2021 5:15:00 AM 11.76 53.168 0.049 6.97 8.28 10.1
10/22/2021 5:30:00 AM 11.74 53.132 0.049 6.96 7.13 10.1
10/22/2021 5:45:00 AM 11.72 53.096 0.047 6.99 7.28 10.12
10/22/2021 6:00:00 AM 11.69 53.042 0.046 6.99 7.19 10.13
10/22/2021 6:15:00 AM 11.67 53.006 0.049 7.01 6.5 10.13
10/22/2021 6:30:00 AM 11.65 52.97 0.049 7.03 5.83 10.14
10/22/2021 6:45:00 AM 11.63 52.934 0.049 7.04 6.45 10.16
10/22/2021 7:00:00 AM 11.61 52.898 0.048 6.95 6.55 10.16
10/22/2021 7:15:00 AM 11.58 52.844 0.048 6.95 6.57 10.16
10/22/2021 7:30:00 AM 11.56 52.808 0.049 6.95 5.6 10.17
10/22/2021 7:45:00 AM 11.54 52.772 0.046 6.92 6.56 10.19
10/22/2021 8:00:00 AM 11.53 52.754 0.046 6.9 6.15 10.2
10/22/2021 8:15:00 AM 11.51 52.718 0.049 6.97 5.03 10.24
10/22/2021 8:30:00 AM 11.5 52.7 0.048 6.93 6.02 10.29
10/22/2021 8:45:00 AM 11.5 52.7 0.049 7.05 4.5 10.34
10/22/2021 9:00:00 AM 11.52 52.736 0.049 7.07 4.44 10.39
10/22/2021 9:15:00 AM 11.52 52.736 0.049 7.05 4.39 10.41
10/22/2021 9:30:00 AM 11.53 52.754 0.049 7.06 4.15 10.43
10/22/2021 9:45:00 AM 11.53 52.754 0.049 7.07 3.99 10.45
10/22/2021 10:00:00 AM 11.55 52.79 0.047 7.06 5.2 10.48
10/22/2021 10:15:00 AM 11.56 52.808 0.049 7.1 3.82 10.5
10/22/2021 10:30:00 AM 11.6 52.88 0.049 7.12 3.89 10.54
10/22/2021 10:45:00 AM 11.62 52.916 0.048 7.12 3.37 10.55
10/22/2021 11:00:00 AM 11.65 52.97 0.047 7.1 4.85 10.58
10/22/2021 11:15:00 AM 11.7 53.06 0.047 7.13 4.95 10.6
10/22/2021 11:30:00 AM 11.74 53.132 0.046 7.15 4.88 10.62
10/22/2021 11:45:00 AM 11.72 53.096 0.048 7.15 3.78 10.61
10/22/2021 12:00:00 PM 11.77 53.186 0.047 7.15 4.99 10.6
10/22/2021 12:15:00 PM 11.8 53.24 0.048 7.19 3.7 10.6
10/22/2021 12:30:00 PM 11.82 53.276 0.048 7.19 3.57 10.62
10/22/2021 12:45:00 PM 11.82 53.276 0.048 7.19 3.62 10.61
10/22/2021 1:00:00 PM 11.85 53.33 0.048 7.21 3.56 10.62
10/22/2021 1:15:00 PM 11.92 53.456 0.047 7.16 4.64 10.62
10/22/2021 1:30:00 PM 11.92 53.456 0.048 7.21 3.49 10.62
10/22/2021 1:45:00 PM 11.91 53.438 0.048 7.23 3.41 10.63
10/22/2021 2:00:00 PM 11.99 53.582 0.047 7.19 4.55 10.62
10/22/2021 2:15:00 PM 11.98 53.564 0.045 7.2 4.47 10.62
10/22/2021 2:30:00 PM 11.95 53.51 0.048 7.19 3.49 10.61
10/22/2021 2:45:00 PM 11.98 53.564 0.045 7.19 4.69 10.59
10/22/2021 3:00:00 PM 11.97 53.546 0.048 7.2 3.58 10.58
10/22/2021 3:15:00 PM 11.93 53.474 0.048 7.19 3.66 10.56
10/22/2021 3:30:00 PM 11.92 53.456 0.048 7.19 3.46 10.53
10/22/2021 3:45:00 PM 11.94 53.492 0.048 7.18 3.49 10.5
10/22/2021 4:00:00 PM 11.92 53.456 0.048 7.18 3.46 10.5
10/22/2021 4:15:00 PM 11.85 53.33 0.048 7.16 3.43 10.49
10/22/2021 4:30:00 PM 11.8 53.24 0.048 7.14 3.45 10.48
10/22/2021 4:45:00 PM 11.81 53.258 0.048 7.14 3.41 10.48
10/22/2021 5:00:00 PM 11.79 53.222 0.048 7.16 3.36 10.48
10/22/2021 5:15:00 PM 11.74 53.132 0.048 7.14 3.33 10.46
10/22/2021 5:30:00 PM 11.67 53.006 0.048 7.13 3.44 10.43
10/22/2021 5:45:00 PM 11.62 52.916 0.048 7.13 3.5 10.41
10/22/2021 6:00:00 PM 11.57 52.826 0.048 7.12 3.32 10.39
10/22/2021 6:15:00 PM 11.51 52.718 0.048 7.1 3.37 10.36
10/22/2021 6:30:00 PM 11.44 52.592 0.048 7.09 3.33 10.34
10/22/2021 6:45:00 PM 11.36 52.448 0.047 7.04 4.7 10.32
10/22/2021 7:00:00 PM 11.28 52.304 0.049 7.06 3.75 10.32
10/22/2021 7:15:00 PM 11.2 52.16 0.049 7.04 3.58 10.32
10/22/2021 7:30:00 PM 11.11 51.998 0.049 7.04 3.42 10.32
10/22/2021 7:45:00 PM 11.02 51.836 0.049 7.01 3.43 10.33
10/22/2021 8:00:00 PM 10.94 51.692 0.049 7.03 3.28 10.36
10/22/2021 8:15:00 PM 10.85 51.53 0.049 7.02 3.38 10.37
10/22/2021 8:30:00 PM 10.77 51.386 0.049 7.02 3.33 10.39
10/22/2021 8:45:00 PM 10.7 51.26 0.046 6.98 4.33 10.41
10/22/2021 9:00:00 PM 10.62 51.116 0.049 7.02 3.25 10.43
10/22/2021 9:15:00 PM 10.55 50.99 0.049 7.01 3.33 10.45
10/22/2021 9:30:00 PM 10.47 50.846 0.049 7.01 3.44 10.47
10/22/2021 9:45:00 PM 10.39 50.702 0.049 7.01 3.27 10.49
10/22/2021 10:00:00 PM 10.32 50.576 0.049 6.98 3.23 10.51
10/22/2021 10:15:00 PM 10.26 50.468 0.049 6.98 3.2 10.53
10/22/2021 10:30:00 PM 10.21 50.378 0.049 7.02 3.27 10.54
10/22/2021 10:45:00 PM 10.16 50.288 0.049 6.98 3.27 10.56
10/22/2021 11:00:00 PM 10.13 50.234 0.049 7.01 3.15 10.57
10/22/2021 11:15:00 PM 10.09 50.162 0.049 7 3.2 10.58
10/22/2021 11:30:00 PM 10.06 50.108 0.049 7.01 3.25 10.59
10/22/2021 11:45:00 PM 10.03 50.054 0.049 7.01 3.15 10.6
10/23/2021 12:00:00 AM 10 50 0.049 7.01 3.11 10.61
10/23/2021 12:15:00 AM 9.97 49.946 0.049 7 3.16 10.61
10/23/2021 12:30:00 AM 9.94 49.892 0.049 6.99 3.14 10.62
10/23/2021 12:45:00 AM 9.9 49.82 0.049 7.01 3.12 10.62
10/23/2021 1:00:00 AM 9.87 49.766 0.046 6.98 4.15 10.63
10/23/2021 1:15:00 AM 9.84 49.712 0.049 7 3.14 10.65
10/23/2021 1:30:00 AM 9.8 49.64 0.049 7.01 3.06 10.65
10/23/2021 1:45:00 AM 9.77 49.586 0.049 6.98 3.1 10.66
10/23/2021 2:00:00 AM 9.74 49.532 0.049 7 3.14 10.66
10/23/2021 2:15:00 AM 9.71 49.478 0.049 7 3.03 10.67
10/23/2021 2:30:00 AM 9.68 49.424 0.049 6.97 3.09 10.68
10/23/2021 2:45:00 AM 9.66 49.388 0.049 7 3.05 10.69
10/23/2021 3:00:00 AM 9.64 49.352 0.049 6.99 3.08 10.7
10/23/2021 3:15:00 AM 9.62 49.316 0.048 6.97 4.07 10.7
10/23/2021 3:30:00 AM 9.6 49.28 0.049 7 3.05 10.71
10/23/2021 3:45:00 AM 9.58 49.244 0.049 7 3.08 10.71
10/23/2021 4:00:00 AM 9.56 49.208 0.049 6.99 3.05 10.71
10/23/2021 4:15:00 AM 9.55 49.19 0.049 6.99 3.01 10.72
10/23/2021 4:30:00 AM 9.53 49.154 0.049 6.99 3.06 10.72
10/23/2021 4:45:00 AM 9.51 49.118 0.049 6.99 3.05 10.73
10/23/2021 5:00:00 AM 9.5 49.1 0.049 6.99 2.98 10.73
10/23/2021 5:15:00 AM 9.49 49.082 0.049 6.92 2.99 10.74
10/23/2021 5:30:00 AM 9.47 49.046 0.049 6.97 3.15 10.74
10/23/2021 5:45:00 AM 9.45 49.01 0.048 6.95 4.15 10.74
10/23/2021 6:00:00 AM 9.44 48.992 0.049 6.98 3.14 10.75
10/23/2021 6:15:00 AM 9.42 48.956 0.048 6.97 4.09 10.75
10/23/2021 6:30:00 AM 9.41 48.938 0.049 7 3.04 10.76
10/23/2021 6:45:00 AM 9.39 48.902 0.049 7 2.95 10.77
10/23/2021 7:00:00 AM 9.38 48.884 0.047 6.96 3.98 10.77
10/23/2021 7:15:00 AM 9.37 48.866 0.049 6.97 2.97 10.77
10/23/2021 7:30:00 AM 9.36 48.848 0.049 7 3.15 10.78
10/23/2021 7:45:00 AM 9.35 48.83 0.048 6.97 4.16 10.79
10/23/2021 8:00:00 AM 9.34 48.812 0.049 6.96 2.94 10.8
10/23/2021 8:15:00 AM 9.34 48.812 0.047 6.98 3.92 10.82
10/23/2021 8:30:00 AM 9.33 48.794 0.048 6.99 2.96 10.83
10/23/2021 8:45:00 AM 9.33 48.794 0.048 7 2.96 10.87
10/23/2021 9:00:00 AM 9.33 48.794 0.048 7.02 2.95 10.9
10/23/2021 9:15:00 AM 9.34 48.812 0.048 7.03 2.84 10.94
10/23/2021 9:30:00 AM 9.35 48.83 0.046 7.03 3.89 10.98
10/23/2021 9:45:00 AM 9.37 48.866 0.048 7.05 2.87 11.03
10/23/2021 10:00:00 AM 9.38 48.884 0.048 7.07 2.81 11.06
10/23/2021 10:15:00 AM 9.41 48.938 0.048 7.08 2.8 11.08
10/23/2021 10:30:00 AM 9.44 48.992 0.048 7.11 2.83 11.11
10/23/2021 10:45:00 AM 9.47 49.046 0.048 7.12 2.77 11.13
10/23/2021 11:00:00 AM 9.49 49.082 0.048 7.11 2.79 11.13
10/23/2021 11:15:00 AM 9.53 49.154 0.045 7.1 3.91 11.14
10/23/2021 11:30:00 AM 9.58 49.244 0.048 7.12 2.75 11.15
10/23/2021 11:45:00 AM 9.61 49.298 0.048 7.14 2.75 11.15
10/23/2021 12:00:00 PM 9.64 49.352 0.047 7.14 2.81 11.13
10/23/2021 12:15:00 PM 9.7 49.46 0.046 7.13 3.87 11.14
10/23/2021 12:30:00 PM 9.76 49.568 0.047 7.15 2.76 11.15
10/23/2021 12:45:00 PM 9.8 49.64 0.047 7.17 2.77 11.14
10/23/2021 1:00:00 PM 9.86 49.748 0.045 7.15 3.86 11.12
10/23/2021 1:15:00 PM 9.88 49.784 0.045 7.14 3.71 11.09
10/23/2021 1:30:00 PM 9.93 49.874 0.045 7.15 3.83 11.09
10/23/2021 1:45:00 PM 9.98 49.964 0.045 7.16 4.14 11.1
10/23/2021 2:00:00 PM 10.05 50.09 0.047 7.18 2.79 11.1
10/23/2021 2:15:00 PM 10.11 50.198 0.047 7.2 2.76 11.08
10/23/2021 2:30:00 PM 10.15 50.27 0.047 7.19 2.88 11.07
10/23/2021 2:45:00 PM 10.19 50.342 0.047 7.22 2.82 11.06
10/23/2021 3:00:00 PM 10.2 50.36 0.047 7.22 2.87 11.05
10/23/2021 3:15:00 PM 10.22 50.396 0.047 7.2 2.88 11.03
10/23/2021 3:30:00 PM 10.25 50.45 0.047 7.22 2.74 11.02
10/23/2021 3:45:00 PM 10.28 50.504 0.047 7.22 2.76 11.02
10/23/2021 4:00:00 PM 10.3 50.54 0.047 7.22 2.81 11.01
10/23/2021 4:15:00 PM 10.31 50.558 0.047 7.21 2.75 10.99
10/23/2021 4:30:00 PM 10.32 50.576 0.047 7.22 2.81 10.98
10/23/2021 4:45:00 PM 10.31 50.558 0.047 7.21 2.68 10.96
10/23/2021 5:00:00 PM 10.33 50.594 0.047 7.18 2.97 10.95
10/23/2021 5:15:00 PM 10.33 50.594 0.047 7.21 2.81 10.93
10/23/2021 5:30:00 PM 10.33 50.594 0.044 7.16 3.88 10.89
10/23/2021 5:45:00 PM 10.32 50.576 0.047 7.16 2.81 10.86
10/23/2021 6:00:00 PM 10.29 50.522 0.047 7.16 2.85 10.8
10/23/2021 6:15:00 PM 10.27 50.486 0.047 7.13 2.89 10.75
10/23/2021 6:30:00 PM 10.24 50.432 0.047 7.11 2.82 10.71
10/23/2021 6:45:00 PM 10.22 50.396 0.047 7.1 2.9 10.67
10/23/2021 7:00:00 PM 10.19 50.342 0.047 7.09 2.92 10.65
10/23/2021 7:15:00 PM 10.18 50.324 0.047 7.07 2.82 10.64
10/23/2021 7:30:00 PM 10.15 50.27 0.047 7.07 2.84 10.63
10/23/2021 7:45:00 PM 10.12 50.216 0.048 7.01 2.82 10.63
10/23/2021 8:00:00 PM 10.1 50.18 0.048 7.05 2.79 10.63
10/23/2021 8:15:00 PM 10.08 50.144 0.048 7.03 2.97 10.63
10/23/2021 8:30:00 PM 10.06 50.108 0.046 7.01 3.83 10.63
10/23/2021 8:45:00 PM 10.04 50.072 0.048 7.02 2.91 10.64
10/23/2021 9:00:00 PM 10.01 50.018 0.046 7.01 4 10.64
10/23/2021 9:15:00 PM 9.99 49.982 0.048 7.04 2.79 10.65
10/23/2021 9:30:00 PM 9.97 49.946 0.047 7.02 3.93 10.65
10/23/2021 9:45:00 PM 9.95 49.91 0.045 7 3.93 10.65
10/23/2021 10:00:00 PM 9.93 49.874 0.045 7 3.82 10.65
10/23/2021 10:15:00 PM 9.91 49.838 0.048 7.01 2.92 10.66
10/23/2021 10:30:00 PM 9.88 49.784 0.048 7.02 2.8 10.67
10/23/2021 10:45:00 PM 9.86 49.748 0.048 7.03 2.89 10.67
10/23/2021 11:00:00 PM 9.84 49.712 0.048 7.01 2.87 10.68
10/23/2021 11:15:00 PM 9.82 49.676 0.048 6.99 2.95 10.69
10/23/2021 11:30:00 PM 9.8 49.64 0.048 7.03 2.9 10.7
10/23/2021 11:45:00 PM 9.78 49.604 0.048 6.98 2.93 10.7
10/24/2021 12:00:00 AM 9.76 49.568 0.048 7.02 2.87 10.7
10/24/2021 12:15:00 AM 9.73 49.514 0.048 6.98 2.88 10.71
10/24/2021 12:30:00 AM 9.69 49.442 0.048 7.01 2.93 10.72
10/24/2021 12:45:00 AM 9.65 49.37 0.048 7.03 2.86 10.73
10/24/2021 1:00:00 AM 9.61 49.298 0.047 7.01 3.83 10.73
10/24/2021 1:15:00 AM 9.57 49.226 0.048 7 2.72 10.75
10/24/2021 1:30:00 AM 9.54 49.172 0.048 7 2.92 10.76
10/24/2021 1:45:00 AM 9.52 49.136 0.048 6.98 2.89 10.76
10/24/2021 2:00:00 AM 9.49 49.082 0.048 6.98 2.78 10.78
10/24/2021 2:15:00 AM 9.46 49.028 0.045 6.98 3.79 10.78
10/24/2021 2:30:00 AM 9.44 48.992 0.045 6.96 3.87 10.79
10/24/2021 2:45:00 AM 9.42 48.956 0.048 6.98 2.73 10.81
10/24/2021 3:00:00 AM 9.4 48.92 0.045 6.98 3.94 10.8
10/24/2021 3:15:00 AM 9.38 48.884 0.045 6.97 3.77 10.82
10/24/2021 3:30:00 AM 9.36 48.848 0.048 6.96 2.78 10.83
10/24/2021 3:45:00 AM 9.33 48.794 0.048 7 2.75 10.83
10/24/2021 4:00:00 AM 9.3 48.74 0.048 6.99 2.83 10.83
10/24/2021 4:15:00 AM 9.28 48.704 0.045 6.96 3.83 10.84
10/24/2021 4:30:00 AM 9.25 48.65 0.045 6.96 3.91 10.85
10/24/2021 4:45:00 AM 9.24 48.632 0.045 6.96 3.7 10.86
10/24/2021 5:00:00 AM 9.23 48.614 0.047 6.97 2.83 10.86
10/24/2021 5:15:00 AM 9.22 48.596 0.047 6.98 2.77 10.86
10/24/2021 5:30:00 AM 9.21 48.578 0.047 6.99 2.7 10.87
10/24/2021 5:45:00 AM 9.19 48.542 0.047 6.98 2.83 10.87
10/24/2021 6:00:00 AM 9.19 48.542 0.047 6.99 2.79 10.88
10/24/2021 6:15:00 AM 9.17 48.506 0.047 6.94 2.8 10.88
10/24/2021 6:30:00 AM 9.14 48.452 0.047 7 2.7 10.89
10/24/2021 6:45:00 AM 9.12 48.416 0.047 6.94 2.79 10.89
10/24/2021 7:00:00 AM 9.1 48.38 0.047 6.99 2.74 10.9
10/24/2021 7:15:00 AM 9.08 48.344 0.046 6.96 3.83 10.9
10/24/2021 7:30:00 AM 9.08 48.344 0.047 6.98 2.69 10.91
10/24/2021 7:45:00 AM 9.08 48.344 0.047 6.96 2.69 10.92
10/24/2021 8:00:00 AM 9.07 48.326 0.047 6.97 2.86 10.93
10/24/2021 8:15:00 AM 9.06 48.308 0.047 6.99 2.7 10.97
10/24/2021 8:30:00 AM 9.07 48.326 0.047 7 2.74 11.01
10/24/2021 8:45:00 AM 9.07 48.326 0.047 7.02 2.72 11.05
10/24/2021 9:00:00 AM 9.09 48.362 0.047 7.01 2.72 11.11
10/24/2021 9:15:00 AM 9.12 48.416 0.047 7.04 2.68 11.15
10/24/2021 9:30:00 AM 9.15 48.47 0.047 7.05 2.63 11.19
10/24/2021 9:45:00 AM 9.19 48.542 0.047 7.08 2.74 11.23
10/24/2021 10:00:00 AM 9.23 48.614 0.047 7.06 2.57 11.24
10/24/2021 10:15:00 AM 9.29 48.722 0.047 7.11 2.65 11.25
10/24/2021 10:30:00 AM 9.31 48.758 0.047 7.11 2.62 11.24
10/24/2021 10:45:00 AM 9.36 48.848 0.047 7.11 2.5 11.25
10/24/2021 11:00:00 AM 9.42 48.956 0.046 7.09 3.66 11.25
10/24/2021 11:15:00 AM 9.46 49.028 0.047 7.12 2.47 11.26
10/24/2021 11:30:00 AM 9.52 49.136 0.046 7.15 2.52 11.25
10/24/2021 11:45:00 AM 9.58 49.244 0.046 7.16 2.61 11.25
10/24/2021 12:00:00 PM 9.65 49.37 0.046 7.17 2.55 11.25
10/24/2021 12:15:00 PM 9.71 49.478 0.046 7.16 2.56 11.23
10/24/2021 12:30:00 PM 9.8 49.64 0.046 7.18 2.57 11.22
10/24/2021 12:45:00 PM 9.8 49.64 0.046 7.14 2.52 11.19
10/24/2021 1:00:00 PM 9.83 49.694 0.046 7.17 2.49 11.17
10/24/2021 1:15:00 PM 9.84 49.712 0.046 7.14 2.56 11.15
10/24/2021 1:30:00 PM 9.86 49.748 0.046 7.17 2.51 11.15
10/24/2021 1:45:00 PM 9.89 49.802 0.046 7.16 2.51 11.16
10/24/2021 2:00:00 PM 9.94 49.892 0.046 7.19 2.48 11.16
10/24/2021 2:15:00 PM 9.96 49.928 0.044 7.14 3.53 11.14
10/24/2021 2:30:00 PM 9.98 49.964 0.046 7.16 2.5 11.11
10/24/2021 2:45:00 PM 10.01 50.018 0.044 7.15 3.53 11.1
10/24/2021 3:00:00 PM 10.03 50.054 0.046 7.16 2.5 11.08
10/24/2021 3:15:00 PM 10.04 50.072 0.044 7.13 3.54 11.03
10/24/2021 3:30:00 PM 10.06 50.108 0.046 7.12 2.5 11
10/24/2021 3:45:00 PM 10.07 50.126 0.046 7.14 2.53 10.97
10/24/2021 4:00:00 PM 10.07 50.126 0.046 7.11 2.5 10.92
10/24/2021 4:15:00 PM 10.07 50.126 0.046 7.11 2.48 10.89
10/24/2021 4:30:00 PM 10.08 50.144 0.046 7.09 2.4 10.86
10/24/2021 4:45:00 PM 10.08 50.144 0.046 7.06 2.53 10.85
10/24/2021 5:00:00 PM 10.07 50.126 0.046 7.08 2.49 10.82
10/24/2021 5:15:00 PM 10.07 50.126 0.044 7.04 3.4 10.8
10/24/2021 5:30:00 PM 10.07 50.126 0.047 7.07 2.51 10.77
10/24/2021 5:45:00 PM 10.07 50.126 0.047 7.08 2.53 10.75
10/24/2021 6:00:00 PM 10.07 50.126 0.047 7.03 2.62 10.73
10/24/2021 6:15:00 PM 10.06 50.108 0.047 7.08 2.58 10.71
10/24/2021 6:30:00 PM 10.06 50.108 0.047 7.03 2.6 10.69
10/24/2021 6:45:00 PM 10.05 50.09 0.047 7.05 2.66 10.68
10/24/2021 7:00:00 PM 10.05 50.09 0.047 7.05 2.64 10.67
10/24/2021 7:15:00 PM 10.05 50.09 0.047 7.03 2.72 10.66
10/24/2021 7:30:00 PM 10.04 50.072 0.047 7.02 2.73 10.66
10/24/2021 7:45:00 PM 10.03 50.054 0.044 7 3.85 10.65
10/24/2021 8:00:00 PM 10.03 50.054 0.046 7 3.71 10.66
10/24/2021 8:15:00 PM 10.02 50.036 0.047 7.01 2.83 10.65
10/24/2021 8:30:00 PM 10.02 50.036 0.047 7.01 2.92 10.65
10/24/2021 8:45:00 PM 10.01 50.018 0.047 7.01 2.84 10.65
10/24/2021 9:00:00 PM 10.01 50.018 0.046 6.98 3.86 10.65
10/24/2021 9:15:00 PM 10 50 0.044 6.98 3.86 10.65
10/24/2021 9:30:00 PM 10 50 0.047 7 2.93 10.65
10/24/2021 9:45:00 PM 9.99 49.982 0.047 7.02 2.94 10.65
10/24/2021 10:00:00 PM 9.99 49.982 0.044 6.98 4.16 10.65
10/24/2021 10:15:00 PM 9.98 49.964 0.044 6.97 3.95 10.65
10/24/2021 10:30:00 PM 9.97 49.946 0.047 6.98 3.11 10.65
10/24/2021 10:45:00 PM 9.97 49.946 0.044 6.96 4 10.65
10/24/2021 11:00:00 PM 9.96 49.928 0.047 6.96 3.29 10.64
10/24/2021 11:15:00 PM 9.95 49.91 0.047 7 3.37 10.64
10/24/2021 11:30:00 PM 9.95 49.91 0.047 6.99 3.47 10.64
10/24/2021 11:45:00 PM 9.95 49.91 0.047 7 3.54 10.64
10/25/2021 12:00:00 AM 9.94 49.892 0.044 6.97 4.67 10.64
10/25/2021 12:15:00 AM 9.94 49.892 0.044 6.97 4.68 10.63
10/25/2021 12:30:00 AM 9.94 49.892 0.047 6.98 6.68 10.62
10/25/2021 12:45:00 AM 9.94 49.892 0.046 6.96 4.57 10.63
10/25/2021 1:00:00 AM 9.94 49.892 0.047 6.96 3.67 10.63
10/25/2021 1:15:00 AM 9.94 49.892 0.045 6.95 5.14 10.63
10/25/2021 1:30:00 AM 9.94 49.892 0.046 6.96 4.1 10.62
10/25/2021 1:45:00 AM 9.95 49.91 0.045 6.92 7 10.62
10/25/2021 2:00:00 AM 9.95 49.91 0.046 6.91 3.92 10.62
10/25/2021 2:15:00 AM 9.95 49.91 0.046 6.92 4.99 10.62
10/25/2021 2:30:00 AM 9.96 49.928 0.046 6.87 4.66 10.61
10/25/2021 2:45:00 AM 9.96 49.928 0.045 6.94 5.34 10.6
10/25/2021 3:00:00 AM 9.96 49.928 0.046 6.94 4.38 10.6
10/25/2021 3:15:00 AM 9.97 49.946 0.046 6.94 4.66 10.6
10/25/2021 3:30:00 AM 9.98 49.964 0.046 6.93 4.53 10.59
10/25/2021 3:45:00 AM 9.98 49.964 0.046 6.94 4.72 10.59
10/25/2021 4:00:00 AM 9.98 49.964 0.045 6.91 5.49 10.59
10/25/2021 4:15:00 AM 9.98 49.964 0.044 6.89 5.75 10.58
10/25/2021 4:30:00 AM 9.98 49.964 0.046 6.9 5.02 10.58
10/25/2021 4:45:00 AM 9.98 49.964 0.046 6.91 5.14 10.58
10/25/2021 5:00:00 AM 10 50 0.043 6.88 5.89 10.58
10/25/2021 5:15:00 AM 10.02 50.036 0.046 6.93 5.14 10.57
10/25/2021 5:30:00 AM 10.03 50.054 0.043 6.9 6.05 10.57
10/25/2021 5:45:00 AM 10.04 50.072 0.045 6.92 4.91 10.57
10/25/2021 6:00:00 AM 10.05 50.09 0.044 6.9 5.93 10.56
10/25/2021 6:15:00 AM 10.04 50.072 0.044 6.89 5.86 10.56
10/25/2021 6:30:00 AM 10.03 50.054 0.045 6.9 4.91 10.57
10/25/2021 6:45:00 AM 10.02 50.036 0.045 6.93 5.03 10.57
10/25/2021 7:00:00 AM 10 50 0.044 6.89 5.51 10.57
10/25/2021 7:15:00 AM 9.99 49.982 0.045 6.92 4.81 10.58
10/25/2021 7:30:00 AM 9.97 49.946 0.046 6.91 4.53 10.58
10/25/2021 7:45:00 AM 9.95 49.91 0.045 6.89 4.44 10.59
10/25/2021 8:00:00 AM 9.94 49.892 0.046 6.87 4.39 10.61
10/25/2021 8:15:00 AM 9.92 49.856 0.045 6.87 4.14 10.63
10/25/2021 8:30:00 AM 9.92 49.856 0.045 6.9 4.17 10.65
10/25/2021 8:45:00 AM 9.92 49.856 0.045 6.92 3.95 10.68
10/25/2021 9:00:00 AM 9.91 49.838 0.045 6.97 3.86 10.7
10/25/2021 9:15:00 AM 9.92 49.856 0.045 6.96 3.8 10.73
10/25/2021 9:30:00 AM 9.91 49.838 0.045 6.97 3.61 10.75
10/25/2021 9:45:00 AM 9.93 49.874 0.045 6.98 3.6 10.78
10/25/2021 10:00:00 AM 9.95 49.91 0.045 6.94 3.6 10.79
10/25/2021 10:15:00 AM 9.99 49.982 0.045 7.02 3.45 10.81
10/25/2021 10:30:00 AM 10.04 50.072 0.045 7.02 3.34 10.82
10/25/2021 10:45:00 AM 10.12 50.216 0.045 7 3.38 10.83
10/25/2021 11:00:00 AM 10.19 50.342 0.045 7.04 3.34 10.83
10/25/2021 11:15:00 AM 10.28 50.504 0.045 6.99 3.22 10.83
10/25/2021 11:30:00 AM 10.38 50.684 0.045 7.04 3.15 10.83
10/25/2021 11:45:00 AM 10.49 50.882 0.045 7.05 3.12 10.82
10/25/2021 12:00:00 PM 10.6 51.08 0.045 7.05 3.1 10.81
10/25/2021 12:15:00 PM 10.73 51.314 0.045 7.07 3.08 10.79
10/25/2021 12:30:00 PM 10.85 51.53 0.045 7.09 3.08 10.78
10/25/2021 12:45:00 PM 10.98 51.764 0.045 7.09 3.05 10.76
10/25/2021 1:00:00 PM 11.1 51.98 0.042 7.05 3.89 10.74
10/25/2021 1:15:00 PM 11.21 52.178 0.045 7.08 3 10.72
10/25/2021 1:30:00 PM 11.28 52.304 0.045 7.08 3.01 10.71
10/25/2021 1:45:00 PM 11.39 52.502 0.045 7.12 2.86 10.7
10/25/2021 2:00:00 PM 11.45 52.61 0.044 7.07 3.96 10.7
10/25/2021 2:15:00 PM 11.53 52.754 0.045 7.11 2.92 10.69
10/25/2021 2:30:00 PM 11.59 52.862 0.042 7.08 4.07 10.68
10/25/2021 2:45:00 PM 11.66 52.988 0.045 7.12 2.97 10.67
10/25/2021 3:00:00 PM 11.75 53.15 0.044 7.1 3.8 10.66
10/25/2021 3:15:00 PM 11.79 53.222 0.045 7.14 2.91 10.64
10/25/2021 3:30:00 PM 11.84 53.312 0.045 7.12 2.76 10.62
10/25/2021 3:45:00 PM 11.89 53.402 0.043 7.12 3.8 10.59
10/25/2021 4:00:00 PM 11.91 53.438 0.045 7.14 2.72 10.55
10/25/2021 4:15:00 PM 11.93 53.474 0.045 7.12 2.75 10.52
10/25/2021 4:30:00 PM 11.94 53.492 0.045 7.1 2.76 10.47
10/25/2021 4:45:00 PM 11.96 53.528 0.045 7.09 2.77 10.42
10/25/2021 5:00:00 PM 11.98 53.564 0.045 7.06 2.8 10.39
10/25/2021 5:15:00 PM 11.99 53.582 0.045 7.05 2.85 10.37
10/25/2021 5:30:00 PM 11.99 53.582 0.045 7.06 2.75 10.35
10/25/2021 5:45:00 PM 11.99 53.582 0.045 7.07 2.75 10.31
10/25/2021 6:00:00 PM 11.98 53.564 0.045 7.03 2.86 10.25
10/25/2021 6:15:00 PM 11.98 53.564 0.045 7.01 2.78 10.21
10/25/2021 6:30:00 PM 11.97 53.546 0.045 6.96 2.87 10.16
10/25/2021 6:45:00 PM 11.95 53.51 0.044 6.93 3.73 10.13
10/25/2021 7:00:00 PM 11.94 53.492 0.044 6.92 3.82 10.12
10/25/2021 7:15:00 PM 11.92 53.456 0.043 6.94 3.78 10.11
10/25/2021 7:30:00 PM 11.89 53.402 0.043 6.89 3.9 10.1
10/25/2021 7:45:00 PM 11.87 53.366 0.045 6.92 2.99 10.1
10/25/2021 8:00:00 PM 11.84 53.312 0.045 6.9 2.9 10.1
10/25/2021 8:15:00 PM 11.82 53.276 0.045 6.91 2.94 10.11
10/25/2021 8:30:00 PM 11.79 53.222 0.045 6.87 2.87 10.11
10/25/2021 8:45:00 PM 11.77 53.186 0.045 6.87 2.89 10.11
10/25/2021 9:00:00 PM 11.74 53.132 0.046 6.93 2.87 10.11
10/25/2021 9:15:00 PM 11.72 53.096 0.044 6.88 3.76 10.12
10/25/2021 9:30:00 PM 11.69 53.042 0.043 6.91 3.93 10.13
10/25/2021 9:45:00 PM 11.66 52.988 0.046 6.88 2.96 10.13
10/25/2021 10:00:00 PM 11.63 52.934 0.043 6.91 4.03 10.14
10/25/2021 10:15:00 PM 11.6 52.88 0.046 6.91 2.88 10.14
10/25/2021 10:30:00 PM 11.57 52.826 0.046 6.86 2.85 10.15
10/25/2021 10:45:00 PM 11.54 52.772 0.043 6.88 3.93 10.16
10/25/2021 11:00:00 PM 11.51 52.718 0.046 6.9 2.85 10.16
10/25/2021 11:15:00 PM 11.49 52.682 0.046 6.87 3.03 10.17
10/25/2021 11:30:00 PM 11.47 52.646 0.046 6.88 2.98 10.17
10/25/2021 11:45:00 PM 11.44 52.592 0.046 6.9 2.93 10.17
10/26/2021 12:00:00 AM 11.42 52.556 0.045 6.86 3.92 10.17
10/26/2021 12:15:00 AM 11.4 52.52 0.045 6.88 3.99 10.17
10/26/2021 12:30:00 AM 11.38 52.484 0.045 6.89 4.22 10.17
10/26/2021 12:45:00 AM 11.36 52.448 0.045 6.86 3.07 10.18
10/26/2021 1:00:00 AM 11.34 52.412 0.045 6.9 3.17 10.18
10/26/2021 1:15:00 AM 11.32 52.376 0.043 6.86 4.44 10.18
10/26/2021 1:30:00 AM 11.31 52.358 0.043 6.86 4.79 10.18
10/26/2021 1:45:00 AM 11.29 52.322 0.045 6.87 3.73 10.18
10/26/2021 2:00:00 AM 11.27 52.286 0.045 6.87 3.77 10.18
10/26/2021 2:15:00 AM 11.26 52.268 0.045 6.85 3.84 10.18
10/26/2021 2:30:00 AM 11.25 52.25 0.045 6.87 4.1 10.18
10/26/2021 2:45:00 AM 11.24 52.232 0.045 6.86 4.5 10.18
10/26/2021 3:00:00 AM 11.22 52.196 0.045 6.87 4.31 10.18
10/26/2021 3:15:00 AM 11.21 52.178 0.044 6.83 5.39 10.18
10/26/2021 3:30:00 AM 11.2 52.16 0.045 6.85 4.95 10.18
10/26/2021 3:45:00 AM 11.19 52.142 0.045 6.86 5.49 10.18
10/26/2021 4:00:00 AM 11.18 52.124 0.045 6.85 5.9 10.19
10/26/2021 4:15:00 AM 11.17 52.106 0.045 6.85 5.62 10.19
10/26/2021 4:30:00 AM 11.16 52.088 0.045 6.84 5.42 10.19
10/26/2021 4:45:00 AM 11.15 52.07 0.045 6.85 5.07 10.19
10/26/2021 5:00:00 AM 11.14 52.052 0.045 6.85 4.93 10.19
10/26/2021 5:15:00 AM 11.13 52.034 0.045 6.85 4.83 10.2
10/26/2021 5:30:00 AM 11.13 52.034 0.042 6.85 5.34 10.2
10/26/2021 5:45:00 AM 11.12 52.016 0.045 6.84 4.32 10.2
10/26/2021 6:00:00 AM 11.11 51.998 0.045 6.88 4.47 10.2
10/26/2021 6:15:00 AM 11.1 51.98 0.045 6.86 4.21 10.2
10/26/2021 6:30:00 AM 11.09 51.962 0.045 6.84 4.25 10.21
10/26/2021 6:45:00 AM 11.08 51.944 0.043 6.85 5.02 10.2
10/26/2021 7:00:00 AM 11.07 51.926 0.045 6.86 4.15 10.21
10/26/2021 7:15:00 AM 11.06 51.908 0.044 6.84 5.06 10.21
10/26/2021 7:30:00 AM 11.05 51.89 0.045 6.85 4 10.21
10/26/2021 7:45:00 AM 11.05 51.89 0.045 6.86 3.89 10.22
10/26/2021 8:00:00 AM 11.04 51.872 0.044 6.84 4.6 10.22
10/26/2021 8:15:00 AM 11.03 51.854 0.045 6.88 3.78 10.23
10/26/2021 8:30:00 AM 11.03 51.854 0.045 6.85 3.72 10.24
10/26/2021 8:45:00 AM 11.02 51.836 0.045 6.89 3.62 10.26
10/26/2021 9:00:00 AM 11.02 51.836 0.044 6.89 4.54 10.28
10/26/2021 9:15:00 AM 11.01 51.818 0.042 6.92 4.75 10.31
10/26/2021 9:30:00 AM 11 51.8 0.045 6.92 3.44 10.34
10/26/2021 9:45:00 AM 10.98 51.764 0.045 6.94 3.53 10.35
10/26/2021 10:00:00 AM 10.97 51.746 0.045 6.93 3.58 10.37
10/26/2021 10:15:00 AM 10.94 51.692 0.043 6.94 4.44 10.4
10/26/2021 10:30:00 AM 10.91 51.638 0.043 6.95 4.41 10.42
10/26/2021 10:45:00 AM 10.89 51.602 0.044 6.94 3.35 10.43
10/26/2021 11:00:00 AM 10.86 51.548 0.043 6.95 4.36 10.44
10/26/2021 11:15:00 AM 10.83 51.494 0.043 6.96 4.36 10.48
10/26/2021 11:30:00 AM 10.81 51.458 0.044 6.98 3.5 10.5
10/26/2021 11:45:00 AM 10.79 51.422 0.042 6.97 4.32 10.51
10/26/2021 12:00:00 PM 10.76 51.368 0.044 7 3.58 10.52
10/26/2021 12:15:00 PM 10.73 51.314 0.044 6.99 3.65 10.54
10/26/2021 12:30:00 PM 10.7 51.26 0.044 6.97 3.67 10.56
10/26/2021 12:45:00 PM 10.67 51.206 0.044 6.98 3.73 10.57
10/26/2021 1:00:00 PM 10.65 51.17 0.044 6.98 3.87 10.6
10/26/2021 1:15:00 PM 10.63 51.134 0.043 6.97 4.66 10.63
10/26/2021 1:30:00 PM 10.61 51.098 0.044 7.02 4.01 10.65
10/26/2021 1:45:00 PM 10.58 51.044 0.044 6.98 4.02 10.65
10/26/2021 2:00:00 PM 10.56 51.008 0.044 6.96 4.14 10.65
10/26/2021 2:15:00 PM 10.52 50.936 0.044 6.98 4.16 10.67
10/26/2021 2:30:00 PM 10.5 50.9 0.044 6.98 4.27 10.67
10/26/2021 2:45:00 PM 10.46 50.828 0.044 6.97 4.42 10.67
10/26/2021 3:00:00 PM 10.44 50.792 0.043 6.98 4.28 10.65
10/26/2021 3:15:00 PM 10.4 50.72 0.043 6.96 4.32 10.64
10/26/2021 3:30:00 PM 10.37 50.666 0.043 7 4.16 10.65
10/26/2021 3:45:00 PM 10.32 50.576 0.043 6.95 4.29 10.65
10/26/2021 4:00:00 PM 10.29 50.522 0.042 6.93 5.5 10.65
10/26/2021 4:15:00 PM 10.25 50.45 0.043 6.95 4.43 10.64
10/26/2021 4:30:00 PM 10.21 50.378 0.041 6.98 5.5 10.63
10/26/2021 4:45:00 PM 10.17 50.306 0.042 6.98 5.52 10.61
10/26/2021 5:00:00 PM 10.14 50.252 0.043 6.96 4.85 10.6
10/26/2021 5:15:00 PM 10.1 50.18 0.041 6.92 5.81 10.58
10/26/2021 5:30:00 PM 10.06 50.108 0.043 6.91 4.95 10.56
10/26/2021 5:45:00 PM 10.02 50.036 0.043 6.92 5.23 10.56
10/26/2021 6:00:00 PM 9.99 49.982 0.043 6.89 5.47 10.55
10/26/2021 6:15:00 PM 9.95 49.91 0.043 6.89 5.65 10.55
10/26/2021 6:30:00 PM 9.92 49.856 0.043 6.92 5.83 10.54
10/26/2021 6:45:00 PM 9.89 49.802 0.043 6.92 6.06 10.54
10/26/2021 7:00:00 PM 9.86 49.748 0.043 6.89 6 10.54
10/26/2021 7:15:00 PM 9.83 49.694 0.043 6.88 6.05 10.54
10/26/2021 7:30:00 PM 9.8 49.64 0.043 6.9 6.42 10.55
10/26/2021 7:45:00 PM 9.78 49.604 0.043 6.9 6.47 10.55
10/26/2021 8:00:00 PM 9.76 49.568 0.043 6.85 6.5 10.56
10/26/2021 8:15:00 PM 9.74 49.532 0.043 6.88 6.59 10.56
10/26/2021 8:30:00 PM 9.72 49.496 0.043 6.87 6.17 10.57
10/26/2021 8:45:00 PM 9.7 49.46 0.043 6.88 5.94 10.57
10/26/2021 9:00:00 PM 9.69 49.442 0.043 6.86 5.97 10.57
10/26/2021 9:15:00 PM 9.68 49.424 0.043 6.87 5.97 10.58
10/26/2021 9:30:00 PM 9.67 49.406 0.043 6.9 5.9 10.58
10/26/2021 9:45:00 PM 9.66 49.388 0.043 6.9 5.59 10.59
10/26/2021 10:00:00 PM 9.66 49.388 0.043 6.88 5.69 10.59
10/26/2021 10:15:00 PM 9.65 49.37 0.043 6.9 5.63 10.6
10/26/2021 10:30:00 PM 9.64 49.352 0.043 6.89 5.64 10.6
10/26/2021 10:45:00 PM 9.64 49.352 0.043 6.88 5.55 10.6
10/26/2021 11:00:00 PM 9.64 49.352 0.043 6.87 5.32 10.6
10/26/2021 11:15:00 PM 9.64 49.352 0.043 6.75 5.16 10.61
10/26/2021 11:30:00 PM 9.64 49.352 0.043 6.9 5.03 10.61
10/26/2021 11:45:00 PM 9.64 49.352 0.043 6.93 5.16 10.61
10/27/2021 12:00:00 AM 9.64 49.352 0.043 6.84 5.12 10.61
10/27/2021 12:15:00 AM 9.65 49.37 0.043 6.85 4.78 10.61
10/27/2021 12:30:00 AM 9.65 49.37 0.043 6.82 4.9 10.62
10/27/2021 12:45:00 AM 9.65 49.37 0.043 6.86 4.75 10.61
10/27/2021 1:00:00 AM 9.66 49.388 0.043 6.86 4.73 10.61
10/27/2021 1:15:00 AM 9.66 49.388 0.043 6.83 4.82 10.61
10/27/2021 1:30:00 AM 9.67 49.406 0.043 6.82 4.87 10.61
10/27/2021 1:45:00 AM 9.68 49.424 0.043 6.82 4.68 10.61
10/27/2021 2:00:00 AM 9.69 49.442 0.041 6.8 5.95 10.61
10/27/2021 2:15:00 AM 9.69 49.442 0.043 6.83 4.72 10.61
10/27/2021 2:30:00 AM 9.7 49.46 0.043 6.84 4.76 10.61
10/27/2021 2:45:00 AM 9.71 49.478 0.043 6.82 4.63 10.61
10/27/2021 3:00:00 AM 9.72 49.496 0.043 6.84 4.71 10.61
10/27/2021 3:15:00 AM 9.73 49.514 0.043 6.81 4.67 10.61
10/27/2021 3:30:00 AM 9.73 49.514 0.043 6.84 4.68 10.61
10/27/2021 3:45:00 AM 9.74 49.532 0.043 6.85 4.47 10.61
10/27/2021 4:00:00 AM 9.75 49.55 0.043 6.86 4.5 10.61
10/27/2021 4:15:00 AM 9.76 49.568 0.043 6.88 4.47 10.61
10/27/2021 4:30:00 AM 9.77 49.586 0.043 6.86 4.5 10.61
10/27/2021 4:45:00 AM 9.78 49.604 0.043 6.89 4.37 10.6
10/27/2021 5:00:00 AM 9.79 49.622 0.043 6.85 4.44 10.61
10/27/2021 5:15:00 AM 9.8 49.64 0.043 6.87 4.43 10.6
10/27/2021 5:30:00 AM 9.81 49.658 0.043 6.87 4.56 10.61
10/27/2021 5:45:00 AM 9.82 49.676 0.042 6.8 5.6 10.6
10/27/2021 6:00:00 AM 9.83 49.694 0.043 6.84 4.43 10.6
10/27/2021 6:15:00 AM 9.84 49.712 0.043 6.83 4.4 10.6
10/27/2021 6:30:00 AM 9.85 49.73 0.043 6.86 4.47 10.61
10/27/2021 6:45:00 AM 9.86 49.748 0.043 6.78 4.4 10.6
10/27/2021 7:00:00 AM 9.87 49.766 0.043 6.81 4.43 10.6
10/27/2021 7:15:00 AM 9.87 49.766 0.043 6.69 5.2 10.6
10/27/2021 7:30:00 AM 9.88 49.784 0.043 6.87 4.38 10.6
10/27/2021 7:45:00 AM 9.89 49.802 0.043 6.83 4.38 10.6
10/27/2021 8:00:00 AM 9.89 49.802 0.043 6.84 4.46 10.61
10/27/2021 8:15:00 AM 9.9 49.82 0.043 6.85 4.2 10.61
10/27/2021 8:30:00 AM 9.91 49.838 0.043 6.82 4.52 10.63
10/27/2021 8:45:00 AM 9.92 49.856 0.043 6.86 4.47 10.65
10/27/2021 9:00:00 AM 9.93 49.874 0.043 6.82 4.27 10.67
10/27/2021 9:15:00 AM 9.96 49.928 0.043 6.86 4.16 10.72
10/27/2021 9:30:00 AM 9.98 49.964 0.043 6.89 4.38 10.75
10/27/2021 9:45:00 AM 10 50 0.043 6.85 4.39 10.77
10/27/2021 10:00:00 AM 10.01 50.018 0.043 6.85 4.09 10.79
10/27/2021 10:15:00 AM 10.04 50.072 0.043 6.87 4.13 10.82
10/27/2021 10:30:00 AM 10.09 50.162 0.043 6.89 4.2 10.85
10/27/2021 10:45:00 AM 10.11 50.198 0.04 6.88 5.15 10.84
10/27/2021 11:00:00 AM 10.13 50.234 0.043 6.9 4.07 10.84
10/27/2021 11:15:00 AM 10.17 50.306 0.043 6.9 4.05 10.83
10/27/2021 11:30:00 AM 10.23 50.414 0.043 6.92 4.19 10.84
10/27/2021 11:45:00 AM 10.28 50.504 0.043 6.93 3.99 10.83
10/27/2021 12:00:00 PM 10.33 50.594 0.043 6.91 4.29 10.82
10/27/2021 12:15:00 PM 10.39 50.702 0.043 6.91 4.21 10.8
10/27/2021 12:30:00 PM 10.47 50.846 0.04 6.91 5.36 10.79
10/27/2021 12:45:00 PM 10.54 50.972 0.043 6.92 4.28 10.78
10/27/2021 1:00:00 PM 10.6 51.08 0.043 6.93 4.25 10.76
10/27/2021 1:15:00 PM 10.67 51.206 0.043 6.91 4.2 10.74
10/27/2021 1:30:00 PM 10.73 51.314 0.043 6.93 4.2 10.73
10/27/2021 1:45:00 PM 10.79 51.422 0.04 6.9 5.17 10.72
10/27/2021 2:00:00 PM 10.85 51.53 0.043 6.94 4.17 10.71
10/27/2021 2:15:00 PM 10.9 51.62 0.043 6.92 4.15 10.68
10/27/2021 2:30:00 PM 10.96 51.728 0.043 6.93 4.16 10.67
10/27/2021 2:45:00 PM 11.01 51.818 0.041 6.93 5.04 10.65
10/27/2021 3:00:00 PM 11.06 51.908 0.043 6.96 4.43 10.63
10/27/2021 3:15:00 PM 11.1 51.98 0.043 6.95 4.39 10.62
10/27/2021 3:30:00 PM 11.14 52.052 0.043 6.95 4.24 10.61
10/27/2021 3:45:00 PM 11.16 52.088 0.043 6.97 4.47 10.59
10/27/2021 4:00:00 PM 11.18 52.124 0.04 6.93 5.25 10.57
10/27/2021 4:15:00 PM 11.19 52.142 0.043 6.98 4.38 10.56
10/27/2021 4:30:00 PM 11.18 52.124 0.043 6.98 4.28 10.55
10/27/2021 4:45:00 PM 11.16 52.088 0.043 6.96 4.16 10.54
10/27/2021 5:00:00 PM 11.13 52.034 0.043 6.96 4.36 10.52
10/27/2021 5:15:00 PM 11.09 51.962 0.04 6.93 5.42 10.51
10/27/2021 5:30:00 PM 11.04 51.872 0.043 6.93 4.3 10.49
10/27/2021 5:45:00 PM 10.99 51.782 0.043 6.9 4.59 10.48
10/27/2021 6:00:00 PM 10.93 51.674 0.04 6.86 5.85 10.47
10/27/2021 6:15:00 PM 10.86 51.548 0.04 6.84 5.35 10.46
10/27/2021 6:30:00 PM 10.79 51.422 0.043 6.92 4.38 10.45
10/27/2021 6:45:00 PM 10.73 51.314 0.04 6.9 5.54 10.45
10/27/2021 7:00:00 PM 10.67 51.206 0.04 6.88 5.61 10.45
10/27/2021 7:15:00 PM 10.59 51.062 0.04 6.86 5.61 10.46
10/27/2021 7:30:00 PM 10.52 50.936 0.043 6.88 16.97 10.47
10/27/2021 7:45:00 PM 10.45 50.81 0.043 6.85 4.67 10.49
10/27/2021 8:00:00 PM 10.39 50.702 0.043 6.84 4.58 10.5
10/27/2021 8:15:00 PM 10.32 50.576 0.043 6.85 4.49 10.51
10/27/2021 8:30:00 PM 10.26 50.468 0.043 6.86 4.52 10.53
10/27/2021 8:45:00 PM 10.19 50.342 0.042 6.84 5.71 10.54
10/27/2021 9:00:00 PM 10.12 50.216 0.043 6.85 4.62 10.56
10/27/2021 9:15:00 PM 10.05 50.09 0.043 6.84 4.67 10.58
10/27/2021 9:30:00 PM 9.99 49.982 0.043 6.84 4.57 10.59
10/27/2021 9:45:00 PM 9.93 49.874 0.043 6.83 4.56 10.61
10/27/2021 10:00:00 PM 9.87 49.766 0.043 6.82 4.46 10.62
10/27/2021 10:15:00 PM 9.82 49.676 0.043 6.84 4.72 10.64
10/27/2021 10:30:00 PM 9.76 49.568 0.043 6.82 4.44 10.66
10/27/2021 10:45:00 PM 9.71 49.478 0.043 6.84 4.5 10.67
10/27/2021 11:00:00 PM 9.66 49.388 0.043 6.82 4.52 10.68
10/27/2021 11:15:00 PM 9.61 49.298 0.043 6.82 4.29 10.69
10/27/2021 11:30:00 PM 9.56 49.208 0.043 6.83 4.47 10.71
10/27/2021 11:45:00 PM 9.51 49.118 0.043 6.82 4.51 10.72
10/28/2021 12:00:00 AM 9.46 49.028 0.043 6.8 4.55 10.73
10/28/2021 12:15:00 AM 9.41 48.938 0.043 6.82 4.56 10.75
10/28/2021 12:30:00 AM 9.36 48.848 0.043 6.84 4.51 10.76
10/28/2021 12:45:00 AM 9.32 48.776 0.043 6.83 4.38 10.77
10/28/2021 1:00:00 AM 9.28 48.704 0.043 6.84 4.3 10.78
10/28/2021 1:15:00 AM 9.23 48.614 0.043 6.78 4.49 10.79
10/28/2021 1:30:00 AM 9.19 48.542 0.042 6.77 5.38 10.81
10/28/2021 1:45:00 AM 9.15 48.47 0.043 6.82 4.24 10.82
10/28/2021 2:00:00 AM 9.11 48.398 0.043 6.83 4.33 10.83
10/28/2021 2:15:00 AM 9.08 48.344 0.043 6.8 4.24 10.83
10/28/2021 2:30:00 AM 9.04 48.272 0.043 6.81 4.45 10.85
10/28/2021 2:45:00 AM 9 48.2 0.043 6.79 4.18 10.85
10/28/2021 3:00:00 AM 8.96 48.128 0.043 6.82 4.3 10.87
10/28/2021 3:15:00 AM 8.93 48.074 0.043 6.83 4.26 10.88
10/28/2021 3:30:00 AM 8.89 48.002 0.043 6.83 4.24 10.89
10/28/2021 3:45:00 AM 8.86 47.948 0.043 6.8 4.12 10.89
10/28/2021 4:00:00 AM 8.83 47.894 0.043 6.81 4.15 10.91
10/28/2021 4:15:00 AM 8.81 47.858 0.043 6.81 4 10.91
10/28/2021 4:30:00 AM 8.78 47.804 0.043 6.83 4.01 10.92
10/28/2021 4:45:00 AM 8.77 47.786 0.043 6.82 3.98 10.92
10/28/2021 5:00:00 AM 8.75 47.75 0.043 6.81 3.91 10.93
10/28/2021 5:15:00 AM 8.74 47.732 0.043 6.81 3.88 10.93
10/28/2021 5:30:00 AM 8.72 47.696 0.043 6.84 3.97 10.94
10/28/2021 5:45:00 AM 8.71 47.678 0.043 6.84 3.96 10.95
10/28/2021 6:00:00 AM 8.69 47.642 0.043 6.83 3.95 10.95
10/28/2021 6:15:00 AM 8.66 47.588 0.043 6.82 3.96 10.96
10/28/2021 6:30:00 AM 8.64 47.552 0.043 6.82 3.89 10.97
10/28/2021 6:45:00 AM 8.62 47.516 0.043 6.84 3.93 10.97
10/28/2021 7:00:00 AM 8.6 47.48 0.043 6.81 3.79 10.98
10/28/2021 7:15:00 AM 8.58 47.444 0.043 6.85 3.8 10.98
10/28/2021 7:30:00 AM 8.56 47.408 0.043 6.86 3.71 10.99
10/28/2021 7:45:00 AM 8.54 47.372 0.043 6.83 3.79 11
10/28/2021 8:00:00 AM 8.52 47.336 0.043 6.84 3.75 11.01
10/28/2021 8:15:00 AM 8.5 47.3 0.043 6.85 3.73 11.03
10/28/2021 8:30:00 AM 8.49 47.282 0.043 6.83 3.71 11.05
10/28/2021 8:45:00 AM 8.48 47.264 0.043 6.84 3.79 11.07
10/28/2021 9:00:00 AM 8.48 47.264 0.043 6.85 3.68 11.1
10/28/2021 9:15:00 AM 8.47 47.246 0.043 6.85 3.62 11.13
10/28/2021 9:30:00 AM 8.47 47.246 0.043 6.84 3.42 11.16
10/28/2021 9:45:00 AM 8.48 47.264 0.043 6.88 3.46 11.19
10/28/2021 10:00:00 AM 8.5 47.3 0.042 6.87 3.38 11.22
10/28/2021 10:15:00 AM 8.51 47.318 0.04 6.87 4.67 11.23
10/28/2021 10:30:00 AM 8.52 47.336 0.042 6.88 3.33 11.23
10/28/2021 10:45:00 AM 8.56 47.408 0.042 6.89 3.39 11.23
10/28/2021 11:00:00 AM 8.63 47.534 0.042 6.89 3.27 11.23
10/28/2021 11:15:00 AM 8.69 47.642 0.042 6.88 3.2 11.22
10/28/2021 11:30:00 AM 8.75 47.75 0.042 6.89 3.26 11.21
10/28/2021 11:45:00 AM 8.83 47.894 0.042 6.9 3.13 11.2
10/28/2021 12:00:00 PM 8.9 48.02 0.042 6.88 3.11 11.19
10/28/2021 12:15:00 PM 9.01 48.218 0.042 6.88 3.21 11.18
10/28/2021 12:30:00 PM 9.1 48.38 0.042 6.89 3.15 11.17
10/28/2021 12:45:00 PM 9.2 48.56 0.042 6.9 3.17 11.15
10/28/2021 1:00:00 PM 9.31 48.758 0.042 6.92 3.18 11.13
10/28/2021 1:15:00 PM 9.42 48.956 0.042 6.91 3.12 11.1
10/28/2021 1:30:00 PM 9.53 49.154 0.042 6.93 3.25 11.08
10/28/2021 1:45:00 PM 9.64 49.352 0.042 6.91 3.16 11.05
10/28/2021 2:00:00 PM 9.75 49.55 0.041 6.9 4.13 11.02
10/28/2021 2:15:00 PM 9.86 49.748 0.042 6.91 3.21 10.99
10/28/2021 2:30:00 PM 9.95 49.91 0.042 6.94 3.02 10.96
10/28/2021 2:45:00 PM 10.06 50.108 0.042 6.94 3.16 10.94
10/28/2021 3:00:00 PM 10.16 50.288 0.042 6.93 3.03 10.91
10/28/2021 3:15:00 PM 10.23 50.414 0.041 6.94 4.3 10.88
10/28/2021 3:30:00 PM 10.31 50.558 0.042 6.94 3.06 10.86
10/28/2021 3:45:00 PM 10.37 50.666 0.042 6.95 3.11 10.84
10/28/2021 4:00:00 PM 10.43 50.774 0.042 6.98 2.99 10.82
10/28/2021 4:15:00 PM 10.47 50.846 0.042 6.99 3 10.8
10/28/2021 4:30:00 PM 10.5 50.9 0.042 6.98 3.11 10.78
10/28/2021 4:45:00 PM 10.54 50.972 0.042 6.98 3.13 10.77
10/28/2021 5:00:00 PM 10.56 51.008 0.04 6.93 4.26 10.74
10/28/2021 5:15:00 PM 10.57 51.026 0.042 6.94 3.15 10.71
10/28/2021 5:30:00 PM 10.57 51.026 0.042 6.92 3.27 10.66
10/28/2021 5:45:00 PM 10.56 51.008 0.041 6.9 4.8 10.63
10/28/2021 6:00:00 PM 10.53 50.954 0.04 6.89 4.89 10.59
10/28/2021 6:15:00 PM 10.5 50.9 0.04 6.87 4.83 10.57
10/28/2021 6:30:00 PM 10.46 50.828 0.04 6.86 4.84 10.55
10/28/2021 6:45:00 PM 10.42 50.756 0.042 6.86 3.1 10.53
10/28/2021 7:00:00 PM 10.38 50.684 0.043 6.86 3.29 10.53
10/28/2021 7:15:00 PM 10.33 50.594 0.043 6.85 3.18 10.52
10/28/2021 7:30:00 PM 10.29 50.522 0.043 6.85 3.86 10.53
10/28/2021 7:45:00 PM 10.25 50.45 0.043 6.83 3.42 10.53
10/28/2021 8:00:00 PM 10.21 50.378 0.043 6.83 3.17 10.54
10/28/2021 8:15:00 PM 10.17 50.306 0.043 6.83 3.25 10.54
10/28/2021 8:30:00 PM 10.14 50.252 0.043 6.84 3.24 10.55
10/28/2021 8:45:00 PM 10.12 50.216 0.043 6.8 3.33 10.56
10/28/2021 9:00:00 PM 10.1 50.18 0.043 6.81 3.09 10.56
10/28/2021 9:15:00 PM 10.08 50.144 0.043 6.79 3.13 10.56
10/28/2021 9:30:00 PM 10.07 50.126 0.043 6.82 3.21 10.57
10/28/2021 9:45:00 PM 10.05 50.09 0.042 6.79 4.16 10.57
10/28/2021 10:00:00 PM 10.04 50.072 0.043 6.79 3.2 10.58
10/28/2021 10:15:00 PM 10.03 50.054 0.042 6.79 4.18 10.58
10/28/2021 10:30:00 PM 10.02 50.036 0.043 6.81 3.14 10.59
10/28/2021 10:45:00 PM 10.01 50.018 0.043 6.79 3.39 10.58
10/28/2021 11:00:00 PM 10 50 0.043 6.82 3.16 10.59
10/28/2021 11:15:00 PM 10 50 0.042 6.8 4.28 10.59
10/28/2021 11:30:00 PM 9.99 49.982 0.043 6.79 3.26 10.59
10/28/2021 11:45:00 PM 9.99 49.982 0.043 6.81 3.15 10.59
10/29/2021 12:00:00 AM 9.99 49.982 0.043 6.81 3.13 10.59
10/29/2021 12:15:00 AM 9.99 49.982 0.04 6.82 4.06 10.58
10/29/2021 12:30:00 AM 9.99 49.982 0.043 6.79 3 10.59
10/29/2021 12:45:00 AM 9.99 49.982 0.043 6.81 3.01 10.59
10/29/2021 1:00:00 AM 9.99 49.982 0.043 6.82 2.95 10.59
10/29/2021 1:15:00 AM 9.99 49.982 0.043 6.81 2.96 10.59
10/29/2021 1:30:00 AM 9.99 49.982 0.042 6.8 4.65 10.58
10/29/2021 1:45:00 AM 9.99 49.982 0.042 6.8 5 10.58
10/29/2021 2:00:00 AM 9.99 49.982 0.042 6.82 4.18 10.58
10/29/2021 2:15:00 AM 9.98 49.964 0.043 6.84 3 10.58
10/29/2021 2:30:00 AM 9.98 49.964 0.042 6.8 4.66 10.58
10/29/2021 2:45:00 AM 9.98 49.964 0.043 6.81 2.97 10.58
10/29/2021 3:00:00 AM 9.98 49.964 0.043 6.82 3.24 10.58
10/29/2021 3:15:00 AM 9.97 49.946 0.043 6.83 2.91 10.58
10/29/2021 3:30:00 AM 9.97 49.946 0.043 6.82 2.8 10.58
10/29/2021 3:45:00 AM 9.97 49.946 0.043 6.81 2.95 10.58
10/29/2021 4:00:00 AM 9.96 49.928 0.042 6.82 4.15 10.58
10/29/2021 4:15:00 AM 9.96 49.928 0.043 6.81 2.95 10.58
10/29/2021 4:30:00 AM 9.95 49.91 0.043 6.82 2.91 10.58
10/29/2021 4:45:00 AM 9.94 49.892 0.043 6.81 3.1 10.58
10/29/2021 5:00:00 AM 9.94 49.892 0.043 6.81 2.89 10.58
10/29/2021 5:15:00 AM 9.93 49.874 0.043 6.83 3 10.59
10/29/2021 5:30:00 AM 9.92 49.856 0.043 6.83 2.91 10.58
10/29/2021 5:45:00 AM 9.91 49.838 0.04 6.81 4.42 10.58
10/29/2021 6:00:00 AM 9.9 49.82 0.043 6.83 3.07 10.59
10/29/2021 6:15:00 AM 9.89 49.802 0.043 6.83 2.92 10.59
10/29/2021 6:30:00 AM 9.89 49.802 0.043 6.82 3.06 10.59
10/29/2021 6:45:00 AM 9.87 49.766 0.043 6.85 2.95 10.6
10/29/2021 7:00:00 AM 9.86 49.748 0.043 6.83 3 10.6
10/29/2021 7:15:00 AM 9.85 49.73 0.043 6.83 2.9 10.6
10/29/2021 7:30:00 AM 9.83 49.694 0.043 6.8 2.95 10.6
10/29/2021 7:45:00 AM 9.82 49.676 0.042 6.82 4.82 10.6
10/29/2021 8:00:00 AM 9.8 49.64 0.04 6.82 5.32 10.61
10/29/2021 8:15:00 AM 9.79 49.622 0.04 6.81 4.18 10.63
10/29/2021 8:30:00 AM 9.78 49.604 0.043 6.83 2.87 10.64
10/29/2021 8:45:00 AM 9.76 49.568 0.043 6.85 3.67 10.65
10/29/2021 9:00:00 AM 9.76 49.568 0.043 6.85 2.85 10.66
10/29/2021 9:15:00 AM 9.74 49.532 0.043 6.83 2.72 10.69
10/29/2021 9:30:00 AM 9.73 49.514 0.04 6.82 4.25 10.7
10/29/2021 9:45:00 AM 9.74 49.532 0.042 6.84 2.69 10.74
10/29/2021 10:00:00 AM 9.74 49.532 0.042 6.88 2.74 10.76
10/29/2021 10:15:00 AM 9.74 49.532 0.042 6.9 2.72 10.78
10/29/2021 10:30:00 AM 9.75 49.55 0.042 6.87 2.51 10.81
10/29/2021 10:45:00 AM 9.75 49.55 0.042 6.89 2.58 10.84
10/29/2021 11:00:00 AM 9.77 49.586 0.042 6.87 2.65 10.85
10/29/2021 11:15:00 AM 9.77 49.586 0.042 6.9 2.53 10.85
10/29/2021 11:30:00 AM 9.78 49.604 0.042 6.9 2.86 10.85
10/29/2021 11:45:00 AM 9.79 49.622 0.042 6.9 3.46 10.86
10/29/2021 12:00:00 PM 9.8 49.64 0.042 6.89 2.53 10.87
10/29/2021 12:15:00 PM 9.82 49.676 0.042 6.91 2.55 10.88
10/29/2021 12:30:00 PM 9.83 49.694 0.042 6.91 2.53 10.86
10/29/2021 12:45:00 PM 9.82 49.676 0.042 6.9 2.56 10.83
10/29/2021 1:00:00 PM 9.82 49.676 0.042 6.92 2.6 10.8
10/29/2021 1:15:00 PM 9.81 49.658 0.042 6.92 2.66 10.78
10/29/2021 1:30:00 PM 9.81 49.658 0.04 6.89 4.62 10.78
10/29/2021 1:45:00 PM 9.83 49.694 0.042 6.91 2.48 10.81
10/29/2021 2:00:00 PM 9.84 49.712 0.042 6.9 2.61 10.81
10/29/2021 2:15:00 PM 9.84 49.712 0.042 6.9 3.67 10.79
10/29/2021 2:30:00 PM 9.83 49.694 0.042 6.9 2.98 10.76
10/29/2021 2:45:00 PM 9.84 49.712 0.041 6.9 5.29 10.78
10/29/2021 3:00:00 PM 9.84 49.712 0.042 6.92 2.73 10.78
10/29/2021 3:15:00 PM 9.83 49.694 0.042 6.91 2.9 10.76
10/29/2021 3:30:00 PM 9.82 49.676 0.042 6.9 2.73 10.76
10/29/2021 3:45:00 PM 9.81 49.658 0.042 6.9 4.02 10.76
10/29/2021 4:00:00 PM 9.78 49.604 0.042 6.88 4.99 10.73
10/29/2021 4:15:00 PM 9.76 49.568 0.042 6.88 3.76 10.72
10/29/2021 4:30:00 PM 9.73 49.514 0.042 6.87 2.91 10.7
10/29/2021 4:45:00 PM 9.7 49.46 0.042 6.86 3.18 10.7
10/29/2021 5:00:00 PM 9.68 49.424 0.042 6.86 3.82 10.69
10/29/2021 5:15:00 PM 9.66 49.388 0.042 6.84 4.35 10.68
10/29/2021 5:30:00 PM 9.65 49.37 0.042 6.86 4.56 10.67
10/29/2021 5:45:00 PM 9.64 49.352 0.042 6.84 4.78 10.67
10/29/2021 6:00:00 PM 9.62 49.316 0.042 6.85 5.42 10.66
10/29/2021 6:15:00 PM 9.6 49.28 0.042 6.84 5.88 10.65
10/29/2021 6:30:00 PM 9.58 49.244 0.042 6.85 6.61 10.64
10/29/2021 6:45:00 PM 9.56 49.208 0.042 6.84 7.42 10.64
10/29/2021 7:00:00 PM 9.54 49.172 0.042 6.82 7.98 10.64
10/29/2021 7:15:00 PM 9.52 49.136 0.042 6.84 8.66 10.64
10/29/2021 7:30:00 PM 9.51 49.118 0.041 6.83 10.45 10.64
10/29/2021 7:45:00 PM 9.49 49.082 0.041 6.84 9.75 10.64
10/29/2021 8:00:00 PM 9.48 49.064 0.041 6.8 11.07 10.64
10/29/2021 8:15:00 PM 9.47 49.046 0.041 6.81 10.03 10.64
10/29/2021 8:30:00 PM 9.46 49.028 0.041 6.84 9.54 10.64
10/29/2021 8:45:00 PM 9.45 49.01 0.041 6.84 10.09 10.64
10/29/2021 9:00:00 PM 9.44 48.992 0.041 6.84 8.99 10.64
10/29/2021 9:15:00 PM 9.44 48.992 0.04 6.82 10.22 10.64
10/29/2021 9:30:00 PM 9.43 48.974 0.041 6.83 8.56 10.64
10/29/2021 9:45:00 PM 9.42 48.956 0.041 6.83 8.98 10.64
10/29/2021 10:00:00 PM 9.41 48.938 0.041 6.8 7.13 10.64
10/29/2021 10:15:00 PM 9.41 48.938 0.041 6.84 6.79 10.64
10/29/2021 10:30:00 PM 9.4 48.92 0.041 6.83 6.73 10.64
10/29/2021 10:45:00 PM 9.4 48.92 0.041 6.83 6.26 10.64
10/29/2021 11:00:00 PM 9.39 48.902 0.041 6.79 6.27 10.64
10/29/2021 11:15:00 PM 9.39 48.902 0.041 6.82 5.99 10.64
10/29/2021 11:30:00 PM 9.38 48.884 0.041 6.81 5.56 10.64
10/29/2021 11:45:00 PM 9.38 48.884 0.041 6.78 5.36 10.64
10/30/2021 12:00:00 AM 9.37 48.866 0.041 6.82 5.93 10.64
10/30/2021 12:15:00 AM 9.37 48.866 0.041 6.81 4.97 10.64
10/30/2021 12:30:00 AM 9.36 48.848 0.041 6.78 5.2 10.64
10/30/2021 12:45:00 AM 9.36 48.848 0.041 6.79 5.05 10.64
10/30/2021 1:00:00 AM 9.35 48.83 0.041 6.78 4.62 10.64
10/30/2021 1:15:00 AM 9.35 48.83 0.041 6.76 4.57 10.64
10/30/2021 1:30:00 AM 9.35 48.83 0.041 6.77 4.83 10.65
10/30/2021 1:45:00 AM 9.34 48.812 0.041 6.8 4.41 10.64
10/30/2021 2:00:00 AM 9.34 48.812 0.041 6.79 4.29 10.65
10/30/2021 2:15:00 AM 9.33 48.794 0.041 6.76 4.36 10.65
10/30/2021 2:30:00 AM 9.32 48.776 0.041 6.79 4.26 10.65
10/30/2021 2:45:00 AM 9.32 48.776 0.041 6.8 4.48 10.65
10/30/2021 3:00:00 AM 9.31 48.758 0.041 6.8 4.39 10.65
10/30/2021 3:15:00 AM 9.31 48.758 0.041 6.77 3.98 10.65
10/30/2021 3:30:00 AM 9.3 48.74 0.041 6.76 3.94 10.65
10/30/2021 3:45:00 AM 9.3 48.74 0.041 6.79 3.96 10.65
10/30/2021 4:00:00 AM 9.29 48.722 0.041 6.76 4.36 10.65
10/30/2021 4:15:00 AM 9.29 48.722 0.041 6.8 4.02 10.65
10/30/2021 4:30:00 AM 9.28 48.704 0.041 6.79 5.08 10.65
10/30/2021 4:45:00 AM 9.28 48.704 0.041 6.79 3.78 10.65
10/30/2021 5:00:00 AM 9.27 48.686 0.041 6.81 4.46 10.65
10/30/2021 5:15:00 AM 9.27 48.686 0.041 6.79 4.41 10.66
10/30/2021 5:30:00 AM 9.27 48.686 0.041 6.78 3.89 10.65
10/30/2021 5:45:00 AM 9.26 48.668 0.041 6.79 4.38 10.66
10/30/2021 6:00:00 AM 9.26 48.668 0.041 6.8 4.84 10.65
10/30/2021 6:15:00 AM 9.26 48.668 0.041 6.79 3.66 10.65
10/30/2021 6:30:00 AM 9.26 48.668 0.041 6.79 3.64 10.65
10/30/2021 6:45:00 AM 9.26 48.668 0.041 6.8 3.75 10.65
10/30/2021 7:00:00 AM 9.26 48.668 0.041 6.8 3.71 10.65
10/30/2021 7:15:00 AM 9.26 48.668 0.041 6.8 3.68 10.66
10/30/2021 7:30:00 AM 9.26 48.668 0.041 6.79 3.66 10.65
10/30/2021 7:45:00 AM 9.27 48.686 0.041 6.78 3.68 10.66
10/30/2021 8:00:00 AM 9.27 48.686 0.04 6.78 4.87 10.66
10/30/2021 8:15:00 AM 9.27 48.686 0.041 6.81 3.67 10.67
10/30/2021 8:30:00 AM 9.28 48.704 0.041 6.81 3.38 10.68
10/30/2021 8:45:00 AM 9.29 48.722 0.04 6.79 4.39 10.7
10/30/2021 9:00:00 AM 9.3 48.74 0.041 6.8 3.41 10.71
10/30/2021 9:15:00 AM 9.31 48.758 0.041 6.8 3.33 10.74
10/30/2021 9:30:00 AM 9.33 48.794 0.041 6.82 3.22 10.76
10/30/2021 9:45:00 AM 9.34 48.812 0.041 6.82 3.2 10.78
10/30/2021 10:00:00 AM 9.36 48.848 0.041 6.84 3.18 10.78
10/30/2021 10:15:00 AM 9.37 48.866 0.041 6.8 3.03 10.79
10/30/2021 10:30:00 AM 9.39 48.902 0.041 6.84 3.21 10.79
10/30/2021 10:45:00 AM 9.41 48.938 0.041 6.85 3.2 10.82
10/30/2021 11:00:00 AM 9.44 48.992 0.041 6.87 3.03 10.83
10/30/2021 11:15:00 AM 9.47 49.046 0.041 6.82 3.19 10.85
10/30/2021 11:30:00 AM 9.49 49.082 0.039 6.85 4.08 10.85
10/30/2021 11:45:00 AM 9.52 49.136 0.041 6.86 3.17 10.86
10/30/2021 12:00:00 PM 9.55 49.19 0.041 6.86 3.15 10.86
10/30/2021 12:15:00 PM 9.58 49.244 0.041 6.86 3.13 10.85
10/30/2021 12:30:00 PM 9.59 49.262 0.041 6.86 2.97 10.83
10/30/2021 12:45:00 PM 9.61 49.298 0.041 6.86 2.98 10.83
10/30/2021 1:00:00 PM 9.63 49.334 0.041 6.87 3.18 10.82
10/30/2021 1:15:00 PM 9.66 49.388 0.041 6.84 5.11 10.82
10/30/2021 1:30:00 PM 9.7 49.46 0.041 6.85 3.26 10.83
10/30/2021 1:45:00 PM 9.72 49.496 0.04 6.86 4.28 10.82
10/30/2021 2:00:00 PM 9.74 49.532 0.041 6.88 3.1 10.82
10/30/2021 2:15:00 PM 9.77 49.586 0.041 6.88 3.07 10.8
10/30/2021 2:30:00 PM 9.79 49.622 0.04 6.84 4.26 10.8
10/30/2021 2:45:00 PM 9.82 49.676 0.041 6.9 3.18 10.79
10/30/2021 3:00:00 PM 9.85 49.73 0.041 6.87 3.17 10.79
10/30/2021 3:15:00 PM 9.88 49.784 0.041 6.89 3.38 10.79
10/30/2021 3:30:00 PM 9.92 49.856 0.041 6.86 3.29 10.8
10/30/2021 3:45:00 PM 9.95 49.91 0.041 6.86 3.35 10.78
10/30/2021 4:00:00 PM 9.96 49.928 0.041 6.86 3.4 10.75
10/30/2021 4:15:00 PM 9.97 49.946 0.041 6.88 3.49 10.72
10/30/2021 4:30:00 PM 9.98 49.964 0.041 6.86 3.4 10.69
10/30/2021 4:45:00 PM 9.98 49.964 0.04 6.84 4.55 10.67
10/30/2021 5:00:00 PM 9.98 49.964 0.039 6.84 4.4 10.64
10/30/2021 5:15:00 PM 9.99 49.982 0.041 6.83 3.47 10.62
10/30/2021 5:30:00 PM 9.99 49.982 0.041 6.83 3.5 10.6
10/30/2021 5:45:00 PM 9.99 49.982 0.041 6.83 3.65 10.57
10/30/2021 6:00:00 PM 9.99 49.982 0.041 6.82 3.65 10.56
10/30/2021 6:15:00 PM 9.99 49.982 0.041 6.81 3.76 10.54
10/30/2021 6:30:00 PM 9.99 49.982 0.041 6.81 3.57 10.53
10/30/2021 6:45:00 PM 9.99 49.982 0.041 6.77 3.6 10.52
10/30/2021 7:00:00 PM 9.98 49.964 0.041 6.8 3.82 10.51
10/30/2021 7:15:00 PM 9.98 49.964 0.041 6.79 3.7 10.51
10/30/2021 7:30:00 PM 9.98 49.964 0.041 6.81 3.72 10.51
10/30/2021 7:45:00 PM 9.98 49.964 0.041 6.78 3.86 10.5
10/30/2021 8:00:00 PM 9.97 49.946 0.04 6.76 4.88 10.51
10/30/2021 8:15:00 PM 9.97 49.946 0.041 6.76 3.75 10.5
10/30/2021 8:30:00 PM 9.96 49.928 0.041 6.77 3.73 10.5
10/30/2021 8:45:00 PM 9.95 49.91 0.041 6.75 3.76 10.5
10/30/2021 9:00:00 PM 9.95 49.91 0.041 6.78 3.98 10.5
10/30/2021 9:15:00 PM 9.94 49.892 0.041 6.75 3.87 10.51
10/30/2021 9:30:00 PM 9.93 49.874 0.041 6.73 4 10.51
10/30/2021 9:45:00 PM 9.92 49.856 0.041 6.74 4.1 10.51
10/30/2021 10:00:00 PM 9.91 49.838 0.041 6.77 3.94 10.51
10/30/2021 10:15:00 PM 9.9 49.82 0.041 6.76 4.18 10.52
10/30/2021 10:30:00 PM 9.9 49.82 0.041 6.74 4.14 10.52
10/30/2021 10:45:00 PM 9.89 49.802 0.041 6.78 3.97 10.52
10/30/2021 11:00:00 PM 9.88 49.784 0.041 6.75 4.13 10.52
10/30/2021 11:15:00 PM 9.87 49.766 0.041 6.75 4.03 10.52
10/30/2021 11:30:00 PM 9.87 49.766 0.041 6.75 4.12 10.53
10/30/2021 11:45:00 PM 9.87 49.766 0.041 6.77 4.02 10.52
10/31/2021 12:00:00 AM 9.86 49.748 0.041 6.75 4.02 10.53
10/31/2021 12:15:00 AM 9.86 49.748 0.041 6.73 4.14 10.52
10/31/2021 12:30:00 AM 9.86 49.748 0.039 6.74 5.24 10.52
10/31/2021 12:45:00 AM 9.86 49.748 0.039 6.75 5.29 10.53
10/31/2021 1:00:00 AM 9.85 49.73 0.041 6.75 4.79 10.53
10/31/2021 1:15:00 AM 9.85 49.73 0.041 6.75 4.49 10.52
10/31/2021 1:30:00 AM 9.85 49.73 0.04 6.74 5.49 10.52
10/31/2021 1:45:00 AM 9.85 49.73 0.041 6.77 4.47 10.51
10/31/2021 2:00:00 AM 9.85 49.73 0.041 6.75 4.53 10.52
10/31/2021 2:15:00 AM 9.85 49.73 0.04 6.74 5.67 10.52
10/31/2021 2:30:00 AM 9.85 49.73 0.041 6.74 4.43 10.51
10/31/2021 2:45:00 AM 9.84 49.712 0.041 6.78 4.62 10.51
10/31/2021 3:00:00 AM 9.84 49.712 0.041 6.78 4.73 10.51
10/31/2021 3:15:00 AM 9.84 49.712 0.04 6.76 5.96 10.51
10/31/2021 3:30:00 AM 9.83 49.694 0.041 6.78 5.08 10.52
10/31/2021 3:45:00 AM 9.83 49.694 0.041 6.78 4.71 10.51
10/31/2021 4:00:00 AM 9.83 49.694 0.041 6.8 5.05 10.52
10/31/2021 4:15:00 AM 9.82 49.676 0.041 6.77 5.04 10.52
10/31/2021 4:30:00 AM 9.82 49.676 0.041 6.79 5.06 10.52
10/31/2021 4:45:00 AM 9.82 49.676 0.041 6.78 4.79 10.52
10/31/2021 5:00:00 AM 9.81 49.658 0.041 6.78 5.05 10.52
10/31/2021 5:15:00 AM 9.81 49.658 0.04 6.78 5.96 10.52
10/31/2021 5:30:00 AM 9.81 49.658 0.041 6.79 4.78 10.52
10/31/2021 5:45:00 AM 9.8 49.64 0.041 6.78 4.59 10.52
10/31/2021 6:00:00 AM 9.8 49.64 0.04 6.72 5.8 10.53
10/31/2021 6:15:00 AM 9.8 49.64 0.041 6.73 4.63 10.53
10/31/2021 6:30:00 AM 9.8 49.64 0.041 6.78 4.64 10.53
10/31/2021 6:45:00 AM 9.8 49.64 0.04 6.74 5.79 10.53
10/31/2021 7:00:00 AM 9.79 49.622 0.041 6.77 4.66 10.53
10/31/2021 7:15:00 AM 9.79 49.622 0.041 6.79 4.6 10.53
10/31/2021 7:30:00 AM 9.79 49.622 0.041 6.77 4.7 10.53
10/31/2021 7:45:00 AM 9.79 49.622 0.041 6.76 4.7 10.54
10/31/2021 8:00:00 AM 9.78 49.604 0.041 6.77 4.54 10.54
10/31/2021 8:15:00 AM 9.78 49.604 0.041 6.77 4.34 10.55
10/31/2021 8:30:00 AM 9.78 49.604 0.041 6.78 4.49 10.56
10/31/2021 8:45:00 AM 9.79 49.622 0.041 6.76 4.56 10.58
10/31/2021 9:00:00 AM 9.8 49.64 0.041 6.79 4.38 10.6
10/31/2021 9:15:00 AM 9.81 49.658 0.041 6.8 4.28 10.64
10/31/2021 9:30:00 AM 9.83 49.694 0.041 6.82 4.46 10.67
10/31/2021 9:45:00 AM 9.85 49.73 0.041 6.82 4.3 10.68
10/31/2021 10:00:00 AM 9.86 49.748 0.041 6.8 4.31 10.69
10/31/2021 10:15:00 AM 9.88 49.784 0.041 6.84 4.21 10.7
10/31/2021 10:30:00 AM 9.9 49.82 0.04 6.82 5.55 10.72
10/31/2021 10:45:00 AM 9.9 49.82 0.039 6.85 5.32 10.72
10/31/2021 11:00:00 AM 9.92 49.856 0.041 6.86 4.25 10.73
10/31/2021 11:15:00 AM 9.94 49.892 0.041 6.87 4.12 10.75
10/31/2021 11:30:00 AM 9.95 49.91 0.041 6.88 4.13 10.75
10/31/2021 11:45:00 AM 9.97 49.946 0.041 6.88 4.15 10.75
10/31/2021 12:00:00 PM 9.99 49.982 0.041 6.85 4.18 10.76
10/31/2021 12:15:00 PM 10.01 50.018 0.041 6.87 4.17 10.76
10/31/2021 12:30:00 PM 10.03 50.054 0.041 6.86 4.05 10.75
10/31/2021 12:45:00 PM 10.05 50.09 0.04 6.84 5.35 10.77
10/31/2021 1:00:00 PM 10.07 50.126 0.039 6.85 5.22 10.77
10/31/2021 1:15:00 PM 10.1 50.18 0.041 6.89 3.89 10.78
10/31/2021 1:30:00 PM 10.13 50.234 0.041 6.9 4.04 10.78
10/31/2021 1:45:00 PM 10.15 50.27 0.041 6.88 4.06 10.78
10/31/2021 2:00:00 PM 10.16 50.288 0.041 6.89 4.09 10.77
10/31/2021 2:15:00 PM 10.15 50.27 0.041 6.88 3.82 10.76
10/31/2021 2:30:00 PM 10.16 50.288 0.041 6.9 3.96 10.75
10/31/2021 2:45:00 PM 10.17 50.306 0.041 6.86 3.87 10.75
10/31/2021 3:00:00 PM 10.18 50.324 0.041 6.88 3.76 10.76
10/31/2021 3:15:00 PM 10.19 50.342 0.041 6.89 3.92 10.75
10/31/2021 3:30:00 PM 10.2 50.36 0.039 6.84 5.01 10.74
10/31/2021 3:45:00 PM 10.22 50.396 0.041 6.87 3.67 10.74
10/31/2021 4:00:00 PM 10.24 50.432 0.041 6.91 3.68 10.74
10/31/2021 4:15:00 PM 10.26 50.468 0.039 6.85 4.9 10.74
10/31/2021 4:30:00 PM 10.27 50.486 0.041 6.9 3.92 10.73
10/31/2021 4:45:00 PM 10.27 50.486 0.041 6.86 3.81 10.72
10/31/2021 5:00:00 PM 10.26 50.468 0.041 6.88 3.77 10.7
10/31/2021 5:15:00 PM 10.25 50.45 0.041 6.87 3.81 10.67
10/31/2021 5:30:00 PM 10.23 50.414 0.041 6.86 3.72 10.65
10/31/2021 5:45:00 PM 10.2 50.36 0.041 6.85 3.75 10.63
10/31/2021 6:00:00 PM 10.17 50.306 0.04 6.83 4.9 10.62
10/31/2021 6:15:00 PM 10.13 50.234 0.041 6.82 3.74 10.6
10/31/2021 6:30:00 PM 10.08 50.144 0.041 6.82 3.71 10.59
10/31/2021 6:45:00 PM 10.04 50.072 0.041 6.85 3.61 10.59
10/31/2021 7:00:00 PM 9.99 49.982 0.04 6.78 4.91 10.59
10/31/2021 7:15:00 PM 9.94 49.892 0.041 6.77 4.13 10.58
10/31/2021 7:30:00 PM 9.9 49.82 0.041 6.78 3.83 10.59
10/31/2021 7:45:00 PM 9.85 49.73 0.041 6.78 3.84 10.6
10/31/2021 8:00:00 PM 9.8 49.64 0.041 6.79 3.95 10.61
10/31/2021 8:15:00 PM 9.76 49.568 0.041 6.76 3.78 10.62
10/31/2021 8:30:00 PM 9.71 49.478 0.041 6.77 3.82 10.62
10/31/2021 8:45:00 PM 9.67 49.406 0.041 6.76 3.73 10.64
10/31/2021 9:00:00 PM 9.63 49.334 0.041 6.76 3.73 10.65
10/31/2021 9:15:00 PM 9.58 49.244 0.039 6.76 4.73 10.66
10/31/2021 9:30:00 PM 9.54 49.172 0.041 6.75 3.82 10.68
10/31/2021 9:45:00 PM 9.5 49.1 0.041 6.77 3.66 10.69
10/31/2021 10:00:00 PM 9.46 49.028 0.04 6.76 4.71 10.7
10/31/2021 10:15:00 PM 9.42 48.956 0.041 6.75 3.65 10.72
10/31/2021 10:30:00 PM 9.39 48.902 0.041 6.73 3.74 10.73
10/31/2021 10:45:00 PM 9.37 48.866 0.041 6.76 3.82 10.74
10/31/2021 11:00:00 PM 9.36 48.848 0.041 6.75 3.57 10.75
10/31/2021 11:15:00 PM 9.34 48.812 0.041 6.75 3.49 10.75
10/31/2021 11:30:00 PM 9.33 48.794 0.041 6.74 3.57 10.76
10/31/2021 11:45:00 PM 9.33 48.794 0.041 6.74 3.56 10.76
11/1/2021 12:00:00 AM 9.32 48.776 0.041 6.75 3.58 10.76
11/1/2021 12:15:00 AM 9.32 48.776 0.041 6.75 3.54 10.77
11/1/2021 12:30:00 AM 9.32 48.776 0.041 6.75 3.54 10.77
11/1/2021 12:45:00 AM 9.32 48.776 0.041 6.75 3.53 10.77
11/1/2021 1:00:00 AM 9.31 48.758 0.04 6.75 4.57 10.77
11/1/2021 1:15:00 AM 9.32 48.776 0.039 6.75 4.55 10.77
11/1/2021 1:30:00 AM 9.31 48.758 0.039 6.74 4.57 10.77
11/1/2021 1:45:00 AM 9.31 48.758 0.041 6.75 3.5 10.78
11/1/2021 2:00:00 AM 9.32 48.776 0.041 6.75 3.35 10.77
11/1/2021 2:15:00 AM 9.32 48.776 0.041 6.75 3.43 10.77
11/1/2021 2:30:00 AM 9.32 48.776 0.04 6.74 4.59 10.77
11/1/2021 2:45:00 AM 9.32 48.776 0.041 6.77 3.52 10.77
11/1/2021 3:00:00 AM 9.32 48.776 0.041 6.77 3.48 10.78
11/1/2021 3:15:00 AM 9.31 48.758 0.041 6.76 3.57 10.78
11/1/2021 3:30:00 AM 9.31 48.758 0.041 6.79 3.52 10.78
11/1/2021 3:45:00 AM 9.31 48.758 0.041 6.76 3.67 10.79
11/1/2021 4:00:00 AM 9.31 48.758 0.041 6.76 3.44 10.79
11/1/2021 4:15:00 AM 9.3 48.74 0.041 6.76 3.55 10.79
11/1/2021 4:30:00 AM 9.29 48.722 0.041 6.79 3.52 10.8
11/1/2021 4:45:00 AM 9.28 48.704 0.041 6.77 3.33 10.8
11/1/2021 5:00:00 AM 9.27 48.686 0.041 6.77 3.36 10.81
11/1/2021 5:15:00 AM 9.25 48.65 0.041 6.77 3.49 10.82
11/1/2021 5:30:00 AM 9.23 48.614 0.041 6.76 3.33 10.82
11/1/2021 5:45:00 AM 9.22 48.596 0.041 6.75 3.84 10.83
11/1/2021 6:00:00 AM 9.2 48.56 0.041 6.78 3.92 10.84
11/1/2021 6:15:00 AM 9.17 48.506 0.041 6.79 3.97 10.84
11/1/2021 6:30:00 AM 9.15 48.47 0.04 6.75 4.84 10.85
11/1/2021 6:45:00 AM 9.12 48.416 0.041 6.76 3.71 10.86
11/1/2021 7:00:00 AM 9.09 48.362 0.041 6.74 3.79 10.87
11/1/2021 7:15:00 AM 9.06 48.308 0.041 6.73 3.68 10.88
11/1/2021 7:30:00 AM 9.02 48.236 0.041 6.75 3.66 10.9
11/1/2021 7:45:00 AM 8.98 48.164 0.041 6.74 3.68 10.91
11/1/2021 8:00:00 AM 8.94 48.092 0.041 6.75 3.66 10.93
11/1/2021 8:15:00 AM 8.92 48.056 0.041 6.76 3.63 10.96
11/1/2021 8:30:00 AM 8.89 48.002 0.041 6.78 3.5 10.98
11/1/2021 8:45:00 AM 8.86 47.948 0.041 6.78 3.4 11.01
11/1/2021 9:00:00 AM 8.83 47.894 0.041 6.79 3.42 11.03
11/1/2021 9:15:00 AM 8.8 47.84 0.041 6.79 3.42 11.07
11/1/2021 9:30:00 AM 8.78 47.804 0.041 6.79 3.43 11.09
11/1/2021 9:45:00 AM 8.76 47.768 0.041 6.79 3.19 11.13
11/1/2021 10:00:00 AM 8.75 47.75 0.041 6.8 3.23 11.16
11/1/2021 10:15:00 AM 8.75 47.75 0.041 6.83 3.2 11.17
11/1/2021 10:30:00 AM 8.76 47.768 0.041 6.83 3.05 11.2
11/1/2021 10:45:00 AM 8.78 47.804 0.041 6.83 3.14 11.23
11/1/2021 11:00:00 AM 8.8 47.84 0.041 6.85 3.07 11.25
11/1/2021 11:15:00 AM 8.83 47.894 0.041 6.84 3.17 11.27
11/1/2021 11:30:00 AM 8.88 47.984 0.041 6.84 2.95 11.28
11/1/2021 11:45:00 AM 8.94 48.092 0.041 6.88 2.91 11.28
11/1/2021 12:00:00 PM 8.96 48.128 0.041 6.86 3.02 11.29
11/1/2021 12:15:00 PM 8.96 48.128 0.041 6.87 2.95 11.27
11/1/2021 12:30:00 PM 8.94 48.092 0.041 6.86 2.96 11.27
11/1/2021 12:45:00 PM 8.95 48.11 0.041 6.88 8.32 11.26
11/1/2021 1:00:00 PM 8.99 48.182 0.041 6.87 2.97 11.26
11/1/2021 1:15:00 PM 9.11 48.398 0.041 6.89 2.9 11.25
11/1/2021 1:30:00 PM 9.21 48.578 0.041 6.87 2.97 11.25
11/1/2021 1:45:00 PM 9.33 48.794 0.041 6.86 2.85 11.23
11/1/2021 2:00:00 PM 9.4 48.92 0.041 6.85 2.93 11.19
11/1/2021 2:15:00 PM 9.43 48.974 0.041 6.86 2.9 11.17
11/1/2021 2:30:00 PM 9.43 48.974 0.038 6.87 4.3 11.16
11/1/2021 2:45:00 PM 9.45 49.01 0.041 6.87 2.99 11.14
11/1/2021 3:00:00 PM 9.44 48.992 0.04 6.86 3.93 11.13
11/1/2021 3:15:00 PM 9.43 48.974 0.041 6.87 2.91 11.13
11/1/2021 3:30:00 PM 9.38 48.884 0.041 6.87 2.93 11.12
11/1/2021 3:45:00 PM 9.37 48.866 0.041 6.86 3.03 11.12
11/1/2021 4:00:00 PM 9.35 48.83 0.041 6.86 2.82 11.12
11/1/2021 4:15:00 PM 9.35 48.83 0.041 6.88 2.85 11.11
11/1/2021 4:30:00 PM 9.33 48.794 0.041 6.87 2.87 11.11
11/1/2021 4:45:00 PM 9.33 48.794 0.041 6.88 2.83 11.1
11/1/2021 5:00:00 PM 9.31 48.758 0.041 6.86 2.89 11.09
11/1/2021 5:15:00 PM 9.29 48.722 0.041 6.87 2.9 11.07
11/1/2021 5:30:00 PM 9.26 48.668 0.039 6.87 4.08 11.05
11/1/2021 5:45:00 PM 9.23 48.614 0.041 6.86 2.82 11.03
11/1/2021 6:00:00 PM 9.19 48.542 0.041 6.84 2.83 11.02
11/1/2021 6:15:00 PM 9.13 48.434 0.041 6.82 2.97 11
11/1/2021 6:30:00 PM 9.08 48.344 0.041 6.82 2.93 10.99
11/1/2021 6:45:00 PM 9.02 48.236 0.041 6.8 2.9 10.98
11/1/2021 7:00:00 PM 8.97 48.146 0.041 6.81 3.06 10.99
11/1/2021 7:15:00 PM 8.91 48.038 0.041 6.79 2.95 10.99
11/1/2021 7:30:00 PM 8.86 47.948 0.041 6.78 2.99 11
11/1/2021 7:45:00 PM 8.81 47.858 0.041 6.78 3.11 11
11/1/2021 8:00:00 PM 8.76 47.768 0.041 6.78 3.03 11.01
11/1/2021 8:15:00 PM 8.72 47.696 0.041 6.77 2.98 11.03
11/1/2021 8:30:00 PM 8.68 47.624 0.041 6.77 2.99 11.03
11/1/2021 8:45:00 PM 8.64 47.552 0.041 6.79 3.01 11.05
11/1/2021 9:00:00 PM 8.6 47.48 0.041 6.76 3.05 11.06
11/1/2021 9:15:00 PM 8.55 47.39 0.041 6.78 2.88 11.06
11/1/2021 9:30:00 PM 8.51 47.318 0.041 6.78 2.93 11.08
11/1/2021 9:45:00 PM 8.46 47.228 0.041 6.77 2.89 11.09
11/1/2021 10:00:00 PM 8.41 47.138 0.041 6.78 2.93 11.11
11/1/2021 10:15:00 PM 8.36 47.048 0.041 6.79 2.88 11.12
11/1/2021 10:30:00 PM 8.31 46.958 0.041 6.79 3.02 11.13
11/1/2021 10:45:00 PM 8.27 46.886 0.041 6.77 2.85 11.14
11/1/2021 11:00:00 PM 8.22 46.796 0.041 6.78 2.84 11.16
11/1/2021 11:15:00 PM 8.19 46.742 0.041 6.79 2.97 11.17
11/1/2021 11:30:00 PM 8.16 46.688 0.041 6.78 2.86 11.18
11/1/2021 11:45:00 PM 8.14 46.652 0.04 6.76 3.87 11.19
11/2/2021 12:00:00 AM 8.11 46.598 0.041 6.76 2.83 11.2
11/2/2021 12:15:00 AM 8.1 46.58 0.041 6.8 2.83 11.2
11/2/2021 12:30:00 AM 8.08 46.544 0.041 6.77 2.86 11.21
11/2/2021 12:45:00 AM 8.06 46.508 0.041 6.78 2.74 11.21
11/2/2021 1:00:00 AM 8.05 46.49 0.041 6.76 2.89 11.22
11/2/2021 1:15:00 AM 8.04 46.472 0.041 6.75 2.89 11.22
11/2/2021 1:30:00 AM 8.02 46.436 0.041 6.77 2.76 11.22
11/2/2021 1:45:00 AM 8 46.4 0.041 6.75 2.79 11.23
11/2/2021 2:00:00 AM 7.98 46.364 0.041 6.78 2.73 11.23
11/2/2021 2:15:00 AM 7.97 46.346 0.041 6.76 2.85 11.24
11/2/2021 2:30:00 AM 7.95 46.31 0.041 6.78 2.77 11.24
11/2/2021 2:45:00 AM 7.93 46.274 0.041 6.76 2.7 11.25
11/2/2021 3:00:00 AM 7.92 46.256 0.041 6.78 2.73 11.25
11/2/2021 3:15:00 AM 7.91 46.238 0.041 6.79 2.75 11.25
11/2/2021 3:30:00 AM 7.9 46.22 0.041 6.79 2.69 11.26
11/2/2021 3:45:00 AM 7.89 46.202 0.041 6.78 2.75 11.26
11/2/2021 4:00:00 AM 7.89 46.202 0.041 6.81 2.68 11.26
11/2/2021 4:15:00 AM 7.88 46.184 0.041 6.79 2.78 11.26
11/2/2021 4:30:00 AM 7.87 46.166 0.041 6.79 2.75 11.27
11/2/2021 4:45:00 AM 7.86 46.148 0.041 6.79 2.69 11.26
11/2/2021 5:00:00 AM 7.85 46.13 0.041 6.78 2.8 11.27
11/2/2021 5:15:00 AM 7.85 46.13 0.041 6.77 2.76 11.28
11/2/2021 5:30:00 AM 7.85 46.13 0.041 6.79 2.76 11.27
11/2/2021 5:45:00 AM 7.85 46.13 0.041 6.8 2.74 11.28
11/2/2021 6:00:00 AM 7.85 46.13 0.041 6.79 2.69 11.28
11/2/2021 6:15:00 AM 7.84 46.112 0.041 6.78 2.66 11.28
11/2/2021 6:30:00 AM 7.83 46.094 0.041 6.79 2.66 11.28
11/2/2021 6:45:00 AM 7.83 46.094 0.041 6.78 2.68 11.28
11/2/2021 7:00:00 AM 7.81 46.058 0.041 6.8 2.68 11.28
11/2/2021 7:15:00 AM 7.8 46.04 0.041 6.79 2.61 11.29
11/2/2021 7:30:00 AM 7.78 46.004 0.041 6.77 2.63 11.29
11/2/2021 7:45:00 AM 7.76 45.968 0.041 6.77 2.67 11.3
11/2/2021 8:00:00 AM 7.74 45.932 0.041 6.77 2.65 11.31
11/2/2021 8:15:00 AM 7.72 45.896 0.04 6.79 3.77 11.34
11/2/2021 8:30:00 AM 7.72 45.896 0.041 6.81 2.68 11.37
11/2/2021 8:45:00 AM 7.71 45.878 0.041 6.81 2.67 11.38
11/2/2021 9:00:00 AM 7.72 45.896 0.041 6.81 2.58 11.42
11/2/2021 9:15:00 AM 7.73 45.914 0.041 6.83 2.56 11.45
11/2/2021 9:30:00 AM 7.75 45.95 0.041 6.83 2.53 11.48
11/2/2021 9:45:00 AM 7.76 45.968 0.041 6.84 2.62 11.51
11/2/2021 10:00:00 AM 7.79 46.022 0.041 6.84 2.58 11.53
11/2/2021 10:15:00 AM 7.82 46.076 0.041 6.85 2.57 11.56
11/2/2021 10:30:00 AM 7.86 46.148 0.041 6.88 2.55 11.57
11/2/2021 10:45:00 AM 7.89 46.202 0.04 6.86 3.61 11.56
11/2/2021 11:00:00 AM 7.92 46.256 0.041 6.87 2.51 11.57
11/2/2021 11:15:00 AM 7.95 46.31 0.041 6.9 2.38 11.58
11/2/2021 11:30:00 AM 8 46.4 0.041 6.91 2.46 11.58
11/2/2021 11:45:00 AM 8.04 46.472 0.041 6.93 2.44 11.58
11/2/2021 12:00:00 PM 8.08 46.544 0.041 6.91 2.42 11.58
11/2/2021 12:15:00 PM 8.12 46.616 0.041 6.93 2.42 11.56
11/2/2021 12:30:00 PM 8.16 46.688 0.041 6.91 2.39 11.54
11/2/2021 12:45:00 PM 8.16 46.688 0.041 6.93 2.29 11.54
11/2/2021 1:00:00 PM 8.18 46.724 0.041 6.94 2.35 11.52
11/2/2021 1:15:00 PM 8.24 46.832 0.041 6.94 2.49 11.52
11/2/2021 1:30:00 PM 8.32 46.976 0.041 6.96 2.4 11.51
11/2/2021 1:45:00 PM 8.4 47.12 0.041 6.91 2.43 11.5
11/2/2021 2:00:00 PM 8.4 47.12 0.041 6.95 2.48 11.48
11/2/2021 2:15:00 PM 8.42 47.156 0.041 6.95 2.4 11.43
11/2/2021 2:30:00 PM 8.42 47.156 0.041 6.93 2.35 11.41
11/2/2021 2:45:00 PM 8.47 47.246 0.041 6.94 2.38 11.42
11/2/2021 3:00:00 PM 8.5 47.3 0.041 6.95 2.6 11.43
11/2/2021 3:15:00 PM 8.51 47.318 0.041 6.96 2.36 11.43
11/2/2021 3:30:00 PM 8.53 47.354 0.041 6.95 2.41 11.43
11/2/2021 3:45:00 PM 8.54 47.372 0.041 6.95 2.49 11.42
11/2/2021 4:00:00 PM 8.57 47.426 0.041 6.96 2.54 11.41
11/2/2021 4:15:00 PM 8.55 47.39 0.041 6.96 2.37 11.38
11/2/2021 4:30:00 PM 8.54 47.372 0.041 6.94 2.41 11.37
11/2/2021 4:45:00 PM 8.53 47.354 0.041 6.94 2.42 11.35
11/2/2021 5:00:00 PM 8.53 47.354 0.041 6.94 2.41 11.32
11/2/2021 5:15:00 PM 8.52 47.336 0.041 6.94 2.42 11.28
11/2/2021 5:30:00 PM 8.5 47.3 0.041 6.91 2.49 11.24
11/2/2021 5:45:00 PM 8.48 47.264 0.041 6.89 2.36 11.22
11/2/2021 6:00:00 PM 8.45 47.21 0.041 6.89 2.3 11.2
11/2/2021 6:15:00 PM 8.42 47.156 0.041 6.9 2.35 11.18
11/2/2021 6:30:00 PM 8.39 47.102 0.041 6.88 2.45 11.18
11/2/2021 6:45:00 PM 8.37 47.066 0.041 6.86 2.42 11.17
11/2/2021 7:00:00 PM 8.35 47.03 0.041 6.85 2.54 11.16
11/2/2021 7:15:00 PM 8.32 46.976 0.041 6.87 2.46 11.16
11/2/2021 7:30:00 PM 8.3 46.94 0.041 6.84 2.4 11.17
11/2/2021 7:45:00 PM 8.27 46.886 0.041 6.85 2.43 11.17
11/2/2021 8:00:00 PM 8.24 46.832 0.041 6.85 2.32 11.18
11/2/2021 8:15:00 PM 8.2 46.76 0.041 6.84 2.49 11.19
11/2/2021 8:30:00 PM 8.17 46.706 0.041 6.84 2.43 11.19
11/2/2021 8:45:00 PM 8.13 46.634 0.041 6.82 2.47 11.2
11/2/2021 9:00:00 PM 8.1 46.58 0.041 6.84 2.4 11.21
11/2/2021 9:15:00 PM 8.06 46.508 0.041 6.85 2.46 11.22
11/2/2021 9:30:00 PM 8.03 46.454 0.041 6.83 2.52 11.23
11/2/2021 9:45:00 PM 7.99 46.382 0.041 6.83 2.49 11.24
11/2/2021 10:00:00 PM 7.95 46.31 0.041 6.81 2.57 11.25
11/2/2021 10:15:00 PM 7.91 46.238 0.041 6.84 2.48 11.26
11/2/2021 10:30:00 PM 7.86 46.148 0.041 6.84 2.47 11.27
11/2/2021 10:45:00 PM 7.83 46.094 0.041 6.83 2.49 11.28
11/2/2021 11:00:00 PM 7.78 46.004 0.041 6.84 2.44 11.3
11/2/2021 11:15:00 PM 7.74 45.932 0.041 6.81 2.56 11.31
11/2/2021 11:30:00 PM 7.71 45.878 0.041 6.85 2.48 11.32
11/2/2021 11:45:00 PM 7.68 45.824 0.041 6.83 2.43 11.33
11/3/2021 12:00:00 AM 7.65 45.77 0.041 6.83 2.41 11.33
11/3/2021 12:15:00 AM 7.63 45.734 0.041 6.82 2.44 11.34
11/3/2021 12:30:00 AM 7.6 45.68 0.041 6.77 2.42 11.35
11/3/2021 12:45:00 AM 7.59 45.662 0.041 6.82 2.44 11.36
11/3/2021 1:00:00 AM 7.57 45.626 0.041 6.81 2.19 11.36
11/3/2021 1:15:00 AM 7.55 45.59 0.041 6.83 2.23 11.37
11/3/2021 1:30:00 AM 7.54 45.572 0.041 6.83 2.43 11.38
11/3/2021 1:45:00 AM 7.52 45.536 0.041 6.82 2.39 11.38
11/3/2021 2:00:00 AM 7.51 45.518 0.041 6.79 2.36 11.38
11/3/2021 2:15:00 AM 7.5 45.5 0.041 6.84 2.4 11.39
11/3/2021 2:30:00 AM 7.48 45.464 0.041 6.83 2.43 11.4
11/3/2021 2:45:00 AM 7.47 45.446 0.041 6.81 2.35 11.4
11/3/2021 3:00:00 AM 7.46 45.428 0.041 6.84 2.34 11.4
11/3/2021 3:15:00 AM 7.45 45.41 0.041 6.79 2.39 11.4
11/3/2021 3:30:00 AM 7.44 45.392 0.041 6.8 2.37 11.41
11/3/2021 3:45:00 AM 7.44 45.392 0.041 6.78 2.33 11.41
11/3/2021 4:00:00 AM 7.44 45.392 0.041 6.83 2.34 11.41
11/3/2021 4:15:00 AM 7.43 45.374 0.041 6.8 2.35 11.41
11/3/2021 4:30:00 AM 7.43 45.374 0.041 6.81 2.41 11.41
11/3/2021 4:45:00 AM 7.43 45.374 0.041 6.81 2.35 11.41
11/3/2021 5:00:00 AM 7.42 45.356 0.041 6.78 2.45 11.41
11/3/2021 5:15:00 AM 7.41 45.338 0.041 6.81 2.31 11.41
11/3/2021 5:30:00 AM 7.41 45.338 0.041 6.82 2.28 11.41
11/3/2021 5:45:00 AM 7.41 45.338 0.041 6.82 2.35 11.41
11/3/2021 6:00:00 AM 7.4 45.32 0.041 6.81 2.23 11.42
11/3/2021 6:15:00 AM 7.4 45.32 0.041 6.82 2.36 11.42
11/3/2021 6:30:00 AM 7.39 45.302 0.041 6.79 3.77 11.42
11/3/2021 6:45:00 AM 7.38 45.284 0.041 6.79 2.3 11.42
11/3/2021 7:00:00 AM 7.37 45.266 0.041 6.81 2.32 11.42
11/3/2021 7:15:00 AM 7.37 45.266 0.041 6.8 2.34 11.43
11/3/2021 7:30:00 AM 7.37 45.266 0.041 6.82 2.33 11.43
11/3/2021 7:45:00 AM 7.33 45.194 0.041 6.78 2.35 11.43
11/3/2021 8:00:00 AM 7.32 45.176 0.041 6.84 2.35 11.45
11/3/2021 8:15:00 AM 7.29 45.122 0.041 6.79 2.3 11.47
11/3/2021 8:30:00 AM 7.29 45.122 0.041 6.81 2.39 11.5
11/3/2021 8:45:00 AM 7.3 45.14 0.041 6.81 2.3 11.54
11/3/2021 9:00:00 AM 7.31 45.158 0.041 6.85 2.3 11.57
11/3/2021 9:15:00 AM 7.32 45.176 0.041 6.84 2.25 11.61
11/3/2021 9:30:00 AM 7.34 45.212 0.04 6.83 3.5 11.65
11/3/2021 9:45:00 AM 7.35 45.23 0.041 6.87 2.32 11.67
11/3/2021 10:00:00 AM 7.37 45.266 0.04 6.87 3.44 11.69
11/3/2021 10:15:00 AM 7.39 45.302 0.041 6.9 2.24 11.72
11/3/2021 10:30:00 AM 7.41 45.338 0.041 6.9 2.22 11.73
11/3/2021 10:45:00 AM 7.43 45.374 0.041 6.91 2.19 11.75
11/3/2021 11:00:00 AM 7.46 45.428 0.041 6.9 2.26 11.77
11/3/2021 11:15:00 AM 7.48 45.464 0.041 6.89 2.23 11.77
11/3/2021 11:30:00 AM 7.51 45.518 0.041 6.91 2.18 11.78
11/3/2021 11:45:00 AM 7.55 45.59 0.041 6.94 2.21 11.79
11/3/2021 12:00:00 PM 7.59 45.662 0.04 6.91 3.39 11.79
11/3/2021 12:15:00 PM 7.65 45.77 0.041 6.92 2.17 11.78
11/3/2021 12:30:00 PM 7.68 45.824 0.041 6.97 2.2 11.78
11/3/2021 12:45:00 PM 7.71 45.878 0.041 6.96 2.15 11.77
11/3/2021 1:00:00 PM 7.75 45.95 0.041 6.95 2.13 11.76
11/3/2021 1:15:00 PM 7.81 46.058 0.041 6.95 2.09 11.76
11/3/2021 1:30:00 PM 7.86 46.148 0.041 6.93 2.11 11.74
11/3/2021 1:45:00 PM 7.88 46.184 0.041 6.94 2.14 11.72
11/3/2021 2:00:00 PM 7.91 46.238 0.041 6.94 2.25 11.71
11/3/2021 2:15:00 PM 7.94 46.292 0.041 6.96 2.17 11.69
11/3/2021 2:30:00 PM 7.99 46.382 0.041 6.96 2.09 11.67
11/3/2021 2:45:00 PM 8 46.4 0.041 6.95 2.16 11.64
11/3/2021 3:00:00 PM 8.01 46.418 0.041 6.93 2.14 11.62
11/3/2021 3:15:00 PM 8.04 46.472 0.041 6.95 2.12 11.6
11/3/2021 3:30:00 PM 8.09 46.562 0.041 6.96 2.12 11.6
11/3/2021 3:45:00 PM 8.08 46.544 0.041 6.96 2.19 11.58
11/3/2021 4:00:00 PM 8.1 46.58 0.041 6.91 2.13 11.57
11/3/2021 4:15:00 PM 8.1 46.58 0.041 6.93 2.24 11.57
11/3/2021 4:30:00 PM 8.1 46.58 0.041 6.96 2.1 11.58
11/3/2021 4:45:00 PM 8.07 46.526 0.041 6.9 2.18 11.57
11/3/2021 5:00:00 PM 8.04 46.472 0.041 6.96 2.15 11.54
11/3/2021 5:15:00 PM 8.02 46.436 0.041 6.9 2.15 11.51
11/3/2021 5:30:00 PM 8.01 46.418 0.041 6.89 2.27 11.49
11/3/2021 5:45:00 PM 7.98 46.364 0.041 6.91 2.28 11.47
11/3/2021 6:00:00 PM 7.96 46.328 0.041 6.89 2.61 11.44
11/3/2021 6:15:00 PM 7.93 46.274 0.041 6.84 2.51 11.41
11/3/2021 6:30:00 PM 7.9 46.22 0.041 6.86 2.19 11.39
11/3/2021 6:45:00 PM 7.87 46.166 0.041 6.85 2.17 11.38
11/3/2021 7:00:00 PM 7.85 46.13 0.04 6.82 3.43 11.36
11/3/2021 7:15:00 PM 7.83 46.094 0.041 6.86 2.18 11.36
11/3/2021 7:30:00 PM 7.8 46.04 0.041 6.86 2.16 11.36
11/3/2021 7:45:00 PM 7.78 46.004 0.041 6.81 2.18 11.36
11/3/2021 8:00:00 PM 7.76 45.968 0.041 6.83 2.28 11.37
11/3/2021 8:15:00 PM 7.73 45.914 0.041 6.82 2.21 11.37
11/3/2021 8:30:00 PM 7.7 45.86 0.042 6.81 2.2 11.37
11/3/2021 8:45:00 PM 7.68 45.824 0.042 6.81 2.21 11.38
11/3/2021 9:00:00 PM 7.65 45.77 0.042 6.82 2.19 11.39
11/3/2021 9:15:00 PM 7.63 45.734 0.042 6.8 2.33 11.39
11/3/2021 9:30:00 PM 7.6 45.68 0.041 6.8 3.45 11.4
11/3/2021 9:45:00 PM 7.57 45.626 0.042 6.77 2.34 11.4
11/3/2021 10:00:00 PM 7.54 45.572 0.039 6.81 3.28 11.41
11/3/2021 10:15:00 PM 7.5 45.5 0.042 6.79 2.33 11.43
11/3/2021 10:30:00 PM 7.46 45.428 0.042 6.81 2.4 11.43
11/3/2021 10:45:00 PM 7.41 45.338 0.042 6.79 2.36 11.44
11/3/2021 11:00:00 PM 7.36 45.248 0.042 6.79 2.36 11.45
11/3/2021 11:15:00 PM 7.31 45.158 0.042 6.79 2.26 11.47
11/3/2021 11:30:00 PM 7.26 45.068 0.042 6.75 2.36 11.48
11/3/2021 11:45:00 PM 7.21 44.978 0.042 6.78 2.38 11.5
11/4/2021 12:00:00 AM 7.16 44.888 0.042 6.79 2.54 11.51
11/4/2021 12:15:00 AM 7.12 44.816 0.042 6.77 2.28 11.52
11/4/2021 12:30:00 AM 7.07 44.726 0.042 6.78 2.14 11.53
11/4/2021 12:45:00 AM 7.03 44.654 0.042 6.81 2 11.55
11/4/2021 1:00:00 AM 6.99 44.582 0.042 6.75 2.08 11.57
11/4/2021 1:15:00 AM 6.95 44.51 0.042 6.77 2.08 11.57
11/4/2021 1:30:00 AM 6.91 44.438 0.042 6.77 3.54 11.59
11/4/2021 1:45:00 AM 6.87 44.366 0.042 6.76 2.53 11.6
11/4/2021 2:00:00 AM 6.84 44.312 0.042 6.79 1.98 11.61
11/4/2021 2:15:00 AM 6.8 44.24 0.042 6.77 2.01 11.62
11/4/2021 2:30:00 AM 6.76 44.168 0.042 6.78 2.02 11.64
11/4/2021 2:45:00 AM 6.72 44.096 0.042 6.77 1.99 11.65
11/4/2021 3:00:00 AM 6.69 44.042 0.042 6.8 2.05 11.66
11/4/2021 3:15:00 AM 6.67 44.006 0.042 6.78 1.96 11.67
11/4/2021 3:30:00 AM 6.64 43.952 0.042 6.77 1.99 11.68
11/4/2021 3:45:00 AM 6.61 43.898 0.042 6.77 1.98 11.69
11/4/2021 4:00:00 AM 6.59 43.862 0.042 6.8 1.97 11.7
11/4/2021 4:15:00 AM 6.56 43.808 0.042 6.78 2 11.71
11/4/2021 4:30:00 AM 6.55 43.79 0.042 6.76 1.94 11.71
11/4/2021 4:45:00 AM 6.53 43.754 0.042 6.78 1.87 11.73
11/4/2021 5:00:00 AM 6.51 43.718 0.042 6.8 2.08 11.73
11/4/2021 5:15:00 AM 6.5 43.7 0.042 6.76 2.09 11.73
11/4/2021 5:30:00 AM 6.49 43.682 0.042 6.81 1.85 11.74
11/4/2021 5:45:00 AM 6.48 43.664 0.042 6.77 2.01 11.74
11/4/2021 6:00:00 AM 6.47 43.646 0.042 6.79 2 11.75
11/4/2021 6:15:00 AM 6.46 43.628 0.042 6.8 2.13 11.75
11/4/2021 6:30:00 AM 6.45 43.61 0.042 6.8 1.94 11.75
11/4/2021 6:45:00 AM 6.44 43.592 0.042 6.81 1.92 11.75
11/4/2021 7:00:00 AM 6.44 43.592 0.042 6.81 2 11.76
11/4/2021 7:15:00 AM 6.43 43.574 0.042 6.81 2.09 11.76
11/4/2021 7:30:00 AM 6.42 43.556 0.042 6.82 2.18 11.76
11/4/2021 7:45:00 AM 6.41 43.538 0.042 6.78 2.2 11.77
11/4/2021 8:00:00 AM 6.4 43.52 0.042 6.83 2.18 11.78
11/4/2021 8:15:00 AM 6.4 43.52 0.042 6.79 2.2 11.8
11/4/2021 8:30:00 AM 6.4 43.52 0.042 6.79 2.16 11.82
11/4/2021 8:45:00 AM 6.38 43.484 0.042 6.84 2.18 11.85
11/4/2021 9:00:00 AM 6.37 43.466 0.042 6.83 2.22 11.87
11/4/2021 9:15:00 AM 6.36 43.448 0.042 6.81 2.2 11.92
11/4/2021 9:30:00 AM 6.35 43.43 0.042 6.86 2.16 11.94
11/4/2021 9:45:00 AM 6.35 43.43 0.042 6.83 2.1 11.98
11/4/2021 10:00:00 AM 6.36 43.448 0.042 6.87 2.05 12
11/4/2021 10:15:00 AM 6.37 43.466 0.042 6.86 2.05 12.02
11/4/2021 10:30:00 AM 6.4 43.52 0.042 6.89 2.04 12.04
11/4/2021 10:45:00 AM 6.44 43.592 0.041 6.88 2 12.04
11/4/2021 11:00:00 AM 6.49 43.682 0.041 6.89 2.09 12.05
11/4/2021 11:15:00 AM 6.55 43.79 0.041 6.93 2.14 12.05
11/4/2021 11:30:00 AM 6.62 43.916 0.041 6.93 2.09 12.06
11/4/2021 11:45:00 AM 6.74 44.132 0.041 6.94 2.02 12.06
11/4/2021 12:00:00 PM 6.8 44.24 0.041 6.96 2.11 12.05
11/4/2021 12:15:00 PM 6.91 44.438 0.041 6.96 2.24 12.04
11/4/2021 12:30:00 PM 7.02 44.636 0.041 6.99 2.01 12.03
11/4/2021 12:45:00 PM 7.05 44.69 0.041 6.98 1.98 12
11/4/2021 1:00:00 PM 7.09 44.762 0.041 6.98 2.01 11.99
11/4/2021 1:15:00 PM 7.14 44.852 0.041 6.99 1.98 11.99
11/4/2021 1:30:00 PM 7.2 44.96 0.041 7 2.1 11.97
11/4/2021 1:45:00 PM 7.28 45.104 0.041 6.99 2.15 11.96
11/4/2021 2:00:00 PM 7.33 45.194 0.041 7.01 2 11.94
11/4/2021 2:15:00 PM 7.37 45.266 0.041 7 2.08 11.93
11/4/2021 2:30:00 PM 7.39 45.302 0.041 6.99 2.03 11.91
11/4/2021 2:45:00 PM 7.42 45.356 0.041 7 2.07 11.9
11/4/2021 3:00:00 PM 7.43 45.374 0.041 7.02 2.03 11.88
11/4/2021 3:15:00 PM 7.44 45.392 0.041 7 1.92 11.87
11/4/2021 3:30:00 PM 7.46 45.428 0.041 7.01 2.02 11.87
11/4/2021 3:45:00 PM 7.47 45.446 0.041 7.02 2.1 11.87
11/4/2021 4:00:00 PM 7.49 45.482 0.041 7.02 2.1 11.85
11/4/2021 4:15:00 PM 7.5 45.5 0.041 7.01 2.09 11.83
11/4/2021 4:30:00 PM 7.51 45.518 0.041 7.02 2.12 11.82
11/4/2021 4:45:00 PM 7.52 45.536 0.041 6.99 2.01 11.8
11/4/2021 5:00:00 PM 7.52 45.536 0.041 7.01 2.11 11.78
11/4/2021 5:15:00 PM 7.52 45.536 0.041 7 2.1 11.75
11/4/2021 5:30:00 PM 7.51 45.518 0.041 6.97 2.14 11.72
11/4/2021 5:45:00 PM 7.5 45.5 0.041 6.96 2.06 11.68
11/4/2021 6:00:00 PM 7.48 45.464 0.041 6.92 1.99 11.63
11/4/2021 6:15:00 PM 7.46 45.428 0.041 6.93 2.02 11.58
11/4/2021 6:30:00 PM 7.43 45.374 0.041 6.9 2.18 11.55
11/4/2021 6:45:00 PM 7.39 45.302 0.042 6.89 2.18 11.53
11/4/2021 7:00:00 PM 7.35 45.23 0.042 6.87 2.19 11.52
11/4/2021 7:15:00 PM 7.3 45.14 0.042 6.85 2.06 11.51
11/4/2021 7:30:00 PM 7.25 45.05 0.042 6.87 2.21 11.51
11/4/2021 7:45:00 PM 7.2 44.96 0.042 6.84 2.12 11.52
11/4/2021 8:00:00 PM 7.15 44.87 0.042 6.88 2.1 11.53
11/4/2021 8:15:00 PM 7.1 44.78 0.042 6.82 2.11 11.54
11/4/2021 8:30:00 PM 7.05 44.69 0.042 6.81 2.27 11.55
11/4/2021 8:45:00 PM 7 44.6 0.042 6.81 2.14 11.56
11/4/2021 9:00:00 PM 6.95 44.51 0.042 6.83 2.25 11.57
11/4/2021 9:15:00 PM 6.9 44.42 0.042 6.83 2.21 11.58
11/4/2021 9:30:00 PM 6.85 44.33 0.042 6.81 2.09 11.59
11/4/2021 9:45:00 PM 6.8 44.24 0.042 6.82 2.1 11.61
11/4/2021 10:00:00 PM 6.75 44.15 0.042 6.82 2.18 11.63
11/4/2021 10:15:00 PM 6.7 44.06 0.042 6.8 2.15 11.65
11/4/2021 10:30:00 PM 6.65 43.97 0.042 6.81 2.08 11.66
11/4/2021 10:45:00 PM 6.6 43.88 0.042 6.81 2.13 11.68
11/4/2021 11:00:00 PM 6.55 43.79 0.042 6.81 2.12 11.7
11/4/2021 11:15:00 PM 6.5 43.7 0.042 6.82 2.07 11.71
11/4/2021 11:30:00 PM 6.45 43.61 0.042 6.81 2.21 11.73
11/4/2021 11:45:00 PM 6.41 43.538 0.042 6.82 2.18 11.74
11/5/2021 12:00:00 AM 6.36 43.448 0.042 6.82 2.22 11.76
11/5/2021 12:15:00 AM 6.31 43.358 0.042 6.8 2.12 11.78
11/5/2021 12:30:00 AM 6.27 43.286 0.042 6.8 2.12 11.79
11/5/2021 12:45:00 AM 6.22 43.196 0.042 6.79 2.08 11.8
11/5/2021 1:00:00 AM 6.18 43.124 0.042 6.84 2.2 11.82
11/5/2021 1:15:00 AM 6.14 43.052 0.042 6.82 2.16 11.83
11/5/2021 1:30:00 AM 6.09 42.962 0.042 6.8 2.16 11.84
11/5/2021 1:45:00 AM 6.05 42.89 0.042 6.79 2.14 11.85
11/5/2021 2:00:00 AM 6.01 42.818 0.042 6.84 2.08 11.87
11/5/2021 2:15:00 AM 5.96 42.728 0.042 6.8 2.09 11.88
11/5/2021 2:30:00 AM 5.92 42.656 0.042 6.8 2.1 11.89
11/5/2021 2:45:00 AM 5.88 42.584 0.042 6.81 2.21 11.91
11/5/2021 3:00:00 AM 5.84 42.512 0.042 6.83 2.13 11.92
11/5/2021 3:15:00 AM 5.8 42.44 0.042 6.8 2.11 11.93
11/5/2021 3:30:00 AM 5.76 42.368 0.042 6.79 2.09 11.95
11/5/2021 3:45:00 AM 5.72 42.296 0.042 6.8 2.17 11.96
11/5/2021 4:00:00 AM 5.68 42.224 0.042 6.76 2.11 11.97
11/5/2021 4:15:00 AM 5.65 42.17 0.042 6.76 2.06 11.99
11/5/2021 4:30:00 AM 5.61 42.098 0.042 6.76 2.17 12
11/5/2021 4:45:00 AM 5.57 42.026 0.042 6.76 2.1 12.01
11/5/2021 5:00:00 AM 5.54 41.972 0.042 6.77 2.28 12.02
11/5/2021 5:15:00 AM 5.5 41.9 0.042 6.78 2.21 12.04
11/5/2021 5:30:00 AM 5.46 41.828 0.042 6.79 2.15 12.05
11/5/2021 5:45:00 AM 5.43 41.774 0.042 6.77 2.14 12.07
11/5/2021 6:00:00 AM 5.39 41.702 0.042 6.8 2.28 12.08
11/5/2021 6:15:00 AM 5.36 41.648 0.042 6.79 2.31 12.1
11/5/2021 6:30:00 AM 5.32 41.576 0.042 6.79 2.24 12.11
11/5/2021 6:45:00 AM 5.29 41.522 0.042 6.8 2.18 12.12
11/5/2021 7:00:00 AM 5.26 41.468 0.042 6.79 2.22 12.14
11/5/2021 7:15:00 AM 5.23 41.414 0.042 6.8 2.08 12.15
11/5/2021 7:30:00 AM 5.19 41.342 0.042 6.79 2.09 12.16
11/5/2021 7:45:00 AM 5.16 41.288 0.042 6.81 2.01 12.17
11/5/2021 8:00:00 AM 5.13 41.234 0.042 6.8 2.14 12.19
11/5/2021 8:15:00 AM 5.11 41.198 0.042 6.8 2.18 12.23
11/5/2021 8:30:00 AM 5.08 41.144 0.042 6.82 2.04 12.26
11/5/2021 8:45:00 AM 5.06 41.108 0.042 6.83 2.07 12.31
11/5/2021 9:00:00 AM 5.04 41.072 0.042 6.83 2.1 12.34
11/5/2021 9:15:00 AM 5.03 41.054 0.042 6.83 2.09 12.38
11/5/2021 9:30:00 AM 5.02 41.036 0.042 6.85 2.02 12.41
11/5/2021 9:45:00 AM 5.02 41.036 0.042 6.86 2.07 12.44
11/5/2021 10:00:00 AM 5.03 41.054 0.042 6.86 2.14 12.47
11/5/2021 10:15:00 AM 5.05 41.09 0.042 6.89 2.16 12.49
11/5/2021 10:30:00 AM 5.08 41.144 0.042 6.91 1.99 12.5
11/5/2021 10:45:00 AM 5.13 41.234 0.042 6.92 63.53 12.51
11/5/2021 11:00:00 AM 5.21 41.378 0.042 6.91 1.94 12.52
11/5/2021 11:15:00 AM 5.32 41.576 0.042 6.96 1.98 12.53
11/5/2021 11:30:00 AM 5.44 41.792 0.042 6.96 1.93 12.52
11/5/2021 11:45:00 AM 5.53 41.954 0.042 6.97 2.1 12.52
11/5/2021 12:00:00 PM 5.67 42.206 0.041 6.98 2.16 12.5
11/5/2021 12:15:00 PM 5.79 42.422 0.041 6.98 2.08 12.47
11/5/2021 12:30:00 PM 5.84 42.512 0.041 6.98 1.95 12.43
11/5/2021 12:45:00 PM 5.95 42.71 0.041 7.01 1.95 12.41
11/5/2021 1:00:00 PM 6.1 42.98 0.041 7 1.92 12.38
11/5/2021 1:15:00 PM 6.16 43.088 0.041 6.98 2.06 12.36
11/5/2021 1:30:00 PM 6.26 43.268 0.041 7 1.94 12.33
11/5/2021 1:45:00 PM 6.36 43.448 0.041 7.01 2.04 12.31
11/5/2021 2:00:00 PM 6.46 43.628 0.041 7.01 2.16 12.26
11/5/2021 2:15:00 PM 6.53 43.754 0.041 7.03 1.96 12.24
11/5/2021 2:30:00 PM 6.55 43.79 0.041 7 1.96 12.21
11/5/2021 2:45:00 PM 6.64 43.952 0.041 7.02 1.75 12.17
11/5/2021 3:00:00 PM 6.74 44.132 0.041 7.02 1.96 12.13
11/5/2021 3:15:00 PM 6.82 44.276 0.041 7.03 1.82 12.1
11/5/2021 3:30:00 PM 6.87 44.366 0.041 7.02 1.91 12.06
11/5/2021 3:45:00 PM 6.9 44.42 0.041 7.03 1.77 12.04
11/5/2021 4:00:00 PM 6.96 44.528 0.041 7.04 1.81 12.02
11/5/2021 4:15:00 PM 7.03 44.654 0.041 7.04 1.75 12
11/5/2021 4:30:00 PM 7.06 44.708 0.041 7.04 1.91 11.97
11/5/2021 4:45:00 PM 7.06 44.708 0.041 7.04 1.75 11.95
11/5/2021 5:00:00 PM 7.03 44.654 0.041 7 1.81 11.93
11/5/2021 5:15:00 PM 7 44.6 0.041 6.96 1.9 11.91
11/5/2021 5:30:00 PM 6.97 44.546 0.041 6.98 1.63 11.88
11/5/2021 5:45:00 PM 6.93 44.474 0.042 6.97 1.51 11.85
11/5/2021 6:00:00 PM 6.88 44.384 0.042 6.96 1.63 11.82
11/5/2021 6:15:00 PM 6.83 44.294 0.042 6.95 1.67 11.79
11/5/2021 6:30:00 PM 6.79 44.222 0.042 6.93 1.73 11.77
11/5/2021 6:45:00 PM 6.74 44.132 0.042 6.91 1.68 11.76
11/5/2021 7:00:00 PM 6.69 44.042 0.042 6.9 2.03 11.75
11/5/2021 7:15:00 PM 6.64 43.952 0.042 6.9 1.76 11.76
11/5/2021 7:30:00 PM 6.6 43.88 0.042 6.9 1.81 11.76
11/5/2021 7:45:00 PM 6.55 43.79 0.042 6.89 1.7 11.77
11/5/2021 8:00:00 PM 6.5 43.7 0.042 6.87 1.71 11.78
11/5/2021 8:15:00 PM 6.46 43.628 0.042 6.88 1.69 11.79
11/5/2021 8:30:00 PM 6.41 43.538 0.042 6.87 1.66 11.8
11/5/2021 8:45:00 PM 6.36 43.448 0.042 6.88 1.72 11.81
11/5/2021 9:00:00 PM 6.31 43.358 0.042 6.86 1.74 11.82
11/5/2021 9:15:00 PM 6.26 43.268 0.042 6.87 1.81 11.84
11/5/2021 9:30:00 PM 6.21 43.178 0.042 6.88 1.68 11.85
11/5/2021 9:45:00 PM 6.16 43.088 0.042 6.87 1.7 11.86
11/5/2021 10:00:00 PM 6.1 42.98 0.042 6.88 1.67 11.88
11/5/2021 10:15:00 PM 6.05 42.89 0.042 6.85 1.71 11.89
11/5/2021 10:30:00 PM 6 42.8 0.042 6.86 1.82 11.91
11/5/2021 10:45:00 PM 5.94 42.692 0.042 6.86 1.72 11.93
11/5/2021 11:00:00 PM 5.89 42.602 0.042 6.83 1.67 11.94
11/5/2021 11:15:00 PM 5.84 42.512 0.042 6.85 1.66 11.96
11/5/2021 11:30:00 PM 5.79 42.422 0.042 6.84 1.62 11.98
11/5/2021 11:45:00 PM 5.73 42.314 0.042 6.85 1.66 11.99
11/6/2021 12:00:00 AM 5.68 42.224 0.042 6.85 1.66 12.01
11/6/2021 12:15:00 AM 5.63 42.134 0.042 6.84 1.7 12.03
11/6/2021 12:30:00 AM 5.59 42.062 0.042 6.83 1.74 12.04
11/6/2021 12:45:00 AM 5.54 41.972 0.042 6.84 1.67 12.06
11/6/2021 1:00:00 AM 5.49 41.882 0.042 6.82 1.59 12.07
11/6/2021 1:15:00 AM 5.45 41.81 0.042 6.84 1.7 12.09
11/6/2021 1:30:00 AM 5.41 41.738 0.042 6.83 1.67 12.1
11/6/2021 1:45:00 AM 5.36 41.648 0.042 6.83 1.77 12.12
11/6/2021 2:00:00 AM 5.32 41.576 0.042 6.82 1.59 12.14
11/6/2021 2:15:00 AM 5.28 41.504 0.042 6.83 1.73 12.15
11/6/2021 2:30:00 AM 5.23 41.414 0.042 6.83 1.59 12.17
11/6/2021 2:45:00 AM 5.19 41.342 0.042 6.81 1.63 12.17
11/6/2021 3:00:00 AM 5.15 41.27 0.042 6.84 1.67 12.19
11/6/2021 3:15:00 AM 5.11 41.198 0.042 6.83 1.64 12.2
11/6/2021 3:30:00 AM 5.07 41.126 0.042 6.84 1.57 12.22
11/6/2021 3:45:00 AM 5.03 41.054 0.042 6.83 1.65 12.23
11/6/2021 4:00:00 AM 5 41 0.042 6.81 1.6 12.24
11/6/2021 4:15:00 AM 4.96 40.928 0.042 6.83 1.68 12.26
11/6/2021 4:30:00 AM 4.92 40.856 0.042 6.82 1.61 12.27
11/6/2021 4:45:00 AM 4.89 40.802 0.042 6.82 1.63 12.28
11/6/2021 5:00:00 AM 4.85 40.73 0.042 6.81 1.62 12.29
11/6/2021 5:15:00 AM 4.81 40.658 0.042 6.82 1.64 12.31
11/6/2021 5:30:00 AM 4.78 40.604 0.042 6.79 1.61 12.32
11/6/2021 5:45:00 AM 4.75 40.55 0.042 6.83 1.55 12.33
11/6/2021 6:00:00 AM 4.71 40.478 0.042 6.83 1.54 12.34
11/6/2021 6:15:00 AM 4.68 40.424 0.042 6.82 1.62 12.35
11/6/2021 6:30:00 AM 4.65 40.37 0.042 6.83 1.63 12.36
11/6/2021 6:45:00 AM 4.62 40.316 0.042 6.82 1.52 12.37
11/6/2021 7:00:00 AM 4.58 40.244 0.042 6.83 1.62 12.38
11/6/2021 7:15:00 AM 4.55 40.19 0.042 6.79 1.53 12.39
11/6/2021 7:30:00 AM 4.52 40.136 0.042 6.83 1.64 12.41
11/6/2021 7:45:00 AM 4.49 40.082 0.042 6.82 1.63 12.42
11/6/2021 8:00:00 AM 4.46 40.028 0.042 6.8 1.7 12.44
11/6/2021 8:15:00 AM 4.43 39.974 0.042 6.81 1.66 12.47
11/6/2021 8:30:00 AM 4.41 39.938 0.042 6.79 1.6 12.5
11/6/2021 8:45:00 AM 4.39 39.902 0.042 6.85 1.61 12.54
11/6/2021 9:00:00 AM 4.37 39.866 0.042 6.85 1.62 12.58
11/6/2021 9:15:00 AM 4.36 39.848 0.042 6.85 1.63 12.62
11/6/2021 9:30:00 AM 4.35 39.83 0.042 6.88 1.72 12.65
11/6/2021 9:45:00 AM 4.35 39.83 0.042 6.88 1.56 12.67
11/6/2021 10:00:00 AM 4.36 39.848 0.042 6.9 1.58 12.7
11/6/2021 10:15:00 AM 4.38 39.884 0.042 6.91 1.53 12.72
11/6/2021 10:30:00 AM 4.41 39.938 0.042 6.92 1.59 12.73
11/6/2021 10:45:00 AM 4.46 40.028 0.042 6.93 1.57 12.73
11/6/2021 11:00:00 AM 4.52 40.136 0.042 6.95 1.59 12.74
11/6/2021 11:15:00 AM 4.6 40.28 0.042 6.95 1.51 12.73
11/6/2021 11:30:00 AM 4.69 40.442 0.042 6.97 1.5 12.72
11/6/2021 11:45:00 AM 4.8 40.64 0.042 6.96 1.48 12.7
11/6/2021 12:00:00 PM 4.91 40.838 0.042 6.98 1.74 12.68
11/6/2021 12:15:00 PM 5.03 41.054 0.042 6.98 1.6 12.65
11/6/2021 12:30:00 PM 5.16 41.288 0.042 7 1.64 12.62
11/6/2021 12:45:00 PM 5.29 41.522 0.042 7.01 1.47 12.58
11/6/2021 1:00:00 PM 5.43 41.774 0.042 7.02 1.48 12.54
11/6/2021 1:15:00 PM 5.55 41.99 0.042 7.01 1.46 12.5
11/6/2021 1:30:00 PM 5.68 42.224 0.042 7.04 1.43 12.45
11/6/2021 1:45:00 PM 5.8 42.44 0.042 7.03 1.49 12.41
11/6/2021 2:00:00 PM 5.91 42.638 0.042 7.02 1.46 12.38
11/6/2021 2:15:00 PM 6.03 42.854 0.042 7.03 1.49 12.34
11/6/2021 2:30:00 PM 6.13 43.034 0.042 7.02 1.49 12.31
11/6/2021 2:45:00 PM 6.22 43.196 0.042 7.03 1.53 12.28
11/6/2021 3:00:00 PM 6.32 43.376 0.042 7.03 1.53 12.24
11/6/2021 3:15:00 PM 6.4 43.52 0.042 7.03 1.5 12.21
11/6/2021 3:30:00 PM 6.48 43.664 0.042 7.03 1.52 12.18
11/6/2021 3:45:00 PM 6.55 43.79 0.042 7.05 1.41 12.15
11/6/2021 4:00:00 PM 6.62 43.916 0.042 7.03 1.49 12.12
11/6/2021 4:15:00 PM 6.66 43.988 0.042 7.04 1.54 12.09
11/6/2021 4:30:00 PM 6.7 44.06 0.042 7.02 1.49 12.06
11/6/2021 4:45:00 PM 6.72 44.096 0.042 7.04 1.51 12.03
11/6/2021 5:00:00 PM 6.72 44.096 0.042 7.03 1.52 12
11/6/2021 5:15:00 PM 6.72 44.096 0.042 7 1.49 11.97
11/6/2021 5:30:00 PM 6.7 44.06 0.042 7 1.59 11.94
11/6/2021 5:45:00 PM 6.68 44.024 0.042 6.98 1.58 11.91
11/6/2021 6:00:00 PM 6.64 43.952 0.042 6.95 1.57 11.87
11/6/2021 6:15:00 PM 6.61 43.898 0.042 6.96 1.5 11.84
11/6/2021 6:30:00 PM 6.56 43.808 0.042 6.94 1.51 11.81
11/6/2021 6:45:00 PM 6.51 43.718 0.042 6.93 1.61 11.8
11/6/2021 7:00:00 PM 6.45 43.61 0.042 6.93 1.52 11.79
11/6/2021 7:15:00 PM 6.4 43.52 0.042 6.91 1.63 11.8
11/6/2021 7:30:00 PM 6.35 43.43 0.042 6.91 1.69 11.8
11/6/2021 7:45:00 PM 6.3 43.34 0.042 6.9 1.54 11.81
11/6/2021 8:00:00 PM 6.25 43.25 0.042 6.9 1.63 11.81
11/6/2021 8:15:00 PM 6.21 43.178 0.042 6.9 1.64 11.82
11/6/2021 8:30:00 PM 6.17 43.106 0.042 6.88 1.58 11.83
11/6/2021 8:45:00 PM 6.13 43.034 0.042 6.88 1.58 11.84
11/6/2021 9:00:00 PM 6.09 42.962 0.042 6.88 1.64 11.85
11/6/2021 9:15:00 PM 6.05 42.89 0.042 6.87 1.55 11.85
11/6/2021 9:30:00 PM 6 42.8 0.042 6.88 1.51 11.87
11/6/2021 9:45:00 PM 5.95 42.71 0.043 6.88 1.54 11.88
11/6/2021 10:00:00 PM 5.9 42.62 0.043 6.87 1.59 11.9
11/6/2021 10:15:00 PM 5.85 42.53 0.043 6.88 1.6 11.91
11/6/2021 10:30:00 PM 5.8 42.44 0.043 6.88 1.61 11.93
11/6/2021 10:45:00 PM 5.75 42.35 0.043 6.88 1.65 11.95
11/6/2021 11:00:00 PM 5.69 42.242 0.043 6.85 1.66 11.96
11/6/2021 11:15:00 PM 5.64 42.152 0.043 6.87 1.72 11.98
11/6/2021 11:30:00 PM 5.59 42.062 0.043 6.87 1.58 12
11/6/2021 11:45:00 PM 5.54 41.972 0.043 6.86 1.61 12.01
11/7/2021 12:00:00 AM 5.49 41.882 0.043 6.86 1.64 12.03
11/7/2021 12:15:00 AM 5.44 41.792 0.043 6.86 1.57 12.05
11/7/2021 12:30:00 AM 5.39 41.702 0.043 6.86 1.55 12.07
11/7/2021 12:45:00 AM 5.34 41.612 0.043 6.85 1.63 12.08
11/7/2021 1:00:00 AM 5.3 41.54 0.043 6.87 1.63 12.09
11/7/2021 1:15:00 AM 5.25 41.45 0.043 6.87 1.47 12.11
11/7/2021 1:30:00 AM 5.21 41.378 0.043 6.87 1.54 12.13
11/7/2021 1:45:00 AM 5.17 41.306 0.043 6.85 1.67 12.13
11/7/2021 2:00:00 AM 5.13 41.234 0.043 6.85 1.56 12.15
11/7/2021 2:15:00 AM 5.08 41.144 0.043 6.85 1.58 12.17
11/7/2021 2:30:00 AM 5.04 41.072 0.043 6.86 1.74 12.18
11/7/2021 2:45:00 AM 5 41 0.043 6.85 1.62 12.19
11/7/2021 3:00:00 AM 4.97 40.946 0.043 6.87 1.6 12.2
11/7/2021 3:15:00 AM 4.93 40.874 0.043 6.86 1.61 12.21
11/7/2021 3:30:00 AM 4.89 40.802 0.043 6.86 1.56 12.22
11/7/2021 3:45:00 AM 4.85 40.73 0.043 6.87 1.65 12.24
11/7/2021 4:00:00 AM 4.81 40.658 0.043 6.87 1.64 12.25
11/7/2021 4:15:00 AM 4.78 40.604 0.043 6.87 1.56 12.26
11/7/2021 4:30:00 AM 4.74 40.532 0.043 6.87 1.55 12.27
11/7/2021 4:45:00 AM 4.71 40.478 0.043 6.88 1.57 12.28
11/7/2021 5:00:00 AM 4.67 40.406 0.043 6.87 1.62 12.29
11/7/2021 5:15:00 AM 4.64 40.352 0.043 6.86 1.59 12.3
11/7/2021 5:30:00 AM 4.6 40.28 0.043 6.86 1.81 12.31
11/7/2021 5:45:00 AM 4.57 40.226 0.043 6.87 1.79 12.33
11/7/2021 6:00:00 AM 4.53 40.154 0.043 6.87 1.61 12.34
11/7/2021 6:15:00 AM 4.51 40.118 0.043 6.86 1.58 12.35
11/7/2021 6:30:00 AM 4.47 40.046 0.043 6.88 1.49 12.36
11/7/2021 6:45:00 AM 4.44 39.992 0.043 6.86 1.71 12.37
11/7/2021 7:00:00 AM 4.41 39.938 0.043 6.89 1.58 12.38
11/7/2021 7:15:00 AM 4.38 39.884 0.043 6.89 1.65 12.39
11/7/2021 7:30:00 AM 4.35 39.83 0.043 6.87 1.61 12.4
11/7/2021 7:45:00 AM 4.31 39.758 0.043 6.87 1.56 12.42
11/7/2021 8:00:00 AM 4.29 39.722 0.043 6.87 1.59 12.43
11/7/2021 8:15:00 AM 4.26 39.668 0.043 6.88 1.71 12.47
11/7/2021 8:30:00 AM 4.24 39.632 0.043 6.9 1.63 12.5
11/7/2021 8:45:00 AM 4.22 39.596 0.043 6.88 1.56 12.54
11/7/2021 9:00:00 AM 4.2 39.56 0.043 6.87 1.53 12.58
11/7/2021 9:15:00 AM 4.19 39.542 0.043 6.93 1.63 12.62
11/7/2021 9:30:00 AM 4.19 39.542 0.043 6.91 1.52 12.66
11/7/2021 9:45:00 AM 4.19 39.542 0.043 6.94 1.5 12.68
11/7/2021 10:00:00 AM 4.21 39.578 0.042 6.94 1.49 12.7
11/7/2021 10:15:00 AM 4.23 39.614 0.042 6.95 1.56 12.72
11/7/2021 10:30:00 AM 4.27 39.686 0.042 6.97 1.51 12.74
11/7/2021 10:45:00 AM 4.32 39.776 0.042 6.95 1.49 12.74
11/7/2021 11:00:00 AM 4.38 39.884 0.042 6.99 1.39 12.74
11/7/2021 11:15:00 AM 4.47 40.046 0.042 7 1.48 12.74
11/7/2021 11:30:00 AM 4.56 40.208 0.042 7 1.5 12.72
11/7/2021 11:45:00 AM 4.67 40.406 0.042 7.01 1.48 12.7
11/7/2021 12:00:00 PM 4.79 40.622 0.042 7.03 1.45 12.68
11/7/2021 12:15:00 PM 5.5 41.9 0.042 7.03 1.44 12.49
11/7/2021 12:30:00 PM 5.65 42.17 0.042 7.06 1.4 12.44
11/7/2021 12:45:00 PM 5.79 42.422 0.042 7.06 1.45 12.4
11/7/2021 1:00:00 PM 5.92 42.656 0.042 7.08 1.41 12.36
11/7/2021 1:15:00 PM 6.05 42.89 0.042 7.09 1.46 12.32
11/7/2021 1:30:00 PM 6.17 43.106 0.042 7.07 1.47 12.28
11/7/2021 1:45:00 PM 6.27 43.286 0.042 7.09 1.39 12.24
11/7/2021 2:00:00 PM 6.38 43.484 0.042 7.09 1.43 12.21
11/7/2021 2:15:00 PM 6.47 43.646 0.042 7.09 1.45 12.17
11/7/2021 2:30:00 PM 6.56 43.808 0.042 7.06 1.5 12.13
11/7/2021 2:45:00 PM 6.65 43.97 0.042 7.1 1.41 12.1
11/7/2021 3:00:00 PM 6.71 44.078 0.042 7.09 1.45 12.06
11/7/2021 3:15:00 PM 6.77 44.186 0.042 7.07 1.44 12.03
11/7/2021 3:30:00 PM 6.82 44.276 0.042 7.08 1.48 12
11/7/2021 3:45:00 PM 6.85 44.33 0.042 7.09 1.41 11.97
11/7/2021 4:00:00 PM 6.88 44.384 0.042 7.09 1.41 11.93
11/7/2021 4:15:00 PM 6.88 44.384 0.042 7.05 1.47 11.89
11/7/2021 4:30:00 PM 6.89 44.402 0.042 7.05 1.46 11.86
11/7/2021 4:45:00 PM 6.88 44.384 0.042 7.03 1.51 11.82
11/7/2021 5:00:00 PM 6.86 44.348 0.042 7.01 1.46 11.77
11/7/2021 5:15:00 PM 6.83 44.294 0.042 6.98 1.41 11.73
11/7/2021 5:30:00 PM 6.79 44.222 0.042 6.99 1.54 11.7
11/7/2021 5:45:00 PM 6.75 44.15 0.042 6.98 1.45 11.69
11/7/2021 6:00:00 PM 6.7 44.06 0.042 6.97 1.5 11.68
11/7/2021 6:15:00 PM 6.66 43.988 0.042 6.95 1.52 11.68
11/7/2021 6:30:00 PM 6.62 43.916 0.042 6.96 1.53 11.68
11/7/2021 6:45:00 PM 6.58 43.844 0.043 6.93 1.64 11.69
11/7/2021 7:00:00 PM 6.55 43.79 0.043 6.95 1.7 11.69
11/7/2021 7:15:00 PM 6.51 43.718 0.043 6.94 1.85 11.7
11/7/2021 7:30:00 PM 6.48 43.664 0.043 6.93 1.76 11.71
11/7/2021 7:45:00 PM 6.44 43.592 0.043 6.91 1.81 11.72
11/7/2021 8:00:00 PM 6.41 43.538 0.043 6.91 1.76 11.72
11/7/2021 8:15:00 PM 6.37 43.466 0.043 6.92 1.78 11.74
11/7/2021 8:30:00 PM 6.34 43.412 0.043 6.91 1.76 11.75
11/7/2021 8:45:00 PM 6.3 43.34 0.043 6.92 1.74 11.76
11/7/2021 9:00:00 PM 6.26 43.268 0.043 6.92 1.63 11.77
11/7/2021 9:15:00 PM 6.22 43.196 0.043 6.91 1.74 11.78
11/7/2021 9:30:00 PM 6.18 43.124 0.043 6.91 1.64 11.79
11/7/2021 9:45:00 PM 6.14 43.052 0.043 6.89 1.7 11.81
11/7/2021 10:00:00 PM 6.1 42.98 0.043 6.91 1.57 11.82
11/7/2021 10:15:00 PM 6.06 42.908 0.043 6.92 1.59 11.83
11/7/2021 10:30:00 PM 6.01 42.818 0.043 6.9 1.61 11.84
11/7/2021 10:45:00 PM 5.97 42.746 0.043 6.89 1.61 11.85
11/7/2021 11:00:00 PM 5.93 42.674 0.043 6.89 1.66 11.86
11/7/2021 11:15:00 PM 5.89 42.602 0.043 6.9 1.59 11.88
11/7/2021 11:30:00 PM 5.84 42.512 0.043 6.9 1.58 11.9
11/7/2021 11:45:00 PM 5.8 42.44 0.043 6.91 1.58 11.91
11/8/2021 12:00:00 AM 5.75 42.35 0.043 6.89 1.56 11.93
11/8/2021 12:15:00 AM 5.72 42.296 0.043 6.9 1.6 11.94
11/8/2021 12:30:00 AM 5.67 42.206 0.043 6.91 1.48 11.95
11/8/2021 12:45:00 AM 5.63 42.134 0.043 6.89 1.55 11.96
11/8/2021 1:00:00 AM 5.59 42.062 0.043 6.91 1.61 11.97
11/8/2021 1:15:00 AM 5.55 41.99 0.043 6.9 1.57 11.99
11/8/2021 1:30:00 AM 5.52 41.936 0.043 6.89 1.67 12
11/8/2021 1:45:00 AM 5.48 41.864 0.043 6.89 1.54 12.01
11/8/2021 2:00:00 AM 5.44 41.792 0.043 6.88 1.61 12.03
11/8/2021 2:15:00 AM 5.4 41.72 0.043 6.9 1.68 12.04
11/8/2021 2:30:00 AM 5.37 41.666 0.043 6.89 1.65 12.05
11/8/2021 2:45:00 AM 5.34 41.612 0.043 6.9 1.6 12.07
11/8/2021 3:00:00 AM 5.3 41.54 0.043 6.89 1.55 12.08
11/8/2021 3:15:00 AM 5.27 41.486 0.043 6.88 1.57 12.09
11/8/2021 3:30:00 AM 5.24 41.432 0.043 6.88 1.57 12.09
11/8/2021 3:45:00 AM 5.21 41.378 0.043 6.88 1.48 12.11
11/8/2021 4:00:00 AM 5.18 41.324 0.043 6.88 1.62 12.11
11/8/2021 4:15:00 AM 5.15 41.27 0.043 6.9 1.6 12.13
11/8/2021 4:30:00 AM 5.12 41.216 0.043 6.89 1.62 12.14
11/8/2021 4:45:00 AM 5.09 41.162 0.043 6.87 1.58 12.15
11/8/2021 5:00:00 AM 5.06 41.108 0.043 6.89 1.61 12.16
11/8/2021 5:15:00 AM 5.03 41.054 0.043 6.89 1.6 12.17
11/8/2021 5:30:00 AM 5 41 0.043 6.89 1.63 12.18
11/8/2021 5:45:00 AM 4.98 40.964 0.043 6.87 1.46 12.2
11/8/2021 6:00:00 AM 4.95 40.91 0.043 6.86 1.46 12.2
11/8/2021 6:15:00 AM 4.92 40.856 0.043 6.88 1.53 12.21
11/8/2021 6:30:00 AM 4.9 40.82 0.043 6.88 1.52 12.22
11/8/2021 6:45:00 AM 4.87 40.766 0.043 6.88 1.49 12.23
11/8/2021 7:00:00 AM 4.86 40.748 0.043 6.88 1.52 12.25
11/8/2021 7:15:00 AM 4.84 40.712 0.043 6.9 1.48 12.28
11/8/2021 7:30:00 AM 4.82 40.676 0.043 6.9 1.47 12.31
11/8/2021 7:45:00 AM 4.81 40.658 0.043 6.93 1.48 12.35
11/8/2021 8:00:00 AM 4.8 40.64 0.043 6.96 1.44 12.39
11/8/2021 8:15:00 AM 4.8 40.64 0.043 6.97 1.47 12.43
11/8/2021 8:30:00 AM 4.8 40.64 0.043 6.96 1.45 12.47
11/8/2021 8:45:00 AM 4.8 40.64 0.043 6.97 1.45 12.5
11/8/2021 9:00:00 AM 4.82 40.676 0.043 6.99 1.41 12.53
11/8/2021 9:15:00 AM 4.84 40.712 0.043 7 1.46 12.55
11/8/2021 9:30:00 AM 4.89 40.802 0.043 7.01 1.54 12.57
11/8/2021 9:45:00 AM 4.95 40.91 0.043 7.02 1.46 12.58
11/8/2021 10:00:00 AM 5.03 41.054 0.043 7.04 1.48 12.58
11/8/2021 10:15:00 AM 5.12 41.216 0.043 7.03 1.4 12.57
11/8/2021 10:30:00 AM 5.24 41.432 0.042 7.03 1.46 12.56
11/8/2021 10:45:00 AM 5.36 41.648 0.042 7.07 1.42 12.54
11/8/2021 11:00:00 AM 5.5 41.9 0.042 7.05 1.45 12.5
11/8/2021 11:15:00 AM 5.64 42.152 0.042 7.07 1.4 12.47
11/8/2021 11:30:00 AM 5.78 42.404 0.042 7.08 1.36 12.43
11/8/2021 11:45:00 AM 5.93 42.674 0.042 7.09 1.37 12.4
11/8/2021 12:00:00 PM 6.09 42.962 0.042 7.09 1.38 12.36
11/8/2021 12:15:00 PM 6.25 43.25 0.042 7.09 1.36 12.32
11/8/2021 12:30:00 PM 6.41 43.538 0.042 7.11 1.38 12.28
11/8/2021 12:45:00 PM 6.56 43.808 0.042 7.12 1.36 12.23
11/8/2021 1:00:00 PM 6.72 44.096 0.042 7.12 1.36 12.18
11/8/2021 1:15:00 PM 6.86 44.348 0.042 7.13 1.3 12.14
11/8/2021 1:30:00 PM 6.99 44.582 0.042 7.14 1.3 12.09
11/8/2021 1:45:00 PM 7.12 44.816 0.042 7.11 1.29 12.05
11/8/2021 2:00:00 PM 7.23 45.014 0.042 7.13 1.36 12.01
11/8/2021 2:15:00 PM 7.33 45.194 0.042 7.14 1.3 11.97
11/8/2021 2:30:00 PM 7.43 45.374 0.042 7.14 1.32 11.94
11/8/2021 2:45:00 PM 7.52 45.536 0.042 7.15 1.28 11.91
11/8/2021 3:00:00 PM 7.6 45.68 0.042 7.14 1.36 11.87
11/8/2021 3:15:00 PM 7.66 45.788 0.042 7.13 1.35 11.84
11/8/2021 3:30:00 PM 7.71 45.878 0.042 7.13 1.34 11.8
11/8/2021 3:45:00 PM 7.75 45.95 0.042 7.12 1.35 11.77
11/8/2021 4:00:00 PM 7.77 45.986 0.042 7.11 1.37 11.73
11/8/2021 4:15:00 PM 7.77 45.986 0.042 7.11 1.37 11.69
11/8/2021 4:30:00 PM 7.77 45.986 0.042 7.07 1.41 11.64
11/8/2021 4:45:00 PM 7.76 45.968 0.042 7.06 1.34 11.6
11/8/2021 5:00:00 PM 7.73 45.914 0.042 7.04 1.35 11.55
11/8/2021 5:15:00 PM 7.71 45.878 0.042 7.03 1.39 11.5
11/8/2021 5:30:00 PM 7.67 45.806 0.042 7.02 1.37 11.47
11/8/2021 5:45:00 PM 7.63 45.734 0.042 6.99 1.49 11.44
11/8/2021 6:00:00 PM 7.6 45.68 0.043 6.96 1.45 11.43
11/8/2021 6:15:00 PM 7.56 45.608 0.043 6.94 1.49 11.42
11/8/2021 6:30:00 PM 7.52 45.536 0.043 6.97 1.48 11.42
11/8/2021 6:45:00 PM 7.49 45.482 0.043 6.95 1.55 11.42
11/8/2021 7:00:00 PM 7.45 45.41 0.043 6.95 1.48 11.42
11/8/2021 7:15:00 PM 7.42 45.356 0.043 6.94 1.56 11.42
11/8/2021 7:30:00 PM 7.39 45.302 0.043 6.95 1.49 11.43
11/8/2021 7:45:00 PM 7.35 45.23 0.043 6.93 1.61 11.43
11/8/2021 8:00:00 PM 7.32 45.176 0.043 6.95 1.48 11.44
11/8/2021 8:15:00 PM 7.29 45.122 0.043 6.93 1.46 11.44
11/8/2021 8:30:00 PM 7.25 45.05 0.043 6.94 1.56 11.46
11/8/2021 8:45:00 PM 7.22 44.996 0.043 6.95 1.57 11.46
11/8/2021 9:00:00 PM 7.18 44.924 0.043 6.92 1.5 11.47
11/8/2021 9:15:00 PM 7.14 44.852 0.043 6.92 1.53 11.49
11/8/2021 9:30:00 PM 7.1 44.78 0.043 6.91 1.51 11.5
11/8/2021 9:45:00 PM 7.06 44.708 0.043 6.9 1.52 11.51
11/8/2021 10:00:00 PM 7.02 44.636 0.043 6.91 1.46 11.53
11/8/2021 10:15:00 PM 6.97 44.546 0.043 6.89 1.57 11.54
11/8/2021 10:30:00 PM 6.93 44.474 0.043 6.93 1.62 11.55
11/8/2021 10:45:00 PM 6.88 44.384 0.043 6.92 1.6 11.57
11/8/2021 11:00:00 PM 6.83 44.294 0.043 6.91 1.56 11.58
11/8/2021 11:15:00 PM 6.79 44.222 0.043 6.9 1.52 11.59
11/8/2021 11:30:00 PM 6.74 44.132 0.043 6.9 1.61 11.61
11/8/2021 11:45:00 PM 6.7 44.06 0.043 6.91 1.57 11.62
11/9/2021 12:00:00 AM 6.66 43.988 0.043 6.91 1.53 11.64
11/9/2021 12:15:00 AM 6.62 43.916 0.043 6.91 1.51 11.65
11/9/2021 12:30:00 AM 6.58 43.844 0.043 6.91 1.51 11.66
11/9/2021 12:45:00 AM 6.55 43.79 0.043 6.91 1.46 11.68
11/9/2021 1:00:00 AM 6.51 43.718 0.043 6.92 1.52 11.68
11/9/2021 1:15:00 AM 6.47 43.646 0.043 6.92 1.52 11.69
11/9/2021 1:30:00 AM 6.43 43.574 0.043 6.91 1.38 11.71
11/9/2021 1:45:00 AM 6.4 43.52 0.043 6.9 1.43 11.72
11/9/2021 2:00:00 AM 6.36 43.448 0.043 6.9 1.5 11.73
11/9/2021 2:15:00 AM 6.32 43.376 0.043 6.9 1.48 11.74
11/9/2021 2:30:00 AM 6.28 43.304 0.043 6.9 1.45 11.75
11/9/2021 2:45:00 AM 6.25 43.25 0.043 6.91 1.41 11.77
11/9/2021 3:00:00 AM 6.22 43.196 0.043 6.9 1.53 11.77
11/9/2021 3:15:00 AM 6.2 43.16 0.043 6.91 1.47 11.78
11/9/2021 3:30:00 AM 6.17 43.106 0.042 6.88 2.57 11.79
11/9/2021 3:45:00 AM 6.14 43.052 0.043 6.89 1.52 11.8
11/9/2021 4:00:00 AM 6.1 42.98 0.042 6.88 2.55 11.81
11/9/2021 4:15:00 AM 6.07 42.926 0.043 6.91 1.47 11.82
11/9/2021 4:30:00 AM 6.03 42.854 0.043 6.92 1.47 11.83
11/9/2021 4:45:00 AM 6 42.8 0.043 6.9 1.38 11.84
11/9/2021 5:00:00 AM 5.97 42.746 0.043 6.9 1.43 11.84
11/9/2021 5:15:00 AM 5.94 42.692 0.043 6.89 1.41 11.86
11/9/2021 5:30:00 AM 5.9 42.62 0.043 6.91 1.45 11.87
11/9/2021 5:45:00 AM 5.88 42.584 0.043 6.91 1.41 11.87
11/9/2021 6:00:00 AM 5.85 42.53 0.043 6.9 1.52 11.88
11/9/2021 6:15:00 AM 5.82 42.476 0.043 6.91 1.42 11.89
11/9/2021 6:30:00 AM 5.8 42.44 0.043 6.89 1.45 11.9
11/9/2021 6:45:00 AM 5.77 42.386 0.043 6.9 1.45 11.91
11/9/2021 7:00:00 AM 5.75 42.35 0.043 6.91 1.44 11.93
11/9/2021 7:15:00 AM 5.74 42.332 0.043 6.9 1.44 11.98
11/9/2021 7:30:00 AM 5.72 42.296 0.043 6.92 1.53 12.01
11/9/2021 7:45:00 AM 5.71 42.278 0.043 6.92 1.42 12.06
11/9/2021 8:00:00 AM 5.7 42.26 0.043 6.95 1.38 12.12
11/9/2021 8:15:00 AM 5.7 42.26 0.043 6.96 1.4 12.16
11/9/2021 8:30:00 AM 5.7 42.26 0.043 6.97 1.4 12.21
11/9/2021 8:45:00 AM 5.72 42.296 0.043 7 1.36 12.25
11/9/2021 9:00:00 AM 5.74 42.332 0.043 7 1.41 12.28
11/9/2021 9:15:00 AM 5.77 42.386 0.043 7.01 1.39 12.3
11/9/2021 9:30:00 AM 5.83 42.494 0.043 7.04 1.35 12.32
11/9/2021 9:45:00 AM 5.89 42.602 0.043 7.05 1.32 12.33
11/9/2021 10:00:00 AM 5.97 42.746 0.043 7.07 1.29 12.34
11/9/2021 10:15:00 AM 6.05 42.89 0.043 7.08 1.3 12.34
11/9/2021 10:30:00 AM 6.15 43.07 0.043 7.09 1.29 12.33
11/9/2021 10:45:00 AM 6.27 43.286 0.043 7.11 1.35 12.32
11/9/2021 11:00:00 AM 6.4 43.52 0.043 7.12 1.24 12.3
11/9/2021 11:15:00 AM 6.52 43.736 0.043 7.13 1.22 12.28
11/9/2021 11:30:00 AM 6.66 43.988 0.042 7.15 1.31 12.27
11/9/2021 11:45:00 AM 6.83 44.294 0.041 7.14 2.39 12.23
11/9/2021 12:00:00 PM 6.96 44.528 0.042 7.17 1.26 12.2
11/9/2021 12:15:00 PM 7.12 44.816 0.042 7.17 1.24 12.16
11/9/2021 12:30:00 PM 7.32 45.176 0.042 7.18 1.24 12.12
11/9/2021 12:45:00 PM 7.45 45.41 0.041 7.17 2.56 12.09
11/9/2021 1:00:00 PM 7.6 45.68 0.042 7.2 1.24 12.06
11/9/2021 1:15:00 PM 7.7 45.86 0.042 7.21 1.23 12.02
11/9/2021 1:30:00 PM 7.86 46.148 0.042 7.23 1.22 11.98
11/9/2021 1:45:00 PM 7.96 46.328 0.042 7.21 1.22 11.94
11/9/2021 2:00:00 PM 8.11 46.598 0.042 7.24 1.23 11.9
11/9/2021 2:15:00 PM 8.13 46.634 0.042 7.21 1.2 11.85
11/9/2021 2:30:00 PM 8.2 46.76 0.04 7.18 2.47 11.82
11/9/2021 2:45:00 PM 8.25 46.85 0.042 7.22 1.22 11.79
11/9/2021 3:00:00 PM 8.23 46.814 0.041 7.2 2.33 11.78
11/9/2021 3:15:00 PM 8.27 46.886 0.042 7.22 1.29 11.77
11/9/2021 3:30:00 PM 8.3 46.94 0.042 7.23 1.26 11.75
11/9/2021 3:45:00 PM 8.29 46.922 0.042 7.21 1.36 11.71
11/9/2021 4:00:00 PM 8.29 46.922 0.042 7.2 1.28 11.67
11/9/2021 4:15:00 PM 8.29 46.922 0.042 7.17 1.27 11.63
11/9/2021 4:30:00 PM 8.29 46.922 0.042 7.15 1.29 11.54
11/9/2021 4:45:00 PM 8.28 46.904 0.042 7.1 1.21 11.46
11/9/2021 5:00:00 PM 8.28 46.904 0.042 7.08 1.25 11.38
11/9/2021 5:15:00 PM 8.29 46.922 0.042 7.05 1.32 11.31
11/9/2021 5:30:00 PM 8.3 46.94 0.043 7.01 1.42 11.26
11/9/2021 5:45:00 PM 8.3 46.94 0.043 7 1.37 11.23
11/9/2021 6:00:00 PM 8.31 46.958 0.043 6.98 1.4 11.2
11/9/2021 6:15:00 PM 8.32 46.976 0.043 6.98 1.5 11.18
11/9/2021 6:30:00 PM 8.32 46.976 0.043 6.97 1.36 11.16
11/9/2021 6:45:00 PM 8.32 46.976 0.043 6.96 1.45 11.16
11/9/2021 7:00:00 PM 8.32 46.976 0.043 6.95 1.27 11.15
11/9/2021 7:15:00 PM 8.32 46.976 0.043 6.93 1.36 11.14
11/9/2021 7:30:00 PM 8.31 46.958 0.043 6.94 1.43 11.14
11/9/2021 7:45:00 PM 8.32 46.976 0.043 6.94 1.33 11.13
11/9/2021 8:00:00 PM 8.32 46.976 0.043 6.94 1.43 11.13
11/9/2021 8:15:00 PM 8.32 46.976 0.043 6.94 1.53 11.13
11/9/2021 8:30:00 PM 8.32 46.976 0.043 6.94 1.48 11.13
11/9/2021 8:45:00 PM 8.31 46.958 0.043 6.9 1.68 11.13
11/9/2021 9:00:00 PM 8.3 46.94 0.043 6.94 1.66 11.13
11/9/2021 9:15:00 PM 8.29 46.922 0.043 6.92 1.83 11.13
11/9/2021 9:30:00 PM 8.27 46.886 0.044 6.92 1.84 11.13
11/9/2021 9:45:00 PM 8.25 46.85 0.044 6.89 2.02 11.14
11/9/2021 10:00:00 PM 8.22 46.796 0.044 6.91 2.05 11.14
11/9/2021 10:15:00 PM 8.19 46.742 0.044 6.9 1.84 11.15
11/9/2021 10:30:00 PM 8.15 46.67 0.043 6.88 3.27 11.15
11/9/2021 10:45:00 PM 8.11 46.598 0.041 6.88 3.33 11.16
11/9/2021 11:00:00 PM 8.07 46.526 0.044 6.91 1.66 11.17
11/9/2021 11:15:00 PM 8.04 46.472 0.044 6.89 1.51 11.18
11/9/2021 11:30:00 PM 8 46.4 0.044 6.92 1.49 11.19
11/9/2021 11:45:00 PM 7.97 46.346 0.044 6.91 1.48 11.2
11/10/2021 12:00:00 AM 7.95 46.31 0.044 6.9 1.65 11.21
11/10/2021 12:15:00 AM 7.92 46.256 0.044 6.88 1.64 11.22
11/10/2021 12:30:00 AM 7.9 46.22 0.044 6.91 1.49 11.22
11/10/2021 12:45:00 AM 7.86 46.148 0.044 6.92 1.53 11.23
11/10/2021 1:00:00 AM 7.84 46.112 0.044 6.91 1.52 11.24
11/10/2021 1:15:00 AM 7.83 46.094 0.044 6.91 1.53 11.24
11/10/2021 1:30:00 AM 7.8 46.04 0.044 6.92 1.65 11.25
11/10/2021 1:45:00 AM 7.77 45.986 0.044 6.9 1.71 11.26
11/10/2021 2:00:00 AM 7.76 45.968 0.044 6.91 1.47 11.26
11/10/2021 2:15:00 AM 7.75 45.95 0.044 6.91 1.45 11.27
11/10/2021 2:30:00 AM 7.73 45.914 0.044 6.91 1.4 11.27
11/10/2021 2:45:00 AM 7.73 45.914 0.044 6.9 1.45 11.28
11/10/2021 3:00:00 AM 7.72 45.896 0.044 6.91 1.45 11.28
11/10/2021 3:15:00 AM 7.72 45.896 0.044 6.87 1.43 11.28
11/10/2021 3:30:00 AM 7.71 45.878 0.044 6.91 1.66 11.29
11/10/2021 3:45:00 AM 7.72 45.896 0.044 6.89 1.53 11.29
11/10/2021 4:00:00 AM 7.72 45.896 0.044 6.9 1.71 11.29
11/10/2021 4:15:00 AM 7.72 45.896 0.044 6.9 1.5 11.29
11/10/2021 4:30:00 AM 7.73 45.914 0.044 6.91 1.51 11.29
11/10/2021 4:45:00 AM 7.73 45.914 0.044 6.89 1.72 11.29
11/10/2021 5:00:00 AM 7.74 45.932 0.044 6.91 1.56 11.29
11/10/2021 5:15:00 AM 7.74 45.932 0.044 6.91 1.46 11.29
11/10/2021 5:30:00 AM 7.75 45.95 0.044 6.88 1.52 11.3
11/10/2021 5:45:00 AM 7.77 45.986 0.044 6.9 1.58 11.3
11/10/2021 6:00:00 AM 7.79 46.022 0.044 6.95 1.55 11.3
11/10/2021 6:15:00 AM 7.79 46.022 0.044 6.94 1.45 11.3
11/10/2021 6:30:00 AM 7.8 46.04 0.044 6.92 1.37 11.3
11/10/2021 6:45:00 AM 7.81 46.058 0.044 6.93 1.69 11.3
11/10/2021 7:00:00 AM 7.81 46.058 0.044 6.94 1.57 11.3
11/10/2021 7:15:00 AM 7.81 46.058 0.044 6.95 1.46 11.33
11/10/2021 7:30:00 AM 7.79 46.022 0.044 6.97 1.62 11.37
11/10/2021 7:45:00 AM 7.76 45.968 0.044 6.99 1.63 11.41
11/10/2021 8:00:00 AM 7.74 45.932 0.044 6.98 1.38 11.48
11/10/2021 8:15:00 AM 7.71 45.878 0.044 6.99 1.5 11.53
11/10/2021 8:30:00 AM 7.7 45.86 0.044 7.02 1.38 11.59
11/10/2021 8:45:00 AM 7.68 45.824 0.043 7.04 1.49 11.64
11/10/2021 9:00:00 AM 7.67 45.806 0.043 7.04 1.44 11.69
11/10/2021 9:15:00 AM 7.67 45.806 0.043 7.07 1.53 11.72
11/10/2021 9:30:00 AM 7.69 45.842 0.043 7.08 1.39 11.75
11/10/2021 9:45:00 AM 7.71 45.878 0.043 7.1 1.43 11.77
11/10/2021 10:00:00 AM 7.75 45.95 0.043 7.1 1.46 11.78
11/10/2021 10:15:00 AM 7.79 46.022 0.043 7.14 1.4 11.79
11/10/2021 10:30:00 AM 7.85 46.13 0.043 7.13 1.5 11.79
11/10/2021 10:45:00 AM 7.91 46.238 0.043 7.14 1.33 11.8
11/10/2021 11:00:00 AM 7.98 46.364 0.043 7.15 1.87 11.79
11/10/2021 11:15:00 AM 8.05 46.49 0.043 7.17 1.53 11.78
11/10/2021 11:30:00 AM 8.13 46.634 0.043 7.17 1.54 11.77
11/10/2021 11:45:00 AM 8.21 46.778 0.043 7.16 1.37 11.76
11/10/2021 12:00:00 PM 8.29 46.922 0.043 7.17 1.79 11.74
11/10/2021 12:15:00 PM 8.38 47.084 0.043 7.2 1.44 11.72
11/10/2021 12:30:00 PM 8.46 47.228 0.043 7.19 1.33 11.7
11/10/2021 12:45:00 PM 8.54 47.372 0.043 7.19 1.47 11.69
11/10/2021 1:00:00 PM 8.62 47.516 0.043 7.19 1.36 11.66
11/10/2021 1:15:00 PM 8.69 47.642 0.041 7.16 2.57 11.64
11/10/2021 1:30:00 PM 8.76 47.768 0.042 7.21 1.44 11.63
11/10/2021 1:45:00 PM 8.81 47.858 0.042 7.22 1.38 11.62
11/10/2021 2:00:00 PM 8.86 47.948 0.042 7.24 1.84 11.6
11/10/2021 2:15:00 PM 8.91 48.038 0.041 7.2 3.17 11.58
11/10/2021 2:30:00 PM 8.93 48.074 0.042 7.22 1.4 11.57
11/10/2021 2:45:00 PM 8.96 48.128 0.042 7.2 1.4 11.54
11/10/2021 3:00:00 PM 8.97 48.146 0.042 7.22 1.37 11.52
11/10/2021 3:15:00 PM 8.98 48.164 0.042 7.19 1.33 11.5
11/10/2021 3:30:00 PM 8.97 48.146 0.042 7.19 1.49 11.48
11/10/2021 3:45:00 PM 8.93 48.074 0.042 7.18 1.33 11.45
11/10/2021 4:00:00 PM 8.89 48.002 0.042 7.15 2.57 11.42
11/10/2021 4:15:00 PM 8.84 47.912 0.042 7.13 1.65 11.4
11/10/2021 4:30:00 PM 8.77 47.786 0.043 7.13 1.36 11.37
11/10/2021 4:45:00 PM 8.71 47.678 0.043 7.09 1.36 11.33
11/10/2021 5:00:00 PM 8.63 47.534 0.043 7.08 1.39 11.29
11/10/2021 5:15:00 PM 8.55 47.39 0.043 7.03 1.47 11.25
11/10/2021 5:30:00 PM 8.47 47.246 0.043 7.03 1.37 11.23
11/10/2021 5:45:00 PM 8.39 47.102 0.043 7 1.43 11.22
11/10/2021 6:00:00 PM 8.31 46.958 0.043 6.99 1.44 11.21
11/10/2021 6:15:00 PM 8.22 46.796 0.043 6.97 1.47 11.22
11/10/2021 6:30:00 PM 8.14 46.652 0.042 6.93 3.64 11.23
11/10/2021 6:45:00 PM 8.06 46.508 0.043 6.95 1.47 11.25
11/10/2021 7:00:00 PM 7.98 46.364 0.044 6.95 1.42 11.27
11/10/2021 7:15:00 PM 7.91 46.238 0.044 6.95 1.44 11.28
11/10/2021 7:30:00 PM 7.84 46.112 0.044 6.95 1.46 11.3
11/10/2021 7:45:00 PM 7.77 45.986 0.044 6.87 1.46 11.32
11/10/2021 8:00:00 PM 7.7 45.86 0.044 6.91 1.65 11.34
11/10/2021 8:15:00 PM 7.64 45.752 0.044 6.91 1.62 11.36
11/10/2021 8:30:00 PM 7.57 45.626 0.044 6.9 1.57 11.37
11/10/2021 8:45:00 PM 7.5 45.5 0.044 6.92 1.48 11.4
11/10/2021 9:00:00 PM 7.44 45.392 0.044 6.91 1.44 11.41
11/10/2021 9:15:00 PM 7.37 45.266 0.044 6.88 1.43 11.43
11/10/2021 9:30:00 PM 7.31 45.158 0.044 6.91 1.49 11.44
11/10/2021 9:45:00 PM 7.25 45.05 0.044 6.92 1.6 11.46
11/10/2021 10:00:00 PM 7.18 44.924 0.044 6.9 1.72 11.49
11/10/2021 10:15:00 PM 7.12 44.816 0.044 6.88 1.56 11.5
11/10/2021 10:30:00 PM 7.06 44.708 0.044 6.87 1.55 11.52
11/10/2021 10:45:00 PM 6.99 44.582 0.044 6.87 1.71 11.54
11/10/2021 11:00:00 PM 6.93 44.474 0.044 6.88 1.46 11.57
11/10/2021 11:15:00 PM 6.87 44.366 0.044 6.86 1.51 11.58
11/10/2021 11:30:00 PM 6.81 44.258 0.044 6.87 1.46 11.61
11/10/2021 11:45:00 PM 6.74 44.132 0.044 6.88 1.61 11.63
11/11/2021 12:00:00 AM 6.68 44.024 0.044 6.87 1.71 11.66
11/11/2021 12:15:00 AM 6.62 43.916 0.044 6.87 1.53 11.67
11/11/2021 12:30:00 AM 6.56 43.808 0.044 6.89 1.57 11.69
11/11/2021 12:45:00 AM 6.49 43.682 0.044 6.89 1.59 11.71
11/11/2021 1:00:00 AM 6.43 43.574 0.044 6.87 1.6 11.73
11/11/2021 1:15:00 AM 6.37 43.466 0.044 6.89 1.5 11.75
11/11/2021 1:30:00 AM 6.31 43.358 0.044 6.88 1.73 11.76
11/11/2021 1:45:00 AM 6.26 43.268 0.044 6.87 1.56 11.77
11/11/2021 2:00:00 AM 6.2 43.16 0.044 6.88 1.55 11.79
11/11/2021 2:15:00 AM 6.14 43.052 0.044 6.87 1.55 11.81
11/11/2021 2:30:00 AM 6.09 42.962 0.044 6.86 1.42 11.82
11/11/2021 2:45:00 AM 6.06 42.908 0.044 6.85 1.62 11.84
11/11/2021 3:00:00 AM 6.03 42.854 0.044 6.87 1.4 11.85
11/11/2021 3:15:00 AM 5.99 42.782 0.044 6.87 1.59 11.86
11/11/2021 3:30:00 AM 5.95 42.71 0.044 6.89 1.53 11.87
11/11/2021 3:45:00 AM 5.92 42.656 0.044 6.84 3.69 11.89
11/11/2021 4:00:00 AM 5.9 42.62 0.044 6.85 1.43 11.89
11/11/2021 4:15:00 AM 5.87 42.566 0.044 6.86 1.59 11.9
11/11/2021 4:30:00 AM 5.84 42.512 0.044 6.81 1.43 11.91
11/11/2021 4:45:00 AM 5.81 42.458 0.044 6.82 1.76 11.92
11/11/2021 5:00:00 AM 5.78 42.404 0.044 6.85 1.47 11.93
11/11/2021 5:15:00 AM 5.75 42.35 0.044 6.85 1.42 11.94
11/11/2021 5:30:00 AM 5.71 42.278 0.044 6.82 1.61 11.95
11/11/2021 5:45:00 AM 5.68 42.224 0.044 6.84 1.45 11.96
11/11/2021 6:00:00 AM 5.65 42.17 0.044 6.85 1.51 11.97
11/11/2021 6:15:00 AM 5.62 42.116 0.044 6.86 1.64 11.98
11/11/2021 6:30:00 AM 5.59 42.062 0.044 6.84 1.9 11.99
11/11/2021 6:45:00 AM 5.56 42.008 0.044 6.83 1.41 12
11/11/2021 7:00:00 AM 5.53 41.954 0.044 6.85 1.79 12.02
11/11/2021 7:15:00 AM 5.5 41.9 0.044 6.85 2 12.05
11/11/2021 7:30:00 AM 5.47 41.846 0.044 6.85 1.5 12.1
11/11/2021 7:45:00 AM 5.45 41.81 0.044 6.89 1.44 12.15
11/11/2021 8:00:00 AM 5.44 41.792 0.044 6.9 1.58 12.22
11/11/2021 8:15:00 AM 5.45 41.81 0.044 6.92 2.32 12.31
11/11/2021 8:30:00 AM 5.45 41.81 0.044 6.93 1.82 12.38
11/11/2021 8:45:00 AM 5.47 41.846 0.044 6.96 2.43 12.43
11/11/2021 9:00:00 AM 5.49 41.882 0.044 6.97 1.51 12.47
11/11/2021 9:15:00 AM 5.54 41.972 0.044 7.01 1.46 12.51
11/11/2021 9:30:00 AM 5.6 42.08 0.044 7.06 1.45 12.53
11/11/2021 9:45:00 AM 5.66 42.188 0.044 7.04 1.82 12.55
11/11/2021 10:00:00 AM 5.74 42.332 0.043 7.1 2.25 12.55
11/11/2021 10:15:00 AM 5.82 42.476 0.043 7.08 1.65 12.54
11/11/2021 10:30:00 AM 5.9 42.62 0.043 7.08 1.95 12.53
11/11/2021 10:45:00 AM 6 42.8 0.043 7.12 2.3 12.51
11/11/2021 11:00:00 AM 6.1 42.98 0.043 7.16 2.01 12.49
11/11/2021 11:15:00 AM 6.18 43.124 0.043 7.15 1.35 12.47
11/11/2021 11:30:00 AM 6.28 43.304 0.043 7.14 1.4 12.45
11/11/2021 11:45:00 AM 6.38 43.484 0.043 7.15 1.33 12.43
11/11/2021 12:00:00 PM 6.47 43.646 0.043 7.18 1.73 12.39
11/11/2021 12:15:00 PM 6.63 43.934 0.043 7.16 1.56 12.37
11/11/2021 12:30:00 PM 6.71 44.078 0.043 7.18 1.54 12.34
11/11/2021 12:45:00 PM 6.78 44.204 0.043 7.18 2.29 12.3
11/11/2021 1:00:00 PM 6.89 44.402 0.043 7.17 1.49 12.25
11/11/2021 1:15:00 PM 6.99 44.582 0.043 7.18 1.42 12.22
11/11/2021 1:30:00 PM 7.07 44.726 0.043 7.18 1.68 12.2
11/11/2021 1:45:00 PM 7.13 44.834 0.043 7.16 1.32 12.16
11/11/2021 2:00:00 PM 7.24 45.032 0.043 7.19 1.71 12.14
11/11/2021 2:15:00 PM 7.32 45.176 0.042 7.15 3.6 12.1
11/11/2021 2:30:00 PM 7.42 45.356 0.04 7.19 2.99 12.08
11/11/2021 2:45:00 PM 7.48 45.464 0.043 7.19 1.81 12.06
11/11/2021 3:00:00 PM 7.55 45.59 0.043 7.19 1.4 12.01
11/11/2021 3:15:00 PM 7.6 45.68 0.043 7.19 2.75 11.98
11/11/2021 3:30:00 PM 7.65 45.77 0.043 7.15 1.3 11.93
11/11/2021 3:45:00 PM 7.7 45.86 0.043 7.15 1.73 11.89
11/11/2021 4:00:00 PM 7.73 45.914 0.043 7.13 1.74 11.85
11/11/2021 4:15:00 PM 7.73 45.914 0.043 7.11 2.07 11.79
11/11/2021 4:30:00 PM 7.73 45.914 0.043 7.1 1.54 11.71
11/11/2021 4:45:00 PM 7.73 45.914 0.042 7.04 3.96 11.63
11/11/2021 5:00:00 PM 7.73 45.914 0.043 7.04 1.86 11.55
11/11/2021 5:15:00 PM 7.72 45.896 0.043 7 1.29 11.49
11/11/2021 5:30:00 PM 7.7 45.86 0.043 7 1.64 11.44
11/11/2021 5:45:00 PM 7.7 45.86 0.043 6.99 1.43 11.39
11/11/2021 6:00:00 PM 7.71 45.878 0.043 6.98 2.83 11.36
11/11/2021 6:15:00 PM 7.71 45.878 0.044 6.93 1.81 11.34
11/11/2021 6:30:00 PM 7.72 45.896 0.044 6.92 1.99 11.32
11/11/2021 6:45:00 PM 7.73 45.914 0.044 6.92 1.63 11.31
11/11/2021 7:00:00 PM 7.75 45.95 0.043 6.9 3.12 11.3
11/11/2021 7:15:00 PM 7.77 45.986 0.044 6.9 2.06 11.29
11/11/2021 7:30:00 PM 7.79 46.022 0.044 6.94 1.95 11.27
11/11/2021 7:45:00 PM 7.81 46.058 0.044 6.9 2.34 11.27
11/11/2021 8:00:00 PM 7.83 46.094 0.044 6.93 1.98 11.25
11/11/2021 8:15:00 PM 7.85 46.13 0.044 6.92 2.35 11.24
11/11/2021 8:30:00 PM 7.87 46.166 0.043 6.9 3.08 11.24
11/11/2021 8:45:00 PM 7.91 46.238 0.044 6.92 1.82 11.22
11/11/2021 9:00:00 PM 7.93 46.274 0.044 6.91 1.39 11.21
11/11/2021 9:15:00 PM 7.96 46.328 0.043 6.9 4.22 11.2
11/11/2021 9:30:00 PM 7.98 46.364 0.043 6.9 3.16 11.19
11/11/2021 9:45:00 PM 8 46.4 0.043 6.92 3.31 11.19
11/11/2021 10:00:00 PM 8.02 46.436 0.044 6.91 2.41 11.18
11/11/2021 10:15:00 PM 8.04 46.472 0.043 6.88 2.9 11.17
11/11/2021 10:30:00 PM 8.05 46.49 0.044 6.88 1.63 11.16
11/11/2021 10:45:00 PM 8.07 46.526 0.043 6.91 6.15 11.16
11/11/2021 11:00:00 PM 8.09 46.562 0.044 6.9 1.77 11.15
11/11/2021 11:15:00 PM 8.1 46.58 0.043 6.9 3.68 11.14
11/11/2021 11:30:00 PM 8.12 46.616 0.044 6.89 1.48 11.12
11/11/2021 11:45:00 PM 8.14 46.652 0.044 6.89 1.47 11.12
11/12/2021 12:00:00 AM 8.17 46.706 0.044 6.87 1.68 11.11
11/12/2021 12:15:00 AM 8.19 46.742 0.044 6.9 1.55 11.1
11/12/2021 12:30:00 AM 8.21 46.778 0.044 6.89 1.59 11.09
11/12/2021 12:45:00 AM 8.24 46.832 0.044 6.89 1.59 11.07
11/12/2021 1:00:00 AM 8.27 46.886 0.044 6.9 1.49 11.07
11/12/2021 1:15:00 AM 8.3 46.94 0.044 6.91 1.8 11.06
11/12/2021 1:30:00 AM 8.33 46.994 0.044 6.94 1.75 11.05
11/12/2021 1:45:00 AM 8.35 47.03 0.044 6.91 1.82 11.04
11/12/2021 2:00:00 AM 8.38 47.084 0.044 6.9 1.53 11.03
11/12/2021 2:15:00 AM 8.4 47.12 0.044 6.91 1.43 11.02
11/12/2021 2:30:00 AM 8.43 47.174 0.044 6.89 1.52 11.01
11/12/2021 2:45:00 AM 8.45 47.21 0.044 6.9 1.54 11
11/12/2021 3:00:00 AM 8.49 47.282 0.043 6.93 2.77 10.99
11/12/2021 3:15:00 AM 8.51 47.318 0.044 6.97 1.59 10.98
11/12/2021 3:30:00 AM 8.54 47.372 0.042 6.91 3.02 10.97
11/12/2021 3:45:00 AM 8.59 47.462 0.044 6.95 1.67 10.96
11/12/2021 4:00:00 AM 8.63 47.534 0.044 6.94 1.81 10.95
11/12/2021 4:15:00 AM 8.66 47.588 0.044 6.92 2.05 10.95
11/12/2021 4:30:00 AM 8.67 47.606 0.043 6.9 2.59 10.93
11/12/2021 4:45:00 AM 8.69 47.642 0.042 6.89 4.25 10.93
11/12/2021 5:00:00 AM 8.71 47.678 0.043 6.91 3.26 10.92
11/12/2021 5:15:00 AM 8.72 47.696 0.042 6.91 4.88 10.92
11/12/2021 5:30:00 AM 8.72 47.696 0.043 6.91 3.47 10.92
11/12/2021 5:45:00 AM 8.72 47.696 0.043 6.93 3.73 10.92
11/12/2021 6:00:00 AM 8.72 47.696 0.041 6.87 5.33 10.93
11/12/2021 6:15:00 AM 8.73 47.714 0.043 6.84 4.92 10.93
11/12/2021 6:30:00 AM 8.73 47.714 0.043 6.86 5.75 10.93
11/12/2021 6:45:00 AM 8.74 47.732 0.044 6.83 4.71 10.92
11/12/2021 7:00:00 AM 8.74 47.732 0.043 6.84 5.76 10.93
11/12/2021 7:15:00 AM 8.75 47.75 0.044 6.91 4.15 10.93
11/12/2021 7:30:00 AM 8.75 47.75 0.044 6.9 4.2 10.93
11/12/2021 7:45:00 AM 8.75 47.75 0.044 6.97 4.36 10.95
11/12/2021 8:00:00 AM 8.73 47.714 0.044 6.89 4.77 10.97
11/12/2021 8:15:00 AM 8.72 47.696 0.044 6.88 4.96 11
11/12/2021 8:30:00 AM 8.7 47.66 0.044 6.97 4.8 11.06
11/12/2021 8:45:00 AM 8.68 47.624 0.043 6.97 5.4 11.11
11/12/2021 9:00:00 AM 8.67 47.606 0.044 7.01 6.01 11.19
11/12/2021 9:15:00 AM 8.67 47.606 0.044 7.04 4.54 11.26
11/12/2021 9:30:00 AM 8.65 47.57 0.043 7.04 4.33 11.3
11/12/2021 9:45:00 AM 8.66 47.588 0.042 7 5.15 11.36
11/12/2021 10:00:00 AM 8.64 47.552 0.043 7.04 4.09 11.39
11/12/2021 10:15:00 AM 8.65 47.57 0.041 7.05 4.87 11.4
11/12/2021 10:30:00 AM 8.65 47.57 0.043 7.09 3.75 11.41
11/12/2021 10:45:00 AM 8.66 47.588 0.043 7.09 3.82 11.42
11/12/2021 11:00:00 AM 8.68 47.624 0.042 7.08 4.66 11.42
11/12/2021 11:15:00 AM 8.71 47.678 0.043 7.18 3.35 11.42
11/12/2021 11:30:00 AM 8.74 47.732 0.042 7.17 5.1 11.43
11/12/2021 11:45:00 AM 8.78 47.804 0.043 7.16 3.57 11.44
11/12/2021 12:00:00 PM 8.82 47.876 0.043 7.16 3.74 11.44
11/12/2021 12:15:00 PM 8.85 47.93 0.043 7.15 4.2 11.44
11/12/2021 12:30:00 PM 8.88 47.984 0.043 7.17 3.69 11.42
11/12/2021 12:45:00 PM 8.89 48.002 0.042 7.13 5.39 11.4
11/12/2021 1:00:00 PM 8.95 48.11 0.043 7.17 3.77 11.41
11/12/2021 1:15:00 PM 8.95 48.11 0.043 7.18 5.21 11.41
11/12/2021 1:30:00 PM 8.99 48.182 0.043 7.18 3.96 11.41
11/12/2021 1:45:00 PM 9.02 48.236 0.042 7.19 5.67 11.4
11/12/2021 2:00:00 PM 9.02 48.236 0.043 7.2 3.83 11.39
11/12/2021 2:15:00 PM 9.01 48.218 0.043 7.13 5.53 11.36
11/12/2021 2:30:00 PM 9.03 48.254 0.042 7.15 6.05 11.36
11/12/2021 2:45:00 PM 9.04 48.272 0.043 7.12 4.38 11.37
11/12/2021 3:00:00 PM 9.04 48.272 0.042 7.15 5.53 11.38
11/12/2021 3:15:00 PM 9.03 48.254 0.042 7.14 8.15 11.37
11/12/2021 3:30:00 PM 9.01 48.218 0.042 7.13 7.2 11.34
11/12/2021 3:45:00 PM 8.96 48.128 0.042 7.11 4.47 11.3
11/12/2021 4:00:00 PM 8.92 48.056 0.043 7.11 4.02 11.29
11/12/2021 4:15:00 PM 8.85 47.93 0.043 7.08 5.29 11.25
11/12/2021 4:30:00 PM 8.78 47.804 0.043 7.07 11.4 11.22
11/12/2021 4:45:00 PM 8.72 47.696 0.042 7.07 7.21 11.18
11/12/2021 5:00:00 PM 8.65 47.57 0.043 7.05 5.26 11.14
11/12/2021 5:15:00 PM 8.58 47.444 0.043 7.02 6.23 11.12
11/12/2021 5:30:00 PM 8.52 47.336 0.043 6.98 3.91 11.1
11/12/2021 5:45:00 PM 8.44 47.192 0.043 6.98 4.46 11.09
11/12/2021 6:00:00 PM 8.37 47.066 0.043 6.97 4.55 11.08
11/12/2021 6:15:00 PM 8.3 46.94 0.043 6.93 3.05 11.09
11/12/2021 6:30:00 PM 8.22 46.796 0.044 6.93 3.04 11.09
11/12/2021 6:45:00 PM 8.15 46.67 0.043 6.94 3.01 11.11
11/12/2021 7:00:00 PM 8.08 46.544 0.043 6.88 3.67 11.12
11/12/2021 7:15:00 PM 8.01 46.418 0.042 6.89 4.39 11.14
11/12/2021 7:30:00 PM 7.94 46.292 0.044 6.9 2.81 11.16
11/12/2021 7:45:00 PM 7.88 46.184 0.044 6.93 2.8 11.17
11/12/2021 8:00:00 PM 7.82 46.076 0.044 6.89 4.21 11.18
11/12/2021 8:15:00 PM 7.76 45.968 0.044 6.91 3.19 11.2
11/12/2021 8:30:00 PM 7.7 45.86 0.044 6.9 4.35 11.21
11/12/2021 8:45:00 PM 7.63 45.734 0.044 6.88 2.94 11.23
11/12/2021 9:00:00 PM 7.58 45.644 0.044 6.89 2.75 11.25
11/12/2021 9:15:00 PM 7.54 45.572 0.044 6.87 2.91 11.26
11/12/2021 9:30:00 PM 7.48 45.464 0.044 6.89 2.39 11.27
11/12/2021 9:45:00 PM 7.43 45.374 0.043 6.89 5.43 11.29
11/12/2021 10:00:00 PM 7.37 45.266 0.044 6.88 2.12 11.3
11/12/2021 10:15:00 PM 7.3 45.14 0.044 6.89 2.48 11.32
11/12/2021 10:30:00 PM 7.24 45.032 0.044 6.89 3.12 11.33
11/12/2021 10:45:00 PM 7.18 44.924 0.044 6.9 2.71 11.35
11/12/2021 11:00:00 PM 7.12 44.816 0.044 6.89 2.18 11.36
11/12/2021 11:15:00 PM 7.05 44.69 0.044 6.9 2.56 11.38
11/12/2021 11:30:00 PM 6.99 44.582 0.044 6.89 2.11 11.39
11/12/2021 11:45:00 PM 6.93 44.474 0.044 6.89 2.34 11.41
11/13/2021 12:00:00 AM 6.87 44.366 0.044 6.9 1.99 11.43
11/13/2021 12:15:00 AM 6.82 44.276 0.044 6.89 2.1 11.45
11/13/2021 12:30:00 AM 6.76 44.168 0.044 6.9 2.28 11.47
11/13/2021 12:45:00 AM 6.71 44.078 0.044 6.88 2.42 11.48
11/13/2021 1:00:00 AM 6.67 44.006 0.044 6.88 2.11 11.5
11/13/2021 1:15:00 AM 6.62 43.916 0.044 6.89 2.16 11.51
11/13/2021 1:30:00 AM 6.58 43.844 0.044 6.91 2.85 11.52
11/13/2021 1:45:00 AM 6.54 43.772 0.044 6.89 1.96 11.53
11/13/2021 2:00:00 AM 6.51 43.718 0.044 6.89 1.9 11.54
11/13/2021 2:15:00 AM 6.49 43.682 0.044 6.88 2.09 11.55
11/13/2021 2:30:00 AM 6.47 43.646 0.045 6.88 1.77 11.56
11/13/2021 2:45:00 AM 6.45 43.61 0.044 6.9 1.83 11.56
11/13/2021 3:00:00 AM 6.44 43.592 0.044 6.89 2.25 11.57
11/13/2021 3:15:00 AM 6.42 43.556 0.045 6.91 1.9 11.57
11/13/2021 3:30:00 AM 6.41 43.538 0.045 6.9 1.63 11.57
11/13/2021 3:45:00 AM 6.4 43.52 0.044 6.91 2.14 11.58
11/13/2021 4:00:00 AM 6.39 43.502 0.045 6.9 1.83 11.58
11/13/2021 4:15:00 AM 6.38 43.484 0.045 6.91 1.93 11.58
11/13/2021 4:30:00 AM 6.37 43.466 0.045 6.91 1.77 11.58
11/13/2021 4:45:00 AM 6.36 43.448 0.045 6.91 1.75 11.58
11/13/2021 5:00:00 AM 6.35 43.43 0.044 6.91 1.71 11.59
11/13/2021 5:15:00 AM 6.34 43.412 0.045 6.9 1.84 11.59
11/13/2021 5:30:00 AM 6.33 43.394 0.045 6.94 1.72 11.59
11/13/2021 5:45:00 AM 6.32 43.376 0.045 6.9 1.58 11.6
11/13/2021 6:00:00 AM 6.32 43.376 0.045 6.91 1.9 11.6
11/13/2021 6:15:00 AM 6.32 43.376 0.045 6.94 1.67 11.6
11/13/2021 6:30:00 AM 6.33 43.394 0.045 6.9 1.7 11.6
11/13/2021 6:45:00 AM 6.33 43.394 0.045 6.89 1.67 11.59
11/13/2021 7:00:00 AM 6.35 43.43 0.045 6.9 1.72 11.59
11/13/2021 7:15:00 AM 6.36 43.448 0.045 6.9 1.89 11.59
11/13/2021 7:30:00 AM 6.37 43.466 0.045 6.92 1.77 11.6
11/13/2021 7:45:00 AM 6.39 43.502 0.045 6.92 1.53 11.62
11/13/2021 8:00:00 AM 6.41 43.538 0.044 6.92 1.6 11.65
11/13/2021 8:15:00 AM 6.43 43.574 0.044 6.95 1.57 11.68
11/13/2021 8:30:00 AM 6.46 43.628 0.044 6.97 1.87 11.7
11/13/2021 8:45:00 AM 6.49 43.682 0.044 6.98 1.46 11.74
11/13/2021 9:00:00 AM 6.52 43.736 0.044 7 1.67 11.8
11/13/2021 9:15:00 AM 6.53 43.754 0.044 6.98 1.46 11.8
11/13/2021 9:30:00 AM 6.58 43.844 0.044 7.02 1.59 11.87
11/13/2021 9:45:00 AM 6.61 43.898 0.044 7.05 1.54 11.9
11/13/2021 10:00:00 AM 6.62 43.916 0.044 7.06 1.65 11.93
11/13/2021 10:15:00 AM 6.64 43.952 0.044 7.06 1.63 11.96
11/13/2021 10:30:00 AM 6.66 43.988 0.044 7.1 1.74 11.97
11/13/2021 10:45:00 AM 6.67 44.006 0.044 7.11 1.51 12
11/13/2021 11:00:00 AM 6.69 44.042 0.044 7.13 1.72 12.02
11/13/2021 11:15:00 AM 6.72 44.096 0.044 7.13 1.73 12.05
11/13/2021 11:30:00 AM 6.75 44.15 0.044 7.15 1.41 12.07
11/13/2021 11:45:00 AM 6.76 44.168 0.044 7.18 1.54 12.07
11/13/2021 12:00:00 PM 6.76 44.168 0.044 7.16 1.51 12.05
11/13/2021 12:15:00 PM 6.75 44.15 0.043 7.17 1.6 12.02
11/13/2021 12:30:00 PM 6.76 44.168 0.043 7.17 1.53 12.04
11/13/2021 12:45:00 PM 6.76 44.168 0.043 7.18 1.45 12.04
11/13/2021 1:00:00 PM 6.8 44.24 0.043 7.2 1.45 12.05
11/13/2021 1:15:00 PM 6.9 44.42 0.042 7.17 3.08 12.05
11/13/2021 1:30:00 PM 6.89 44.402 0.041 7.18 2.86 12.05
11/13/2021 1:45:00 PM 6.94 44.492 0.043 7.21 1.52 12.05
11/13/2021 2:00:00 PM 6.98 44.564 0.043 7.22 1.58 12.04
11/13/2021 2:15:00 PM 6.95 44.51 0.043 7.19 1.64 12
11/13/2021 2:30:00 PM 6.95 44.51 0.043 7.17 1.71 11.97
11/13/2021 2:45:00 PM 6.95 44.51 0.043 7.18 1.46 11.97
11/13/2021 3:00:00 PM 6.93 44.474 0.043 7.17 1.69 11.95
11/13/2021 3:15:00 PM 6.91 44.438 0.043 7.16 1.36 11.9
11/13/2021 3:30:00 PM 6.87 44.366 0.043 7.14 1.42 11.85
11/13/2021 3:45:00 PM 6.83 44.294 0.042 7.08 2.91 11.8
11/13/2021 4:00:00 PM 6.79 44.222 0.041 7.05 2.59 11.76
11/13/2021 4:15:00 PM 6.75 44.15 0.044 7.07 1.47 11.72
11/13/2021 4:30:00 PM 6.72 44.096 0.044 7.05 1.69 11.69
11/13/2021 4:45:00 PM 6.69 44.042 0.044 7.03 1.44 11.66
11/13/2021 5:00:00 PM 6.65 43.97 0.044 7.01 1.57 11.63
11/13/2021 5:15:00 PM 6.62 43.916 0.044 7.01 1.46 11.61
11/13/2021 5:30:00 PM 6.59 43.862 0.044 7 1.62 11.6
11/13/2021 5:45:00 PM 6.56 43.808 0.044 6.96 1.76 11.59
11/13/2021 6:00:00 PM 6.53 43.754 0.044 6.99 1.59 11.58
11/13/2021 6:15:00 PM 6.5 43.7 0.044 6.97 1.65 11.58
11/13/2021 6:30:00 PM 6.48 43.664 0.044 6.96 1.51 11.59
11/13/2021 6:45:00 PM 6.45 43.61 0.044 6.95 1.5 11.59
11/13/2021 7:00:00 PM 6.43 43.574 0.044 6.97 1.64 11.6
11/13/2021 7:15:00 PM 6.41 43.538 0.044 6.96 1.53 11.6
11/13/2021 7:30:00 PM 6.39 43.502 0.044 6.95 1.49 11.6
11/13/2021 7:45:00 PM 6.37 43.466 0.044 6.95 1.44 11.61
11/13/2021 8:00:00 PM 6.35 43.43 0.044 6.96 1.52 11.62
11/13/2021 8:15:00 PM 6.33 43.394 0.045 6.93 1.54 11.62
11/13/2021 8:30:00 PM 6.31 43.358 0.045 6.95 1.47 11.63
11/13/2021 8:45:00 PM 6.3 43.34 0.045 6.94 1.98 11.63
11/13/2021 9:00:00 PM 6.28 43.304 0.045 6.96 1.58 11.64
11/13/2021 9:15:00 PM 6.27 43.286 0.045 6.95 1.49 11.64
11/13/2021 9:30:00 PM 6.25 43.25 0.045 6.95 1.59 11.64
11/13/2021 9:45:00 PM 6.24 43.232 0.045 6.97 1.61 11.65
11/13/2021 10:00:00 PM 6.22 43.196 0.042 6.92 2.89 11.66
11/13/2021 10:15:00 PM 6.2 43.16 0.045 6.95 1.7 11.66
11/13/2021 10:30:00 PM 6.19 43.142 0.045 6.95 1.68 11.66
11/13/2021 10:45:00 PM 6.18 43.124 0.045 6.95 1.48 11.66
11/13/2021 11:00:00 PM 6.17 43.106 0.045 6.93 1.61 11.67
11/13/2021 11:15:00 PM 6.17 43.106 0.045 6.94 1.59 11.67
11/13/2021 11:30:00 PM 6.16 43.088 0.044 6.91 2.87 11.68
11/13/2021 11:45:00 PM 6.15 43.07 0.044 6.92 2.72 11.69
11/14/2021 12:00:00 AM 6.14 43.052 0.045 6.95 1.53 11.68
11/14/2021 12:15:00 AM 6.13 43.034 0.045 6.95 1.57 11.68
11/14/2021 12:30:00 AM 6.12 43.016 0.045 6.94 1.65 11.69
11/14/2021 12:45:00 AM 6.1 42.98 0.045 6.94 1.69 11.69
11/14/2021 1:00:00 AM 6.09 42.962 0.045 6.95 1.57 11.69
11/14/2021 1:15:00 AM 6.08 42.944 0.045 6.95 1.61 11.7
11/14/2021 1:30:00 AM 6.07 42.926 0.045 6.93 1.48 11.7
11/14/2021 1:45:00 AM 6.05 42.89 0.045 6.91 1.51 11.71
11/14/2021 2:00:00 AM 6.04 42.872 0.045 6.93 1.75 11.71
11/14/2021 2:15:00 AM 6.03 42.854 0.045 6.92 1.47 11.72
11/14/2021 2:30:00 AM 6.02 42.836 0.045 6.92 1.53 11.72
11/14/2021 2:45:00 AM 6.01 42.818 0.045 6.94 1.65 11.72
11/14/2021 3:00:00 AM 6 42.8 0.045 6.93 1.47 11.73
11/14/2021 3:15:00 AM 6 42.8 0.045 6.94 1.46 11.73
11/14/2021 3:30:00 AM 5.99 42.782 0.045 6.96 1.44 11.73
11/14/2021 3:45:00 AM 5.98 42.764 0.045 6.94 1.4 11.73
11/14/2021 4:00:00 AM 5.97 42.746 0.045 6.96 1.5 11.74
11/14/2021 4:15:00 AM 5.96 42.728 0.045 6.96 1.46 11.74
11/14/2021 4:30:00 AM 5.95 42.71 0.045 6.93 1.44 11.74
11/14/2021 4:45:00 AM 5.94 42.692 0.045 6.94 1.47 11.75
11/14/2021 5:00:00 AM 5.93 42.674 0.045 6.95 1.39 11.75
11/14/2021 5:15:00 AM 5.92 42.656 0.045 6.94 1.48 11.76
11/14/2021 5:30:00 AM 5.91 42.638 0.045 6.93 1.41 11.76
11/14/2021 5:45:00 AM 5.9 42.62 0.045 6.94 1.44 11.76
11/14/2021 6:00:00 AM 5.89 42.602 0.045 6.93 1.55 11.77
11/14/2021 6:15:00 AM 5.88 42.584 0.045 6.94 1.52 11.77
11/14/2021 6:30:00 AM 5.86 42.548 0.045 6.94 1.44 11.77
11/14/2021 6:45:00 AM 5.85 42.53 0.045 6.95 1.69 11.78
11/14/2021 7:00:00 AM 5.83 42.494 0.045 6.94 1.44 11.79
11/14/2021 7:15:00 AM 5.82 42.476 0.045 6.93 1.54 11.81
11/14/2021 7:30:00 AM 5.8 42.44 0.045 6.95 1.39 11.85
11/14/2021 7:45:00 AM 5.8 42.44 0.045 6.98 1.5 11.9
11/14/2021 8:00:00 AM 5.8 42.44 0.045 6.98 1.45 11.96
11/14/2021 8:15:00 AM 5.8 42.44 0.045 7 1.47 12
11/14/2021 8:30:00 AM 5.8 42.44 0.044 6.97 1.4 12.04
11/14/2021 8:45:00 AM 5.81 42.458 0.044 7.01 1.5 12.06
11/14/2021 9:00:00 AM 5.81 42.458 0.044 7.02 1.47 12.09
11/14/2021 9:15:00 AM 5.82 42.476 0.044 7.06 1.4 12.11
11/14/2021 9:30:00 AM 5.83 42.494 0.044 7.06 1.4 12.15
11/14/2021 9:45:00 AM 5.85 42.53 0.044 7.04 1.5 12.2
11/14/2021 10:00:00 AM 5.87 42.566 0.044 7.09 1.32 12.24
11/14/2021 10:15:00 AM 5.93 42.674 0.044 7.1 1.4 12.29
11/14/2021 10:30:00 AM 5.97 42.746 0.044 7.13 1.35 12.32
11/14/2021 10:45:00 AM 6 42.8 0.044 7.15 1.43 12.33
11/14/2021 11:00:00 AM 6.06 42.908 0.044 7.16 1.41 12.34
11/14/2021 11:15:00 AM 6.13 43.034 0.044 7.18 1.42 12.34
11/14/2021 11:30:00 AM 6.17 43.106 0.044 7.17 1.45 12.33
11/14/2021 11:45:00 AM 6.2 43.16 0.044 7.19 1.36 12.32
11/14/2021 12:00:00 PM 6.26 43.268 0.044 7.2 1.39 12.31
11/14/2021 12:15:00 PM 6.31 43.358 0.044 7.22 1.34 12.29
11/14/2021 12:30:00 PM 6.33 43.394 0.043 7.21 1.42 12.26
11/14/2021 12:45:00 PM 6.35 43.43 0.043 7.22 1.36 12.25
11/14/2021 1:00:00 PM 6.36 43.448 0.043 7.22 1.4 12.23
11/14/2021 1:15:00 PM 6.37 43.466 0.043 7.21 1.69 12.22
11/14/2021 1:30:00 PM 6.39 43.502 0.043 7.22 1.33 12.22
11/14/2021 1:45:00 PM 6.39 43.502 0.043 7.21 1.36 12.2
11/14/2021 2:00:00 PM 6.38 43.484 0.043 7.22 1.39 12.16
11/14/2021 2:15:00 PM 6.39 43.502 0.043 7.21 1.29 12.15
11/14/2021 2:30:00 PM 6.39 43.502 0.043 7.19 1.39 12.14
11/14/2021 2:45:00 PM 6.39 43.502 0.043 7.18 1.55 12.1
11/14/2021 3:00:00 PM 6.39 43.502 0.043 7.18 1.4 12.07
11/14/2021 3:15:00 PM 6.37 43.466 0.043 7.13 1.35 12
11/14/2021 3:30:00 PM 6.34 43.412 0.043 7.13 1.41 11.95
11/14/2021 3:45:00 PM 6.32 43.376 0.043 7.09 1.37 11.91
11/14/2021 4:00:00 PM 6.3 43.34 0.044 7.09 1.44 11.86
11/14/2021 4:15:00 PM 6.25 43.25 0.044 7.05 1.36 11.83
11/14/2021 4:30:00 PM 6.18 43.124 0.044 7.03 1.59 11.8
11/14/2021 4:45:00 PM 6.14 43.052 0.044 7.02 1.48 11.77
11/14/2021 5:00:00 PM 6.1 42.98 0.044 7 1.43 11.74
11/14/2021 5:15:00 PM 6.02 42.836 0.044 7.01 1.35 11.73
11/14/2021 5:30:00 PM 5.96 42.728 0.044 6.99 1.5 11.72
11/14/2021 5:45:00 PM 5.89 42.602 0.044 6.98 1.59 11.72
11/14/2021 6:00:00 PM 5.81 42.458 0.044 6.98 1.57 11.73
11/14/2021 6:15:00 PM 5.75 42.35 0.044 6.95 1.67 11.74
11/14/2021 6:30:00 PM 5.69 42.242 0.043 6.95 2.54 11.76
11/14/2021 6:45:00 PM 5.64 42.152 0.042 6.93 3.22 11.77
11/14/2021 7:00:00 PM 5.6 42.08 0.044 6.94 1.64 11.78
11/14/2021 7:15:00 PM 5.56 42.008 0.044 6.95 1.7 11.8
11/14/2021 7:30:00 PM 5.53 41.954 0.044 6.95 1.91 11.81
11/14/2021 7:45:00 PM 5.51 41.918 0.044 6.94 1.53 11.82
11/14/2021 8:00:00 PM 5.5 41.9 0.043 6.9 3.56 11.82
11/14/2021 8:15:00 PM 5.49 41.882 0.044 6.95 2.14 11.83
11/14/2021 8:30:00 PM 5.47 41.846 0.043 6.92 2.79 11.84
11/14/2021 8:45:00 PM 5.45 41.81 0.044 6.92 1.85 11.84
11/14/2021 9:00:00 PM 5.44 41.792 0.044 6.94 1.87 11.85
11/14/2021 9:15:00 PM 5.42 41.756 0.044 6.91 1.94 11.85
11/14/2021 9:30:00 PM 5.42 41.756 0.044 6.92 1.9 11.86
11/14/2021 9:45:00 PM 5.41 41.738 0.044 6.93 1.82 11.86
11/14/2021 10:00:00 PM 5.4 41.72 0.044 6.94 1.9 11.87
11/14/2021 10:15:00 PM 5.4 41.72 0.044 6.94 1.98 11.87
11/14/2021 10:30:00 PM 5.39 41.702 0.044 6.91 1.8 11.87
11/14/2021 10:45:00 PM 5.38 41.684 0.044 6.94 2.04 11.87
11/14/2021 11:00:00 PM 5.39 41.702 0.044 6.9 2.01 11.87
11/14/2021 11:15:00 PM 5.38 41.684 0.045 6.92 1.79 11.87
11/14/2021 11:30:00 PM 5.39 41.702 0.045 6.92 1.88 11.87
11/14/2021 11:45:00 PM 5.39 41.702 0.045 6.95 1.66 11.87
11/15/2021 12:00:00 AM 5.38 41.684 0.045 6.93 1.83 11.87
11/15/2021 12:15:00 AM 5.38 41.684 0.045 6.92 1.87 11.87
11/15/2021 12:30:00 AM 5.36 41.648 0.045 6.92 1.84 11.87
11/15/2021 12:45:00 AM 5.35 41.63 0.045 6.93 2.01 11.87
11/15/2021 1:00:00 AM 5.33 41.594 0.045 6.94 1.61 11.88
11/15/2021 1:15:00 AM 5.33 41.594 0.045 6.95 1.69 11.88
11/15/2021 1:30:00 AM 5.32 41.576 0.045 6.93 1.75 11.88
11/15/2021 1:45:00 AM 5.32 41.576 0.045 6.93 1.62 11.88
11/15/2021 2:00:00 AM 5.33 41.594 0.045 6.93 2.2 11.88
11/15/2021 2:15:00 AM 5.33 41.594 0.045 6.93 1.79 11.88
11/15/2021 2:30:00 AM 5.33 41.594 0.045 6.93 1.74 11.88
11/15/2021 2:45:00 AM 5.33 41.594 0.045 6.94 1.68 11.88
11/15/2021 3:00:00 AM 5.34 41.612 0.045 6.93 1.8 11.88
11/15/2021 3:15:00 AM 5.34 41.612 0.045 6.93 1.71 11.88
11/15/2021 3:30:00 AM 5.34 41.612 0.045 6.93 1.86 11.88
11/15/2021 3:45:00 AM 5.33 41.594 0.045 6.94 1.78 11.88
11/15/2021 4:00:00 AM 5.32 41.576 0.045 6.93 1.84 11.88
11/15/2021 4:15:00 AM 5.32 41.576 0.045 6.92 1.61 11.88
11/15/2021 4:30:00 AM 5.32 41.576 0.045 6.93 1.89 11.89
11/15/2021 4:45:00 AM 5.32 41.576 0.045 6.95 1.72 11.89
11/15/2021 5:00:00 AM 5.32 41.576 0.045 6.94 2.52 11.89
11/15/2021 5:15:00 AM 5.33 41.594 0.045 6.93 1.9 11.89
11/15/2021 5:30:00 AM 5.33 41.594 0.045 6.93 2.02 11.89
11/15/2021 5:45:00 AM 5.32 41.576 0.045 6.91 1.68 11.89
11/15/2021 6:00:00 AM 5.32 41.576 0.045 6.94 1.7 11.89
11/15/2021 6:15:00 AM 5.32 41.576 0.045 6.94 2.12 11.89
11/15/2021 6:30:00 AM 5.32 41.576 0.045 6.94 1.72 11.9
11/15/2021 6:45:00 AM 5.31 41.558 0.045 6.94 1.83 11.9
11/15/2021 7:00:00 AM 5.31 41.558 0.045 6.94 1.75 11.91
11/15/2021 7:15:00 AM 5.31 41.558 0.045 6.95 1.75 11.91
11/15/2021 7:30:00 AM 5.32 41.576 0.044 6.93 1.61 11.93
11/15/2021 7:45:00 AM 5.33 41.594 0.044 6.95 1.71 11.96
11/15/2021 8:00:00 AM 5.33 41.594 0.044 6.95 1.83 11.98
11/15/2021 8:15:00 AM 5.34 41.612 0.044 6.95 1.76 12.02
11/15/2021 8:30:00 AM 5.36 41.648 0.044 7 1.52 12.06
11/15/2021 8:45:00 AM 5.37 41.666 0.044 7 1.8 12.11
11/15/2021 9:00:00 AM 5.4 41.72 0.044 7.02 1.79 12.18
11/15/2021 9:15:00 AM 5.43 41.774 0.044 7.02 1.68 12.25